<?xml version='1.0' encoding='UTF-8'?><gpx version="1.1" creator="JPX - https://github.com/jenetics/jpx" xmlns="http://www.topografix.com/GPX/1/1"><trk><trkseg><trkpt lat="50.97962257485912" lon="5.699074071677205"><ele>43.00000000000001</ele><time>2026-04-10T09:40:25.999Z</time></trkpt><trkpt lat="50.97969070878068" lon="5.69915640792121"><ele>43.0</ele><time>2026-04-10T10:15:25.999Z</time></trkpt><trkpt lat="50.97964869590962" lon="5.69923535778533"><ele>43.0</ele><time>2026-04-10T10:20:45Z</time></trkpt><trkpt lat="50.97971374941657" lon="5.699208807538346"><ele>43.0</ele><time>2026-04-10T10:21:40Z</time></trkpt><trkpt lat="50.97972218562108" lon="5.699328625544429"><ele>43.0</ele><time>2026-04-10T10:22:22Z</time></trkpt><trkpt lat="50.979704986086986" lon="5.69943867888056"><ele>43.00000000000001</ele><time>2026-04-10T10:22:26Z</time></trkpt><trkpt lat="50.979672819292865" lon="5.6995445151933035"><ele>43.0</ele><time>2026-04-10T10:22:33Z</time></trkpt><trkpt lat="50.979750780500375" lon="5.699639032439368"><ele>42.833333333333336</ele><time>2026-04-10T10:22:41Z</time></trkpt><trkpt lat="50.979859329790706" lon="5.699720689038394"><ele>42.66666666666667</ele><time>2026-04-10T10:22:43Z</time></trkpt><trkpt lat="50.97992730751703" lon="5.6997520483641795"><ele>42.5</ele><time>2026-04-10T10:22:44Z</time></trkpt><trkpt lat="50.97999244021187" lon="5.69977977923967"><ele>42.333333333333336</ele><time>2026-04-10T10:22:44.999Z</time></trkpt><trkpt lat="50.98009583254906" lon="5.699817155457496"><ele>42.166666666666664</ele><time>2026-04-10T10:22:46.999Z</time></trkpt><trkpt lat="50.9801712628611" lon="5.699872791946579"><ele>42.0</ele><time>2026-04-10T10:22:48.999Z</time></trkpt><trkpt lat="50.98016647748441" lon="5.699978587041278"><ele>41.8</ele><time>2026-04-10T10:22:49.999Z</time></trkpt><trkpt lat="50.980145351917784" lon="5.700151486275411"><ele>41.6</ele><time>2026-04-10T10:22:51.999Z</time></trkpt><trkpt lat="50.980100167711775" lon="5.700360635159037"><ele>41.4</ele><time>2026-04-10T10:22:53.999Z</time></trkpt><trkpt lat="50.98007560261113" lon="5.7004764380433715"><ele>41.199999999999996</ele><time>2026-04-10T10:22:54.999Z</time></trkpt><trkpt lat="50.980053987976" lon="5.700589527291139"><ele>41.0</ele><time>2026-04-10T10:22:55.999Z</time></trkpt><trkpt lat="50.980033163287736" lon="5.700703501354291"><ele>41.0</ele><time>2026-04-10T10:22:56.999Z</time></trkpt><trkpt lat="50.980008704166" lon="5.700814134074169"><ele>41.0</ele><time>2026-04-10T10:22:57.999Z</time></trkpt><trkpt lat="50.97998219540804" lon="5.700924881845859"><ele>41.0</ele><time>2026-04-10T10:22:58.999Z</time></trkpt><trkpt lat="50.979964744931564" lon="5.701109555560726"><ele>41.0</ele><time>2026-04-10T10:23:00.999Z</time></trkpt><trkpt lat="50.97997161598915" lon="5.701261660212144"><ele>41.0</ele><time>2026-04-10T10:23:02.999Z</time></trkpt><trkpt lat="50.97999652670536" lon="5.701365020783587"><ele>41.0</ele><time>2026-04-10T10:23:05.999Z</time></trkpt><trkpt lat="50.98003933346638" lon="5.701457202273773"><ele>41.199999999999996</ele><time>2026-04-10T10:23:12.999Z</time></trkpt><trkpt lat="50.980092841324705" lon="5.701555227460642"><ele>41.4</ele><time>2026-04-10T10:23:22.999Z</time></trkpt><trkpt lat="50.98021196978619" lon="5.701469845312882"><ele>41.6</ele><time>2026-04-10T10:23:24.999Z</time></trkpt><trkpt lat="50.98028642248245" lon="5.701419994906173"><ele>41.8</ele><time>2026-04-10T10:23:26.999Z</time></trkpt><trkpt lat="50.98038183323052" lon="5.701377238242954"><ele>42.0</ele><time>2026-04-10T10:23:28.999Z</time></trkpt><trkpt lat="50.98050328573026" lon="5.701335067625455"><ele>42.0</ele><time>2026-04-10T10:23:30.999Z</time></trkpt><trkpt lat="50.98057457546377" lon="5.701308946903189"><ele>42.0</ele><time>2026-04-10T10:23:31.999Z</time></trkpt><trkpt lat="50.980650234607964" lon="5.7012827244746305"><ele>42.0</ele><time>2026-04-10T10:23:32.999Z</time></trkpt><trkpt lat="50.98072507326919" lon="5.701256245950901"><ele>42.0</ele><time>2026-04-10T10:23:33.999Z</time></trkpt><trkpt lat="50.980802085425275" lon="5.701229712622007"><ele>42.0</ele><time>2026-04-10T10:23:34.999Z</time></trkpt><trkpt lat="50.9808859263784" lon="5.701201367692312"><ele>42.0</ele><time>2026-04-10T10:23:35.999Z</time></trkpt><trkpt lat="50.9809680774504" lon="5.701173994811993"><ele>41.833333333333336</ele><time>2026-04-10T10:23:36.999Z</time></trkpt><trkpt lat="50.98105176927029" lon="5.701156137875823"><ele>41.666666666666664</ele><time>2026-04-10T10:23:37.999Z</time></trkpt><trkpt lat="50.98113269183186" lon="5.701148466866481"><ele>41.5</ele><time>2026-04-10T10:23:38.999Z</time></trkpt><trkpt lat="50.98121179590071" lon="5.701142227129827"><ele>41.33333333333333</ele><time>2026-04-10T10:23:39.999Z</time></trkpt><trkpt lat="50.98128933590241" lon="5.7011339339787765"><ele>41.166666666666664</ele><time>2026-04-10T10:23:40.999Z</time></trkpt><trkpt lat="50.981361370691346" lon="5.701120239868269"><ele>41.0</ele><time>2026-04-10T10:23:41.999Z</time></trkpt><trkpt lat="50.98143319872748" lon="5.701101691384205"><ele>41.14285714285714</ele><time>2026-04-10T10:23:42.999Z</time></trkpt><trkpt lat="50.98150069015778" lon="5.701078222841416"><ele>41.285714285714285</ele><time>2026-04-10T10:23:43.999Z</time></trkpt><trkpt lat="50.98156217064072" lon="5.701055390621077"><ele>41.42857142857143</ele><time>2026-04-10T10:23:44.999Z</time></trkpt><trkpt lat="50.98167386787311" lon="5.701009230433849"><ele>41.57142857142857</ele><time>2026-04-10T10:23:46.999Z</time></trkpt><trkpt lat="50.98173548790715" lon="5.70098444048069"><ele>41.714285714285715</ele><time>2026-04-10T10:23:47.999Z</time></trkpt><trkpt lat="50.98179988326099" lon="5.700953846748801"><ele>41.857142857142854</ele><time>2026-04-10T10:23:48.999Z</time></trkpt><trkpt lat="50.98186307918498" lon="5.700914559178095"><ele>42.0</ele><time>2026-04-10T10:23:49.999Z</time></trkpt><trkpt lat="50.981974044399166" lon="5.700843190141718"><ele>41.666666666666664</ele><time>2026-04-10T10:23:51.999Z</time></trkpt><trkpt lat="50.98208392159676" lon="5.70078050739802"><ele>41.333333333333336</ele><time>2026-04-10T10:23:53.999Z</time></trkpt><trkpt lat="50.982153246865046" lon="5.700750878935866"><ele>41.0</ele><time>2026-04-10T10:23:54.999Z</time></trkpt><trkpt lat="50.98223049088304" lon="5.70072186272164"><ele>40.66666666666667</ele><time>2026-04-10T10:23:55.999Z</time></trkpt><trkpt lat="50.982310771036936" lon="5.700693522785043"><ele>40.333333333333336</ele><time>2026-04-10T10:23:56.999Z</time></trkpt><trkpt lat="50.98238787914459" lon="5.700668028482544"><ele>40.0</ele><time>2026-04-10T10:23:58Z</time></trkpt><trkpt lat="50.98245874889271" lon="5.700644449659141"><ele>40.2</ele><time>2026-04-10T10:23:59Z</time></trkpt><trkpt lat="50.98252411041685" lon="5.700622565056603"><ele>40.4</ele><time>2026-04-10T10:24:00Z</time></trkpt><trkpt lat="50.98264124291463" lon="5.700580621892387"><ele>40.599999999999994</ele><time>2026-04-10T10:24:02Z</time></trkpt><trkpt lat="50.98274457953373" lon="5.700544464626661"><ele>40.8</ele><time>2026-04-10T10:24:04Z</time></trkpt><trkpt lat="50.9828455215873" lon="5.7005080343848835"><ele>41.0</ele><time>2026-04-10T10:24:06Z</time></trkpt><trkpt lat="50.982947834839976" lon="5.700470981583355"><ele>41.0</ele><time>2026-04-10T10:24:08Z</time></trkpt><trkpt lat="50.98306833422597" lon="5.700428057855027"><ele>41.0</ele><time>2026-04-10T10:24:10Z</time></trkpt><trkpt lat="50.98314152788448" lon="5.70040352342429"><ele>41.0</ele><time>2026-04-10T10:24:11Z</time></trkpt><trkpt lat="50.983224296281" lon="5.700375191526096"><ele>41.0</ele><time>2026-04-10T10:24:12Z</time></trkpt><trkpt lat="50.9833182443734" lon="5.700341360715588"><ele>41.0</ele><time>2026-04-10T10:24:13Z</time></trkpt><trkpt lat="50.98341844780587" lon="5.7003060756559165"><ele>41.199999999999996</ele><time>2026-04-10T10:24:14Z</time></trkpt><trkpt lat="50.9835180345677" lon="5.700269815040049"><ele>41.4</ele><time>2026-04-10T10:24:15Z</time></trkpt><trkpt lat="50.98362621509388" lon="5.700231875180719"><ele>41.6</ele><time>2026-04-10T10:24:16Z</time></trkpt><trkpt lat="50.98373257848918" lon="5.700194761522364"><ele>41.8</ele><time>2026-04-10T10:24:17Z</time></trkpt><trkpt lat="50.98384445177809" lon="5.70015475733568"><ele>42.0</ele><time>2026-04-10T10:24:18Z</time></trkpt><trkpt lat="50.98395557729805" lon="5.700116085843873"><ele>42.0</ele><time>2026-04-10T10:24:19Z</time></trkpt><trkpt lat="50.984062221057776" lon="5.700077920787865"><ele>42.0</ele><time>2026-04-10T10:24:20Z</time></trkpt><trkpt lat="50.984158349209416" lon="5.700044130692795"><ele>42.0</ele><time>2026-04-10T10:24:21Z</time></trkpt><trkpt lat="50.98423951175999" lon="5.700017714990784"><ele>42.0</ele><time>2026-04-10T10:24:22Z</time></trkpt><trkpt lat="50.984311796188685" lon="5.699995235988188"><ele>42.0</ele><time>2026-04-10T10:24:23Z</time></trkpt><trkpt lat="50.98437786160057" lon="5.699978077372271"><ele>42.0</ele><time>2026-04-10T10:24:24Z</time></trkpt><trkpt lat="50.98448385198762" lon="5.6999683832629495"><ele>42.0</ele><time>2026-04-10T10:24:26Z</time></trkpt><trkpt lat="50.98456965303588" lon="5.700001666777289"><ele>42.0</ele><time>2026-04-10T10:24:28Z</time></trkpt><trkpt lat="50.98464282564795" lon="5.700081321754571"><ele>42.0</ele><time>2026-04-10T10:24:30Z</time></trkpt><trkpt lat="50.98469982365429" lon="5.700165779987593"><ele>42.0</ele><time>2026-04-10T10:24:32Z</time></trkpt><trkpt lat="50.984745170979004" lon="5.700344738378381"><ele>42.0</ele><time>2026-04-10T10:24:42Z</time></trkpt><trkpt lat="50.98476223659658" lon="5.700549937877353"><ele>42.0</ele><time>2026-04-10T10:24:44Z</time></trkpt><trkpt lat="50.98475107156111" lon="5.700671486760282"><ele>42.0</ele><time>2026-04-10T10:24:45Z</time></trkpt><trkpt lat="50.98474470114279" lon="5.7007975698605335"><ele>42.0</ele><time>2026-04-10T10:24:46Z</time></trkpt><trkpt lat="50.98473837114872" lon="5.700905464470891"><ele>42.0</ele><time>2026-04-10T10:24:47Z</time></trkpt><trkpt lat="50.98472033821732" lon="5.701059814521677"><ele>42.0</ele><time>2026-04-10T10:24:49Z</time></trkpt><trkpt lat="50.984694598187104" lon="5.701153775235153"><ele>42.0</ele><time>2026-04-10T10:24:50Z</time></trkpt><trkpt lat="50.984686844379866" lon="5.701255473557922"><ele>41.833333333333336</ele><time>2026-04-10T10:24:51Z</time></trkpt><trkpt lat="50.984693487751585" lon="5.701367739072102"><ele>41.666666666666664</ele><time>2026-04-10T10:24:52Z</time></trkpt><trkpt lat="50.9846943023318" lon="5.701495358711029"><ele>41.5</ele><time>2026-04-10T10:24:53Z</time></trkpt><trkpt lat="50.98468467101706" lon="5.701623790040846"><ele>41.33333333333333</ele><time>2026-04-10T10:24:54Z</time></trkpt><trkpt lat="50.98467122126966" lon="5.701747899125415"><ele>41.166666666666664</ele><time>2026-04-10T10:24:55Z</time></trkpt><trkpt lat="50.984659976494704" lon="5.701863644591121"><ele>41.0</ele><time>2026-04-10T10:24:56Z</time></trkpt><trkpt lat="50.98465146605286" lon="5.701964920092708"><ele>41.0</ele><time>2026-04-10T10:24:57Z</time></trkpt><trkpt lat="50.984639095815425" lon="5.702093353751482"><ele>41.0</ele><time>2026-04-10T10:24:59Z</time></trkpt><trkpt lat="50.984586918578074" lon="5.702204829482851"><ele>41.0</ele><time>2026-04-10T10:25:01Z</time></trkpt><trkpt lat="50.98450670399987" lon="5.702340272159208"><ele>41.0</ele><time>2026-04-10T10:25:03Z</time></trkpt><trkpt lat="50.98451964206279" lon="5.7025205836974076"><ele>41.0</ele><time>2026-04-10T10:25:05Z</time></trkpt><trkpt lat="50.98462165231272" lon="5.702613628092261"><ele>41.0</ele><time>2026-04-10T10:25:06.999Z</time></trkpt><trkpt lat="50.98468476226837" lon="5.702606237048063"><ele>41.0</ele><time>2026-04-10T10:25:07.999Z</time></trkpt><trkpt lat="50.98474905531774" lon="5.702539404078678"><ele>41.0</ele><time>2026-04-10T10:25:08.999Z</time></trkpt><trkpt lat="50.98489225719992" lon="5.702639105792008"><ele>41.0</ele><time>2026-04-10T10:25:10.999Z</time></trkpt><trkpt lat="50.98497114091934" lon="5.7027199241620705"><ele>41.0</ele><time>2026-04-10T10:25:11.999Z</time></trkpt><trkpt lat="50.98504909716106" lon="5.702811215950522"><ele>40.75</ele><time>2026-04-10T10:25:12.999Z</time></trkpt><trkpt lat="50.98512873567222" lon="5.702927021309131"><ele>40.5</ele><time>2026-04-10T10:25:13.999Z</time></trkpt><trkpt lat="50.98521276574088" lon="5.703057890890316"><ele>40.25</ele><time>2026-04-10T10:25:14.999Z</time></trkpt><trkpt lat="50.985296422260646" lon="5.703200929215142"><ele>40.0</ele><time>2026-04-10T10:25:15.999Z</time></trkpt><trkpt lat="50.98538445680142" lon="5.703347036505385"><ele>40.0</ele><time>2026-04-10T10:25:16.999Z</time></trkpt><trkpt lat="50.98547204917657" lon="5.703495706175501"><ele>40.0</ele><time>2026-04-10T10:25:17.999Z</time></trkpt><trkpt lat="50.98556688740953" lon="5.703655781831307"><ele>40.0</ele><time>2026-04-10T10:25:18.999Z</time></trkpt><trkpt lat="50.98566378827313" lon="5.703816353236475"><ele>40.0</ele><time>2026-04-10T10:25:19.999Z</time></trkpt><trkpt lat="50.985759113588685" lon="5.703976485794898"><ele>39.25</ele><time>2026-04-10T10:25:20.999Z</time></trkpt><trkpt lat="50.985854302002146" lon="5.704133078341331"><ele>38.5</ele><time>2026-04-10T10:25:21.999Z</time></trkpt><trkpt lat="50.98595513111069" lon="5.704279553780911"><ele>37.75</ele><time>2026-04-10T10:25:22.999Z</time></trkpt><trkpt lat="50.9860665292797" lon="5.704418755391161"><ele>37.0</ele><time>2026-04-10T10:25:23.999Z</time></trkpt><trkpt lat="50.98618877600826" lon="5.704543746617532"><ele>37.0</ele><time>2026-04-10T10:25:24.999Z</time></trkpt><trkpt lat="50.98631737008259" lon="5.70465449210724"><ele>37.0</ele><time>2026-04-10T10:25:25.999Z</time></trkpt><trkpt lat="50.986450462136055" lon="5.704751053735274"><ele>37.0</ele><time>2026-04-10T10:25:26.999Z</time></trkpt><trkpt lat="50.986587643195335" lon="5.704824229060409"><ele>37.0</ele><time>2026-04-10T10:25:27.999Z</time></trkpt><trkpt lat="50.986728431364426" lon="5.704881855918476"><ele>37.0</ele><time>2026-04-10T10:25:28.999Z</time></trkpt><trkpt lat="50.98687146331286" lon="5.704923516111218"><ele>37.0</ele><time>2026-04-10T10:25:29.999Z</time></trkpt><trkpt lat="50.98701833101955" lon="5.7049460062520465"><ele>37.0</ele><time>2026-04-10T10:25:30.999Z</time></trkpt><trkpt lat="50.987166745058914" lon="5.704948246662898"><ele>37.0</ele><time>2026-04-10T10:25:31.999Z</time></trkpt><trkpt lat="50.987317138806326" lon="5.704932850045678"><ele>37.0</ele><time>2026-04-10T10:25:32.999Z</time></trkpt><trkpt lat="50.98746631498901" lon="5.704894201233397"><ele>37.0</ele><time>2026-04-10T10:25:33.999Z</time></trkpt><trkpt lat="50.98761020849165" lon="5.704841311735302"><ele>37.0</ele><time>2026-04-10T10:25:34.999Z</time></trkpt><trkpt lat="50.987749014918975" lon="5.704787525866194"><ele>37.0</ele><time>2026-04-10T10:25:35.999Z</time></trkpt><trkpt lat="50.98788994705174" lon="5.704740746031098"><ele>38.0</ele><time>2026-04-10T10:25:36.999Z</time></trkpt><trkpt lat="50.98817981023239" lon="5.7047316083886015"><ele>39.0</ele><time>2026-04-10T10:25:38.999Z</time></trkpt><trkpt lat="50.98831817877829" lon="5.704751300016345"><ele>40.0</ele><time>2026-04-10T10:25:39.999Z</time></trkpt><trkpt lat="50.98845785949661" lon="5.704776729719439"><ele>40.25</ele><time>2026-04-10T10:25:40.999Z</time></trkpt><trkpt lat="50.98859921058784" lon="5.7048000983544025"><ele>40.5</ele><time>2026-04-10T10:25:41.999Z</time></trkpt><trkpt lat="50.98874329718129" lon="5.704822793497961"><ele>40.75</ele><time>2026-04-10T10:25:42.999Z</time></trkpt><trkpt lat="50.988891971805444" lon="5.7048467813222015"><ele>41.0</ele><time>2026-04-10T10:25:43.999Z</time></trkpt><trkpt lat="50.98904283848113" lon="5.704871813161541"><ele>41.75</ele><time>2026-04-10T10:25:44.999Z</time></trkpt><trkpt lat="50.98918760262925" lon="5.704895875909322"><ele>42.5</ele><time>2026-04-10T10:25:45.999Z</time></trkpt><trkpt lat="50.98932737800871" lon="5.7049203579874845"><ele>43.25</ele><time>2026-04-10T10:25:46.999Z</time></trkpt><trkpt lat="50.989456443627155" lon="5.704942040211695"><ele>44.0</ele><time>2026-04-10T10:25:47.999Z</time></trkpt><trkpt lat="50.98956383391496" lon="5.704959859165987"><ele>44.0</ele><time>2026-04-10T10:25:48.999Z</time></trkpt><trkpt lat="50.98965417564596" lon="5.704974974299199"><ele>44.0</ele><time>2026-04-10T10:25:49.999Z</time></trkpt><trkpt lat="50.989724121774174" lon="5.704987695828432"><ele>44.0</ele><time>2026-04-10T10:25:50.999Z</time></trkpt><trkpt lat="50.989816379038565" lon="5.705005193942812"><ele>44.0</ele><time>2026-04-10T10:25:52.999Z</time></trkpt><trkpt lat="50.98990660860576" lon="5.705022065122502"><ele>44.0</ele><time>2026-04-10T10:25:56.999Z</time></trkpt><trkpt lat="50.98999754727268" lon="5.705050910689504"><ele>44.0</ele><time>2026-04-10T10:25:58.999Z</time></trkpt><trkpt lat="50.990075110193594" lon="5.705111007308277"><ele>44.33333333333333</ele><time>2026-04-10T10:26:01.999Z</time></trkpt><trkpt lat="50.99011022618963" lon="5.7051984186150415"><ele>44.666666666666664</ele><time>2026-04-10T10:26:02.999Z</time></trkpt><trkpt lat="50.990200408384084" lon="5.7053092660886815"><ele>45.0</ele><time>2026-04-10T10:26:05Z</time></trkpt><trkpt lat="50.99029838999973" lon="5.705304517791651"><ele>45.333333333333336</ele><time>2026-04-10T10:26:07Z</time></trkpt><trkpt lat="50.99037809853526" lon="5.705289518483808"><ele>45.66666666666667</ele><time>2026-04-10T10:26:10Z</time></trkpt><trkpt lat="50.990394610141585" lon="5.705192137651797"><ele>46.0</ele><time>2026-04-10T10:26:11Z</time></trkpt><trkpt lat="50.99047690907769" lon="5.705094653285289"><ele>46.199999999999996</ele><time>2026-04-10T10:26:13Z</time></trkpt><trkpt lat="50.99060286965684" lon="5.705089919630855"><ele>46.4</ele><time>2026-04-10T10:26:15Z</time></trkpt><trkpt lat="50.99067802895233" lon="5.705087652911236"><ele>46.6</ele><time>2026-04-10T10:26:16Z</time></trkpt><trkpt lat="50.99076444389874" lon="5.705086624414215"><ele>46.8</ele><time>2026-04-10T10:26:17Z</time></trkpt><trkpt lat="50.99085094607663" lon="5.7050869612187824"><ele>47.0</ele><time>2026-04-10T10:26:18Z</time></trkpt><trkpt lat="50.99094415020216" lon="5.705086977326581"><ele>46.400000000000006</ele><time>2026-04-10T10:26:19Z</time></trkpt><trkpt lat="50.991038240229024" lon="5.7050883968148645"><ele>45.800000000000004</ele><time>2026-04-10T10:26:20Z</time></trkpt><trkpt lat="50.991137846687685" lon="5.70509112553271"><ele>45.2</ele><time>2026-04-10T10:26:21Z</time></trkpt><trkpt lat="50.99124561194534" lon="5.7050937318964206"><ele>44.6</ele><time>2026-04-10T10:26:22Z</time></trkpt><trkpt lat="50.991359714980106" lon="5.705096876229469"><ele>44.0</ele><time>2026-04-10T10:26:23Z</time></trkpt><trkpt lat="50.991476751545804" lon="5.70510106117523"><ele>44.0</ele><time>2026-04-10T10:26:24Z</time></trkpt><trkpt lat="50.99160715276568" lon="5.7051012065394335"><ele>44.0</ele><time>2026-04-10T10:26:25Z</time></trkpt><trkpt lat="50.99173330118179" lon="5.705103607274293"><ele>44.0</ele><time>2026-04-10T10:26:26Z</time></trkpt><trkpt lat="50.99186367618656" lon="5.7051082249229275"><ele>44.0</ele><time>2026-04-10T10:26:27Z</time></trkpt><trkpt lat="50.99199651149244" lon="5.705112680208718"><ele>43.75</ele><time>2026-04-10T10:26:28Z</time></trkpt><trkpt lat="50.99213091654455" lon="5.7051159583293565"><ele>43.5</ele><time>2026-04-10T10:26:29Z</time></trkpt><trkpt lat="50.99226828035318" lon="5.705118624055959"><ele>43.25</ele><time>2026-04-10T10:26:30Z</time></trkpt><trkpt lat="50.992407715050206" lon="5.705121355046731"><ele>43.0</ele><time>2026-04-10T10:26:31Z</time></trkpt><trkpt lat="50.9925476398071" lon="5.7051240003441634"><ele>43.0</ele><time>2026-04-10T10:26:32Z</time></trkpt><trkpt lat="50.99268751411444" lon="5.705127269797715"><ele>43.0</ele><time>2026-04-10T10:26:33Z</time></trkpt><trkpt lat="50.99282669833716" lon="5.705131077480933"><ele>43.0</ele><time>2026-04-10T10:26:34Z</time></trkpt><trkpt lat="50.992965574506954" lon="5.705136043234115"><ele>43.0</ele><time>2026-04-10T10:26:35Z</time></trkpt><trkpt lat="50.99310411165542" lon="5.705140481051428"><ele>43.0</ele><time>2026-04-10T10:26:36Z</time></trkpt><trkpt lat="50.99324168873531" lon="5.705144555188267"><ele>43.0</ele><time>2026-04-10T10:26:37Z</time></trkpt><trkpt lat="50.99337870493501" lon="5.7051473105012835"><ele>43.0</ele><time>2026-04-10T10:26:38Z</time></trkpt><trkpt lat="50.9935140689715" lon="5.705150250623001"><ele>43.0</ele><time>2026-04-10T10:26:39Z</time></trkpt><trkpt lat="50.99364580216103" lon="5.70515262692425"><ele>42.599999999999994</ele><time>2026-04-10T10:26:40Z</time></trkpt><trkpt lat="50.99376975177057" lon="5.705154509627053"><ele>42.199999999999996</ele><time>2026-04-10T10:26:41Z</time></trkpt><trkpt lat="50.993883252368576" lon="5.705160620420656"><ele>41.8</ele><time>2026-04-10T10:26:42Z</time></trkpt><trkpt lat="50.993986681960536" lon="5.705163597800434"><ele>41.4</ele><time>2026-04-10T10:26:43Z</time></trkpt><trkpt lat="50.9940739754516" lon="5.705169776187021"><ele>41.0</ele><time>2026-04-10T10:26:44Z</time></trkpt><trkpt lat="50.99415143423714" lon="5.705174283257146"><ele>41.0</ele><time>2026-04-10T10:26:45Z</time></trkpt><trkpt lat="50.99421691693382" lon="5.705180184783452"><ele>41.0</ele><time>2026-04-10T10:26:46Z</time></trkpt><trkpt lat="50.99431196852391" lon="5.705191635271896"><ele>41.0</ele><time>2026-04-10T10:26:48Z</time></trkpt><trkpt lat="50.994395338061274" lon="5.705203810460487"><ele>41.0</ele><time>2026-04-10T10:26:50Z</time></trkpt><trkpt lat="50.99446847233422" lon="5.705220473621718"><ele>41.0</ele><time>2026-04-10T10:26:52Z</time></trkpt><trkpt lat="50.99456730656723" lon="5.705282559678749"><ele>41.0</ele><time>2026-04-10T10:26:55Z</time></trkpt><trkpt lat="50.99464923584019" lon="5.705403033324031"><ele>41.0</ele><time>2026-04-10T10:26:57Z</time></trkpt><trkpt lat="50.994767792241575" lon="5.705385476370773"><ele>41.0</ele><time>2026-04-10T10:26:59Z</time></trkpt><trkpt lat="50.99482425385796" lon="5.705318362157657"><ele>41.0</ele><time>2026-04-10T10:27:00Z</time></trkpt><trkpt lat="50.994877966804644" lon="5.705262273084706"><ele>41.0</ele><time>2026-04-10T10:27:01Z</time></trkpt><trkpt lat="50.99496004457953" lon="5.705234218719922"><ele>41.0</ele><time>2026-04-10T10:27:02Z</time></trkpt><trkpt lat="50.99505365888164" lon="5.705221151845571"><ele>41.0</ele><time>2026-04-10T10:27:03Z</time></trkpt><trkpt lat="50.99515633662676" lon="5.705206424834581"><ele>41.0</ele><time>2026-04-10T10:27:04Z</time></trkpt><trkpt lat="50.995258524229094" lon="5.70519560067936"><ele>41.0</ele><time>2026-04-10T10:27:05Z</time></trkpt><trkpt lat="50.99535085086475" lon="5.705189430634318"><ele>41.0</ele><time>2026-04-10T10:27:06Z</time></trkpt><trkpt lat="50.99542952432345" lon="5.705189122028758"><ele>41.0</ele><time>2026-04-10T10:27:07Z</time></trkpt><trkpt lat="50.99552498620002" lon="5.70521233713519"><ele>41.0</ele><time>2026-04-10T10:27:09Z</time></trkpt><trkpt lat="50.99554408014623" lon="5.705403307194348"><ele>40.599999999999994</ele><time>2026-04-10T10:27:12Z</time></trkpt><trkpt lat="50.99555679959299" lon="5.705556052731984"><ele>40.199999999999996</ele><time>2026-04-10T10:27:14Z</time></trkpt><trkpt lat="50.99553788463632" lon="5.705678166319257"><ele>39.8</ele><time>2026-04-10T10:27:16Z</time></trkpt><trkpt lat="50.995662684868506" lon="5.705737186202674"><ele>39.4</ele><time>2026-04-10T10:27:18Z</time></trkpt><trkpt lat="50.99573187048741" lon="5.705735062829354"><ele>39.0</ele><time>2026-04-10T10:27:19Z</time></trkpt><trkpt lat="50.99580698016654" lon="5.705734527320166"><ele>38.833333333333336</ele><time>2026-04-10T10:27:20Z</time></trkpt><trkpt lat="50.99588819152924" lon="5.705733312731767"><ele>38.666666666666664</ele><time>2026-04-10T10:27:21Z</time></trkpt><trkpt lat="50.995976892922144" lon="5.705713590962053"><ele>38.5</ele><time>2026-04-10T10:27:22Z</time></trkpt><trkpt lat="50.99606552782194" lon="5.705720057855132"><ele>38.33333333333333</ele><time>2026-04-10T10:27:23Z</time></trkpt><trkpt lat="50.99615360092334" lon="5.705720777287431"><ele>38.166666666666664</ele><time>2026-04-10T10:27:24Z</time></trkpt><trkpt lat="50.99624607857813" lon="5.705724153761589"><ele>38.0</ele><time>2026-04-10T10:27:25Z</time></trkpt><trkpt lat="50.99634567738225" lon="5.705720628941191"><ele>38.0</ele><time>2026-04-10T10:27:26Z</time></trkpt><trkpt lat="50.996444536095765" lon="5.705730197893397"><ele>38.0</ele><time>2026-04-10T10:27:27Z</time></trkpt><trkpt lat="50.996537758419805" lon="5.70573594111895"><ele>38.0</ele><time>2026-04-10T10:27:28Z</time></trkpt><trkpt lat="50.996629343583194" lon="5.705740499644021"><ele>38.0</ele><time>2026-04-10T10:27:29Z</time></trkpt><trkpt lat="50.99671691021755" lon="5.705740593508244"><ele>38.0</ele><time>2026-04-10T10:27:30Z</time></trkpt><trkpt lat="50.99679766690186" lon="5.705737373764862"><ele>38.0</ele><time>2026-04-10T10:27:31Z</time></trkpt><trkpt lat="50.9968669969651" lon="5.70573227485861"><ele>38.0</ele><time>2026-04-10T10:27:32Z</time></trkpt><trkpt lat="50.99695231877673" lon="5.70576173549453"><ele>38.0</ele><time>2026-04-10T10:27:34Z</time></trkpt><trkpt lat="50.99696853021481" lon="5.705865348497463"><ele>38.0</ele><time>2026-04-10T10:27:36Z</time></trkpt><trkpt lat="50.99696017585743" lon="5.706030335604176"><ele>38.0</ele><time>2026-04-10T10:27:38Z</time></trkpt><trkpt lat="50.99695641708371" lon="5.706171997467541"><ele>38.0</ele><time>2026-04-10T10:27:40Z</time></trkpt><trkpt lat="50.99695091293449" lon="5.706286117311202"><ele>38.5</ele><time>2026-04-10T10:27:44Z</time></trkpt><trkpt lat="50.996974126717944" lon="5.70642631695079"><ele>39.0</ele><time>2026-04-10T10:27:47Z</time></trkpt><trkpt lat="50.99705380173149" lon="5.706446397877416"><ele>39.5</ele><time>2026-04-10T10:27:49Z</time></trkpt><trkpt lat="50.99714639888276" lon="5.706437922526236"><ele>40.0</ele><time>2026-04-10T10:27:52Z</time></trkpt><trkpt lat="50.99719971934275" lon="5.706384518161038"><ele>40.5</ele><time>2026-04-10T10:27:57Z</time></trkpt><trkpt lat="50.99725268147972" lon="5.706463222630859"><ele>41.0</ele><time>2026-04-10T10:28:26Z</time></trkpt><trkpt lat="50.997303447064525" lon="5.706531767696359"><ele>40.99999999999999</ele><time>2026-04-10T10:28:33Z</time></trkpt><trkpt lat="50.9973620347893" lon="5.706583674836642"><ele>41.0</ele><time>2026-04-10T10:28:39Z</time></trkpt><trkpt lat="50.9974291427781" lon="5.706608446210393"><ele>41.0</ele><time>2026-04-10T10:28:46Z</time></trkpt><trkpt lat="50.997452367236214" lon="5.7067074607692225"><ele>41.0</ele><time>2026-04-10T10:28:52Z</time></trkpt><trkpt lat="50.99748443009309" lon="5.7068047670003095"><ele>41.0</ele><time>2026-04-10T10:28:59Z</time></trkpt><trkpt lat="50.99754437480185" lon="5.70687841622892"><ele>40.99999999999999</ele><time>2026-04-10T10:29:05Z</time></trkpt><trkpt lat="50.99763679433971" lon="5.706873158366263"><ele>41.0</ele><time>2026-04-10T10:30:07.018Z</time></trkpt><trkpt lat="50.9976970329895" lon="5.706837663858821"><ele>40.599999999999994</ele><time>2026-04-10T10:30:12.011Z</time></trkpt><trkpt lat="50.99775645099897" lon="5.706799372352417"><ele>40.199999999999996</ele><time>2026-04-10T10:30:17.011Z</time></trkpt><trkpt lat="50.997867015042964" lon="5.706697852808194"><ele>39.8</ele><time>2026-04-10T10:33:51.011Z</time></trkpt><trkpt lat="50.99772105301475" lon="5.706800886661717"><ele>39.4</ele><time>2026-04-10T10:40:01.997Z</time></trkpt><trkpt lat="50.99763106737493" lon="5.706831137110755"><ele>39.0</ele><time>2026-04-10T10:40:05.995Z</time></trkpt><trkpt lat="50.99755757214627" lon="5.706862796431658"><ele>39.285714285714285</ele><time>2026-04-10T10:40:08.999Z</time></trkpt><trkpt lat="50.99749221927626" lon="5.706865612292879"><ele>39.57142857142857</ele><time>2026-04-10T10:40:12.999Z</time></trkpt><trkpt lat="50.99741885300448" lon="5.706865498286707"><ele>39.857142857142854</ele><time>2026-04-10T10:40:17.999Z</time></trkpt><trkpt lat="50.99736534449755" lon="5.706796821083586"><ele>40.14285714285714</ele><time>2026-04-10T10:40:23.999Z</time></trkpt><trkpt lat="50.997334552387606" lon="5.706701360166511"><ele>40.42857142857143</ele><time>2026-04-10T10:40:29.999Z</time></trkpt><trkpt lat="50.99729834877489" lon="5.706604574185662"><ele>40.71428571428571</ele><time>2026-04-10T10:40:35.999Z</time></trkpt><trkpt lat="50.99726349093221" lon="5.706512081337005"><ele>41.0</ele><time>2026-04-10T10:40:42Z</time></trkpt><trkpt lat="50.997222908602026" lon="5.706417488705093"><ele>41.0</ele><time>2026-04-10T10:40:48Z</time></trkpt><trkpt lat="50.99719358214652" lon="5.706309072179369"><ele>41.0</ele><time>2026-04-10T10:41:04.999Z</time></trkpt><trkpt lat="50.99717964910072" lon="5.706412817996818"><ele>41.0</ele><time>2026-04-10T10:42:14.999Z</time></trkpt><trkpt lat="50.997085277218424" lon="5.706442371277587"><ele>41.0</ele><time>2026-04-10T10:42:20.999Z</time></trkpt><trkpt lat="50.997008156971155" lon="5.7064426009428075"><ele>41.0</ele><time>2026-04-10T10:42:23Z</time></trkpt><trkpt lat="50.99695616117354" lon="5.706373661718025"><ele>41.0</ele><time>2026-04-10T10:42:25Z</time></trkpt><trkpt lat="50.99696563487303" lon="5.706257400148388"><ele>41.0</ele><time>2026-04-10T10:42:27Z</time></trkpt><trkpt lat="50.99697231149263" lon="5.706131266936688"><ele>41.0</ele><time>2026-04-10T10:42:29Z</time></trkpt><trkpt lat="50.99697458168561" lon="5.706007227444413"><ele>41.0</ele><time>2026-04-10T10:42:31Z</time></trkpt><trkpt lat="50.9969776009054" lon="5.705889485943249"><ele>41.0</ele><time>2026-04-10T10:42:33Z</time></trkpt><trkpt lat="50.99697088639252" lon="5.705777510721871"><ele>41.0</ele><time>2026-04-10T10:42:35Z</time></trkpt><trkpt lat="50.996863597385776" lon="5.705704543617872"><ele>41.0</ele><time>2026-04-10T10:42:38Z</time></trkpt><trkpt lat="50.996767584478256" lon="5.705703888446395"><ele>40.5</ele><time>2026-04-10T10:42:40Z</time></trkpt><trkpt lat="50.99666090468237" lon="5.705701280034546"><ele>40.0</ele><time>2026-04-10T10:42:42Z</time></trkpt><trkpt lat="50.99653671598491" lon="5.705700715043966"><ele>39.5</ele><time>2026-04-10T10:42:44Z</time></trkpt><trkpt lat="50.996472227562464" lon="5.705700592149049"><ele>39.0</ele><time>2026-04-10T10:42:45Z</time></trkpt><trkpt lat="50.99640235638697" lon="5.705701274745156"><ele>38.5</ele><time>2026-04-10T10:42:46Z</time></trkpt><trkpt lat="50.99632586000866" lon="5.705700535788433"><ele>38.0</ele><time>2026-04-10T10:42:47Z</time></trkpt><trkpt lat="50.99624748712625" lon="5.705699163518579"><ele>38.0</ele><time>2026-04-10T10:42:48Z</time></trkpt><trkpt lat="50.9961686324252" lon="5.705693565400485"><ele>38.0</ele><time>2026-04-10T10:42:49Z</time></trkpt><trkpt lat="50.996091194422824" lon="5.705690944382107"><ele>38.0</ele><time>2026-04-10T10:42:50Z</time></trkpt><trkpt lat="50.99601222364629" lon="5.705691357979354"><ele>38.0</ele><time>2026-04-10T10:42:51Z</time></trkpt><trkpt lat="50.99593520847287" lon="5.705693039245787"><ele>38.0</ele><time>2026-04-10T10:42:52Z</time></trkpt><trkpt lat="50.99586236696633" lon="5.705695060238089"><ele>38.0</ele><time>2026-04-10T10:42:53Z</time></trkpt><trkpt lat="50.99579377077584" lon="5.705685849133795"><ele>38.166666666666664</ele><time>2026-04-10T10:42:54Z</time></trkpt><trkpt lat="50.99567824626963" lon="5.70570453295585"><ele>38.33333333333333</ele><time>2026-04-10T10:42:56Z</time></trkpt><trkpt lat="50.99559851188748" lon="5.7056870441889735"><ele>38.5</ele><time>2026-04-10T10:42:58Z</time></trkpt><trkpt lat="50.995568446014936" lon="5.70553914154344"><ele>38.666666666666664</ele><time>2026-04-10T10:43:00Z</time></trkpt><trkpt lat="50.99557762493774" lon="5.705401250127069"><ele>38.833333333333336</ele><time>2026-04-10T10:43:02Z</time></trkpt><trkpt lat="50.99557816121419" lon="5.705295969899127"><ele>39.0</ele><time>2026-04-10T10:43:04Z</time></trkpt><trkpt lat="50.995582208184395" lon="5.705185118046896"><ele>39.4</ele><time>2026-04-10T10:43:09Z</time></trkpt><trkpt lat="50.99546805619534" lon="5.705149582504826"><ele>39.8</ele><time>2026-04-10T10:43:11Z</time></trkpt><trkpt lat="50.99536876673075" lon="5.7051538244703135"><ele>40.199999999999996</ele><time>2026-04-10T10:43:13Z</time></trkpt><trkpt lat="50.99526774333855" lon="5.705161812569881"><ele>40.599999999999994</ele><time>2026-04-10T10:43:15Z</time></trkpt><trkpt lat="50.99514495295819" lon="5.705168050624705"><ele>41.0</ele><time>2026-04-10T10:43:17Z</time></trkpt><trkpt lat="50.99501964956413" lon="5.705172281560232"><ele>41.0</ele><time>2026-04-10T10:43:19Z</time></trkpt><trkpt lat="50.99491266103872" lon="5.705173325314142"><ele>41.0</ele><time>2026-04-10T10:43:21Z</time></trkpt><trkpt lat="50.99483768251254" lon="5.705129913803546"><ele>41.0</ele><time>2026-04-10T10:43:26Z</time></trkpt><trkpt lat="50.99476667566238" lon="5.705045754354239"><ele>41.0</ele><time>2026-04-10T10:43:28Z</time></trkpt><trkpt lat="50.99466409083314" lon="5.705028699471234"><ele>41.0</ele><time>2026-04-10T10:43:30Z</time></trkpt><trkpt lat="50.9945537336037" lon="5.705114305358167"><ele>41.0</ele><time>2026-04-10T10:43:32Z</time></trkpt><trkpt lat="50.99450114963227" lon="5.705176079458832"><ele>41.0</ele><time>2026-04-10T10:43:33Z</time></trkpt><trkpt lat="50.99441033181215" lon="5.7051598228501765"><ele>41.0</ele><time>2026-04-10T10:43:34Z</time></trkpt><trkpt lat="50.994322000253945" lon="5.705150404167079"><ele>41.0</ele><time>2026-04-10T10:43:35Z</time></trkpt><trkpt lat="50.9942308453193" lon="5.705143206512587"><ele>41.0</ele><time>2026-04-10T10:43:36Z</time></trkpt><trkpt lat="50.99413209014232" lon="5.705136196279313"><ele>41.0</ele><time>2026-04-10T10:43:37Z</time></trkpt><trkpt lat="50.994027171085214" lon="5.705129003308564"><ele>41.0</ele><time>2026-04-10T10:43:37.999Z</time></trkpt><trkpt lat="50.99391508944722" lon="5.705125669280186"><ele>41.0</ele><time>2026-04-10T10:43:38.999Z</time></trkpt><trkpt lat="50.99379707936991" lon="5.705122389841298"><ele>41.0</ele><time>2026-04-10T10:43:39.999Z</time></trkpt><trkpt lat="50.99367395837591" lon="5.705119259037802"><ele>41.0</ele><time>2026-04-10T10:43:40.999Z</time></trkpt><trkpt lat="50.993545872679334" lon="5.705114694091585"><ele>41.0</ele><time>2026-04-10T10:43:41.999Z</time></trkpt><trkpt lat="50.99341233317143" lon="5.705112073760825"><ele>41.0</ele><time>2026-04-10T10:43:42.999Z</time></trkpt><trkpt lat="50.99327709445531" lon="5.705108265594667"><ele>41.0</ele><time>2026-04-10T10:43:43.999Z</time></trkpt><trkpt lat="50.99313756162815" lon="5.705105291846265"><ele>41.0</ele><time>2026-04-10T10:43:44.999Z</time></trkpt><trkpt lat="50.99299298184631" lon="5.7051011078637375"><ele>41.5</ele><time>2026-04-10T10:43:45.999Z</time></trkpt><trkpt lat="50.99284704217238" lon="5.705098916921928"><ele>42.0</ele><time>2026-04-10T10:43:46.999Z</time></trkpt><trkpt lat="50.9926994810259" lon="5.705095011835546"><ele>42.5</ele><time>2026-04-10T10:43:47.999Z</time></trkpt><trkpt lat="50.9925507625532" lon="5.705091137088918"><ele>43.0</ele><time>2026-04-10T10:43:48.999Z</time></trkpt><trkpt lat="50.992402670724694" lon="5.705087633359499"><ele>43.0</ele><time>2026-04-10T10:43:49.999Z</time></trkpt><trkpt lat="50.99225357120752" lon="5.705082960361485"><ele>43.0</ele><time>2026-04-10T10:43:50.999Z</time></trkpt><trkpt lat="50.9921031016166" lon="5.70507697684438"><ele>43.0</ele><time>2026-04-10T10:43:51.999Z</time></trkpt><trkpt lat="50.99195043930723" lon="5.705071987460786"><ele>43.0</ele><time>2026-04-10T10:43:52.999Z</time></trkpt><trkpt lat="50.99179923142883" lon="5.705069967617283"><ele>43.0</ele><time>2026-04-10T10:43:53.999Z</time></trkpt><trkpt lat="50.991649631148455" lon="5.70506668002057"><ele>43.0</ele><time>2026-04-10T10:43:54.999Z</time></trkpt><trkpt lat="50.991503881603336" lon="5.705060534824535"><ele>43.0</ele><time>2026-04-10T10:43:55.999Z</time></trkpt><trkpt lat="50.99135996361684" lon="5.70505317096219"><ele>43.25</ele><time>2026-04-10T10:43:56.999Z</time></trkpt><trkpt lat="50.991219408116955" lon="5.705047850920448"><ele>43.5</ele><time>2026-04-10T10:43:57.999Z</time></trkpt><trkpt lat="50.991085606101045" lon="5.705043440809561"><ele>43.75</ele><time>2026-04-10T10:43:58.999Z</time></trkpt><trkpt lat="50.990959468656854" lon="5.705041029891966"><ele>44.0</ele><time>2026-04-10T10:43:59.999Z</time></trkpt><trkpt lat="50.99084071154373" lon="5.705040428441807"><ele>44.6</ele><time>2026-04-10T10:44:00.999Z</time></trkpt><trkpt lat="50.99073073386393" lon="5.705038252175172"><ele>45.2</ele><time>2026-04-10T10:44:01.999Z</time></trkpt><trkpt lat="50.99063212101192" lon="5.705034267924393"><ele>45.800000000000004</ele><time>2026-04-10T10:44:02.999Z</time></trkpt><trkpt lat="50.99055720543979" lon="5.7050284126963104"><ele>46.400000000000006</ele><time>2026-04-10T10:44:03.999Z</time></trkpt><trkpt lat="50.99045573524455" lon="5.704999233461049"><ele>47.0</ele><time>2026-04-10T10:44:05.999Z</time></trkpt><trkpt lat="50.99038649452512" lon="5.704882950377763"><ele>47.0</ele><time>2026-04-10T10:44:07.999Z</time></trkpt><trkpt lat="50.99027707784363" lon="5.704781851272712"><ele>47.0</ele><time>2026-04-10T10:44:09.999Z</time></trkpt><trkpt lat="50.990208732235835" lon="5.704784216762627"><ele>47.0</ele><time>2026-04-10T10:44:10.999Z</time></trkpt><trkpt lat="50.99014344810183" lon="5.704822982868705"><ele>47.0</ele><time>2026-04-10T10:44:11.999Z</time></trkpt><trkpt lat="50.99008430489583" lon="5.704884544042933"><ele>47.0</ele><time>2026-04-10T10:44:12.999Z</time></trkpt><trkpt lat="50.99003330029074" lon="5.704963366556633"><ele>47.0</ele><time>2026-04-10T10:44:13.999Z</time></trkpt><trkpt lat="50.98994969892315" lon="5.704962185534623"><ele>46.400000000000006</ele><time>2026-04-10T10:44:14.999Z</time></trkpt><trkpt lat="50.98987070059787" lon="5.704956509295805"><ele>45.800000000000004</ele><time>2026-04-10T10:44:15.999Z</time></trkpt><trkpt lat="50.989778957454604" lon="5.7049453989122725"><ele>45.2</ele><time>2026-04-10T10:44:16.999Z</time></trkpt><trkpt lat="50.989683227349644" lon="5.70493123290051"><ele>44.6</ele><time>2026-04-10T10:44:17.999Z</time></trkpt><trkpt lat="50.9895806236074" lon="5.704914265010868"><ele>44.0</ele><time>2026-04-10T10:44:19Z</time></trkpt><trkpt lat="50.98947056883139" lon="5.7048955090934905"><ele>44.0</ele><time>2026-04-10T10:44:20Z</time></trkpt><trkpt lat="50.989354094907505" lon="5.70487671498855"><ele>44.0</ele><time>2026-04-10T10:44:21Z</time></trkpt><trkpt lat="50.989229311634844" lon="5.704858097711761"><ele>44.0</ele><time>2026-04-10T10:44:22Z</time></trkpt><trkpt lat="50.98910115003762" lon="5.704837266755786"><ele>44.0</ele><time>2026-04-10T10:44:23Z</time></trkpt><trkpt lat="50.98897023999638" lon="5.704815056704088"><ele>43.25</ele><time>2026-04-10T10:44:24Z</time></trkpt><trkpt lat="50.98883601498134" lon="5.704792833632916"><ele>42.5</ele><time>2026-04-10T10:44:25Z</time></trkpt><trkpt lat="50.98869851984068" lon="5.70476884172365"><ele>41.75</ele><time>2026-04-10T10:44:26Z</time></trkpt><trkpt lat="50.98856091792534" lon="5.704744260564768"><ele>41.0</ele><time>2026-04-10T10:44:27Z</time></trkpt><trkpt lat="50.98842350436362" lon="5.704720757699267"><ele>40.75</ele><time>2026-04-10T10:44:28Z</time></trkpt><trkpt lat="50.98828678359697" lon="5.704700435440108"><ele>40.5</ele><time>2026-04-10T10:44:29Z</time></trkpt><trkpt lat="50.98814999492081" lon="5.704684792062767"><ele>40.25</ele><time>2026-04-10T10:44:30Z</time></trkpt><trkpt lat="50.98801263966301" lon="5.704682104685289"><ele>40.0</ele><time>2026-04-10T10:44:31Z</time></trkpt><trkpt lat="50.98787443753055" lon="5.7046989559948"><ele>40.0</ele><time>2026-04-10T10:44:32Z</time></trkpt><trkpt lat="50.98773841034558" lon="5.704733089449045"><ele>40.0</ele><time>2026-04-10T10:44:33Z</time></trkpt><trkpt lat="50.98760456352975" lon="5.70478445694496"><ele>40.0</ele><time>2026-04-10T10:44:34Z</time></trkpt><trkpt lat="50.98746975705868" lon="5.70483224658885"><ele>40.0</ele><time>2026-04-10T10:44:35Z</time></trkpt><trkpt lat="50.987331850139796" lon="5.704867381128222"><ele>39.25</ele><time>2026-04-10T10:44:36Z</time></trkpt><trkpt lat="50.98719218876277" lon="5.704886243704921"><ele>38.5</ele><time>2026-04-10T10:44:37Z</time></trkpt><trkpt lat="50.98705274767011" lon="5.704887567980716"><ele>37.75</ele><time>2026-04-10T10:44:38Z</time></trkpt><trkpt lat="50.986915408310516" lon="5.704870656618397"><ele>37.0</ele><time>2026-04-10T10:44:39Z</time></trkpt><trkpt lat="50.98677956311059" lon="5.704837654503899"><ele>37.0</ele><time>2026-04-10T10:44:40Z</time></trkpt><trkpt lat="50.986646138729235" lon="5.704791314547342"><ele>37.0</ele><time>2026-04-10T10:44:41Z</time></trkpt><trkpt lat="50.986517274564235" lon="5.704727020120661"><ele>37.0</ele><time>2026-04-10T10:44:42Z</time></trkpt><trkpt lat="50.98639093492546" lon="5.704648234095838"><ele>37.0</ele><time>2026-04-10T10:44:43Z</time></trkpt><trkpt lat="50.986265989449514" lon="5.704553572696288"><ele>37.0</ele><time>2026-04-10T10:44:44Z</time></trkpt><trkpt lat="50.98614622868566" lon="5.7044433835608475"><ele>37.0</ele><time>2026-04-10T10:44:45Z</time></trkpt><trkpt lat="50.98603354498221" lon="5.704319323860609"><ele>37.0</ele><time>2026-04-10T10:44:46Z</time></trkpt><trkpt lat="50.98592824308138" lon="5.7041803808027485"><ele>37.0</ele><time>2026-04-10T10:44:47Z</time></trkpt><trkpt lat="50.98583013353675" lon="5.704028428226051"><ele>37.75</ele><time>2026-04-10T10:44:48Z</time></trkpt><trkpt lat="50.98573734609077" lon="5.703874303975505"><ele>38.5</ele><time>2026-04-10T10:44:49Z</time></trkpt><trkpt lat="50.9856456068453" lon="5.7037191294005"><ele>39.25</ele><time>2026-04-10T10:44:50Z</time></trkpt><trkpt lat="50.9855521711712" lon="5.703567489761283"><ele>40.0</ele><time>2026-04-10T10:44:51Z</time></trkpt><trkpt lat="50.98545945407467" lon="5.703414899801152"><ele>40.0</ele><time>2026-04-10T10:44:52Z</time></trkpt><trkpt lat="50.98537085048603" lon="5.7032605231567155"><ele>40.0</ele><time>2026-04-10T10:44:53Z</time></trkpt><trkpt lat="50.985286184113704" lon="5.703109994739028"><ele>40.0</ele><time>2026-04-10T10:44:54Z</time></trkpt><trkpt lat="50.98520238712932" lon="5.702972614878464"><ele>40.0</ele><time>2026-04-10T10:44:55Z</time></trkpt><trkpt lat="50.98512063087047" lon="5.702847740841595"><ele>39.833333333333336</ele><time>2026-04-10T10:44:56Z</time></trkpt><trkpt lat="50.98503779010852" lon="5.702737045949336"><ele>39.66666666666667</ele><time>2026-04-10T10:44:57Z</time></trkpt><trkpt lat="50.9849566562916" lon="5.702643340519781"><ele>39.5</ele><time>2026-04-10T10:44:58Z</time></trkpt><trkpt lat="50.98488239905688" lon="5.7025645428613725"><ele>39.333333333333336</ele><time>2026-04-10T10:44:59Z</time></trkpt><trkpt lat="50.984821221037116" lon="5.702496438492111"><ele>39.166666666666664</ele><time>2026-04-10T10:45:00Z</time></trkpt><trkpt lat="50.98477358873317" lon="5.702415432623688"><ele>39.0</ele><time>2026-04-10T10:45:01Z</time></trkpt><trkpt lat="50.98473135385887" lon="5.7023189616752665"><ele>39.333333333333336</ele><time>2026-04-10T10:45:02Z</time></trkpt><trkpt lat="50.98469475270851" lon="5.7022115371956925"><ele>39.666666666666664</ele><time>2026-04-10T10:45:03Z</time></trkpt><trkpt lat="50.98468493646972" lon="5.702088201199434"><ele>40.0</ele><time>2026-04-10T10:45:04Z</time></trkpt><trkpt lat="50.984682582906814" lon="5.701982940297506"><ele>40.33333333333333</ele><time>2026-04-10T10:45:05Z</time></trkpt><trkpt lat="50.984692733263394" lon="5.701853711875811"><ele>40.666666666666664</ele><time>2026-04-10T10:45:06Z</time></trkpt><trkpt lat="50.98468715546074" lon="5.7017234553603835"><ele>41.0</ele><time>2026-04-10T10:45:07Z</time></trkpt><trkpt lat="50.98469692976836" lon="5.701604529837741"><ele>41.0</ele><time>2026-04-10T10:45:08Z</time></trkpt><trkpt lat="50.984719823289666" lon="5.701503718912412"><ele>41.0</ele><time>2026-04-10T10:45:09Z</time></trkpt><trkpt lat="50.984739272270396" lon="5.701352111375706"><ele>41.0</ele><time>2026-04-10T10:45:11Z</time></trkpt><trkpt lat="50.98476530822199" lon="5.701178763665149"><ele>41.0</ele><time>2026-04-10T10:45:13Z</time></trkpt><trkpt lat="50.98476735785915" lon="5.701068799469796"><ele>41.0</ele><time>2026-04-10T10:45:14Z</time></trkpt><trkpt lat="50.98476957944161" lon="5.700960322956719"><ele>41.0</ele><time>2026-04-10T10:45:15Z</time></trkpt><trkpt lat="50.98478771228133" lon="5.700777333675521"><ele>41.166666666666664</ele><time>2026-04-10T10:45:17Z</time></trkpt><trkpt lat="50.98481051159823" lon="5.700611400320157"><ele>41.33333333333333</ele><time>2026-04-10T10:45:19Z</time></trkpt><trkpt lat="50.9848186619342" lon="5.700462395410984"><ele>41.5</ele><time>2026-04-10T10:45:21Z</time></trkpt><trkpt lat="50.98481601571327" lon="5.7003501390345415"><ele>41.666666666666664</ele><time>2026-04-10T10:45:28Z</time></trkpt><trkpt lat="50.98480629559915" lon="5.700242373245277"><ele>41.833333333333336</ele><time>2026-04-10T10:45:30Z</time></trkpt><trkpt lat="50.984810538327324" lon="5.700091981550871"><ele>42.0</ele><time>2026-04-10T10:45:32Z</time></trkpt><trkpt lat="50.984809386714026" lon="5.699927916683786"><ele>42.0</ele><time>2026-04-10T10:45:34Z</time></trkpt><trkpt lat="50.984722658686195" lon="5.699823754600689"><ele>42.0</ele><time>2026-04-10T10:45:36Z</time></trkpt><trkpt lat="50.984591814106345" lon="5.699873665131779"><ele>42.0</ele><time>2026-04-10T10:45:38Z</time></trkpt><trkpt lat="50.9845163559781" lon="5.6998931182838675"><ele>42.0</ele><time>2026-04-10T10:45:39Z</time></trkpt><trkpt lat="50.98443738070447" lon="5.699903291252287"><ele>42.0</ele><time>2026-04-10T10:45:40Z</time></trkpt><trkpt lat="50.984344607691405" lon="5.699923558146248"><ele>42.0</ele><time>2026-04-10T10:45:41Z</time></trkpt><trkpt lat="50.98424390975449" lon="5.6999576278458095"><ele>42.0</ele><time>2026-04-10T10:45:42Z</time></trkpt><trkpt lat="50.98413916706714" lon="5.699994256617177"><ele>42.0</ele><time>2026-04-10T10:45:43Z</time></trkpt><trkpt lat="50.984025691169904" lon="5.7000339653665595"><ele>42.0</ele><time>2026-04-10T10:45:44Z</time></trkpt><trkpt lat="50.983912217512675" lon="5.7000739169435475"><ele>42.0</ele><time>2026-04-10T10:45:45Z</time></trkpt><trkpt lat="50.98379932503606" lon="5.700112406381141"><ele>42.0</ele><time>2026-04-10T10:45:46Z</time></trkpt><trkpt lat="50.98368877740252" lon="5.700150980699833"><ele>42.0</ele><time>2026-04-10T10:45:47Z</time></trkpt><trkpt lat="50.98358306847845" lon="5.7001891243925575"><ele>42.0</ele><time>2026-04-10T10:45:48Z</time></trkpt><trkpt lat="50.98348297068457" lon="5.700225277764151"><ele>42.0</ele><time>2026-04-10T10:45:49Z</time></trkpt><trkpt lat="50.98338582092844" lon="5.700258991016379"><ele>42.0</ele><time>2026-04-10T10:45:50Z</time></trkpt><trkpt lat="50.983291358618274" lon="5.70029146548161"><ele>41.833333333333336</ele><time>2026-04-10T10:45:51Z</time></trkpt><trkpt lat="50.98319918097294" lon="5.700324185042513"><ele>41.666666666666664</ele><time>2026-04-10T10:45:52Z</time></trkpt><trkpt lat="50.98311054959299" lon="5.700355781776216"><ele>41.5</ele><time>2026-04-10T10:45:53Z</time></trkpt><trkpt lat="50.98302777656841" lon="5.700385332614389"><ele>41.33333333333333</ele><time>2026-04-10T10:45:54Z</time></trkpt><trkpt lat="50.98295673621124" lon="5.70041000075341"><ele>41.166666666666664</ele><time>2026-04-10T10:45:55Z</time></trkpt><trkpt lat="50.98289284717877" lon="5.700431897269455"><ele>41.0</ele><time>2026-04-10T10:45:56Z</time></trkpt><trkpt lat="50.98282788287364" lon="5.700454701932887"><ele>41.0</ele><time>2026-04-10T10:45:57Z</time></trkpt><trkpt lat="50.982753809015826" lon="5.700481691190506"><ele>41.0</ele><time>2026-04-10T10:45:58Z</time></trkpt><trkpt lat="50.98267161599225" lon="5.700511735387744"><ele>41.0</ele><time>2026-04-10T10:45:59Z</time></trkpt><trkpt lat="50.982587640034666" lon="5.7005415577564875"><ele>41.0</ele><time>2026-04-10T10:46:00Z</time></trkpt><trkpt lat="50.98250120498369" lon="5.700571725809166"><ele>41.0</ele><time>2026-04-10T10:46:01Z</time></trkpt><trkpt lat="50.982413737588914" lon="5.700602256679658"><ele>41.0</ele><time>2026-04-10T10:46:02Z</time></trkpt><trkpt lat="50.98232755568032" lon="5.700632408817207"><ele>40.8</ele><time>2026-04-10T10:46:03Z</time></trkpt><trkpt lat="50.982243448062164" lon="5.700661089178094"><ele>40.599999999999994</ele><time>2026-04-10T10:46:04Z</time></trkpt><trkpt lat="50.982170636454725" lon="5.70068643808727"><ele>40.4</ele><time>2026-04-10T10:46:05Z</time></trkpt><trkpt lat="50.98205383744853" lon="5.700727728446517"><ele>40.2</ele><time>2026-04-10T10:46:07Z</time></trkpt><trkpt lat="50.98195533019316" lon="5.70076506114746"><ele>40.0</ele><time>2026-04-10T10:46:09Z</time></trkpt><trkpt lat="50.981826651499816" lon="5.700812860285411"><ele>40.0</ele><time>2026-04-10T10:46:11Z</time></trkpt><trkpt lat="50.98174557546578" lon="5.7008426387543025"><ele>40.0</ele><time>2026-04-10T10:46:12Z</time></trkpt><trkpt lat="50.98166522801885" lon="5.700870793151178"><ele>40.0</ele><time>2026-04-10T10:46:13Z</time></trkpt><trkpt lat="50.981584610888724" lon="5.700919598811153"><ele>40.0</ele><time>2026-04-10T10:46:14Z</time></trkpt><trkpt lat="50.98150099505931" lon="5.700947659994109"><ele>40.0</ele><time>2026-04-10T10:46:15Z</time></trkpt><trkpt lat="50.98141697073698" lon="5.700975665346593"><ele>40.0</ele><time>2026-04-10T10:46:16Z</time></trkpt><trkpt lat="50.98133374391118" lon="5.701003395120575"><ele>40.16666666666667</ele><time>2026-04-10T10:46:17Z</time></trkpt><trkpt lat="50.98125071705366" lon="5.701031167018709"><ele>40.333333333333336</ele><time>2026-04-10T10:46:18Z</time></trkpt><trkpt lat="50.98116810833914" lon="5.701055316151501"><ele>40.5</ele><time>2026-04-10T10:46:19Z</time></trkpt><trkpt lat="50.981086130515756" lon="5.701081867581359"><ele>40.666666666666664</ele><time>2026-04-10T10:46:20Z</time></trkpt><trkpt lat="50.98100466487295" lon="5.701109244762703"><ele>40.83333333333333</ele><time>2026-04-10T10:46:21Z</time></trkpt><trkpt lat="50.98092065027171" lon="5.701138520783379"><ele>41.0</ele><time>2026-04-10T10:46:22Z</time></trkpt><trkpt lat="50.980831943510694" lon="5.701169507748403"><ele>41.166666666666664</ele><time>2026-04-10T10:46:23Z</time></trkpt><trkpt lat="50.980739990853" lon="5.7012016937569925"><ele>41.33333333333333</ele><time>2026-04-10T10:46:24Z</time></trkpt><trkpt lat="50.9806505281657" lon="5.70123438578723"><ele>41.5</ele><time>2026-04-10T10:46:25Z</time></trkpt><trkpt lat="50.98056312732281" lon="5.7012664689564545"><ele>41.666666666666664</ele><time>2026-04-10T10:46:26Z</time></trkpt><trkpt lat="50.980478530320305" lon="5.701296597961597"><ele>41.833333333333336</ele><time>2026-04-10T10:46:27Z</time></trkpt><trkpt lat="50.980397246566625" lon="5.7013248784141535"><ele>42.0</ele><time>2026-04-10T10:46:28Z</time></trkpt><trkpt lat="50.98032721708383" lon="5.701347874957599"><ele>42.0</ele><time>2026-04-10T10:46:29Z</time></trkpt><trkpt lat="50.980217793371175" lon="5.701381476010899"><ele>42.0</ele><time>2026-04-10T10:46:31Z</time></trkpt><trkpt lat="50.98011029866792" lon="5.701398617218697"><ele>42.0</ele><time>2026-04-10T10:46:32.999Z</time></trkpt><trkpt lat="50.98005540766167" lon="5.701525679669493"><ele>42.0</ele><time>2026-04-10T10:46:33.999Z</time></trkpt><trkpt lat="50.980019036578746" lon="5.701302026218961"><ele>41.833333333333336</ele><time>2026-04-10T10:46:34.999Z</time></trkpt><trkpt lat="50.979995846827244" lon="5.701208774947177"><ele>41.666666666666664</ele><time>2026-04-10T10:46:35.999Z</time></trkpt><trkpt lat="50.979981283500784" lon="5.701094933075777"><ele>41.5</ele><time>2026-04-10T10:46:36.999Z</time></trkpt><trkpt lat="50.97999644764925" lon="5.700973220903015"><ele>41.33333333333333</ele><time>2026-04-10T10:46:37.999Z</time></trkpt><trkpt lat="50.98001969535759" lon="5.700849582421949"><ele>41.166666666666664</ele><time>2026-04-10T10:46:38.999Z</time></trkpt><trkpt lat="50.9800495560837" lon="5.700708923734908"><ele>41.0</ele><time>2026-04-10T10:46:39.999Z</time></trkpt><trkpt lat="50.98007695028595" lon="5.70057698870133"><ele>41.0</ele><time>2026-04-10T10:46:40.999Z</time></trkpt><trkpt lat="50.98010430486229" lon="5.70045538704331"><ele>41.0</ele><time>2026-04-10T10:46:41.999Z</time></trkpt><trkpt lat="50.980130191460276" lon="5.700340958691011"><ele>41.0</ele><time>2026-04-10T10:46:42.999Z</time></trkpt><trkpt lat="50.980154505028345" lon="5.700233483505308"><ele>41.0</ele><time>2026-04-10T10:46:43.999Z</time></trkpt><trkpt lat="50.980175168138175" lon="5.700132097569295"><ele>41.0</ele><time>2026-04-10T10:46:44.999Z</time></trkpt><trkpt lat="50.98020768510496" lon="5.699974825390983"><ele>41.0</ele><time>2026-04-10T10:46:46.999Z</time></trkpt><trkpt lat="50.98012199475525" lon="5.69978468642631"><ele>41.0</ele><time>2026-04-10T10:46:48.999Z</time></trkpt><trkpt lat="50.98002913653164" lon="5.699756530237325"><ele>41.0</ele><time>2026-04-10T10:46:50.999Z</time></trkpt><trkpt lat="50.97991861968197" lon="5.699719817818089"><ele>41.0</ele><time>2026-04-10T10:46:52.999Z</time></trkpt><trkpt lat="50.97985538944275" lon="5.699698815670236"><ele>41.0</ele><time>2026-04-10T10:46:53.999Z</time></trkpt><trkpt lat="50.97974451050464" lon="5.699661986836323"><ele>41.0</ele><time>2026-04-10T10:46:55.999Z</time></trkpt><trkpt lat="50.97968685070677" lon="5.699589695982483"><ele>41.166666666666664</ele><time>2026-04-10T10:46:57.999Z</time></trkpt><trkpt lat="50.9797239922302" lon="5.699441667964142"><ele>41.33333333333333</ele><time>2026-04-10T10:46:59.999Z</time></trkpt><trkpt lat="50.97975408008709" lon="5.699303693646063"><ele>41.5</ele><time>2026-04-10T10:47:01.999Z</time></trkpt><trkpt lat="50.979775330931304" lon="5.699205345267287"><ele>41.666666666666664</ele><time>2026-04-10T10:47:03.999Z</time></trkpt><trkpt lat="50.97970479154416" lon="5.699142111222872"><ele>41.833333333333336</ele><time>2026-04-10T10:59:49Z</time></trkpt><trkpt lat="50.97977407088855" lon="5.699258777631263"><ele>42.0</ele><time>2026-04-10T11:06:03Z</time></trkpt><trkpt lat="50.97975120716392" lon="5.699368990315518"><ele>42.0</ele><time>2026-04-10T11:06:07Z</time></trkpt><trkpt lat="50.97972757839013" lon="5.699482287224496"><ele>42.0</ele><time>2026-04-10T11:06:10Z</time></trkpt><trkpt lat="50.97970036203583" lon="5.699602316976741"><ele>42.0</ele><time>2026-04-10T11:06:13Z</time></trkpt><trkpt lat="50.97974846998018" lon="5.699711839244894"><ele>42.0</ele><time>2026-04-10T11:06:16Z</time></trkpt><trkpt lat="50.97981586476565" lon="5.699727128392354"><ele>42.0</ele><time>2026-04-10T11:06:18Z</time></trkpt><trkpt lat="50.979879230750846" lon="5.699750723026834"><ele>42.0</ele><time>2026-04-10T11:06:20Z</time></trkpt><trkpt lat="50.979944729590095" lon="5.6997840489940685"><ele>42.0</ele><time>2026-04-10T11:06:22Z</time></trkpt><trkpt lat="50.980018867944686" lon="5.699798936764611"><ele>41.833333333333336</ele><time>2026-04-10T11:06:24Z</time></trkpt><trkpt lat="50.98008825076849" lon="5.699828061854003"><ele>41.666666666666664</ele><time>2026-04-10T11:06:26Z</time></trkpt><trkpt lat="50.98016905175683" lon="5.699889840440932"><ele>41.5</ele><time>2026-04-10T11:06:29Z</time></trkpt><trkpt lat="50.980177574463205" lon="5.700003724042562"><ele>41.33333333333333</ele><time>2026-04-10T11:06:31Z</time></trkpt><trkpt lat="50.98014555715845" lon="5.700125420469062"><ele>41.166666666666664</ele><time>2026-04-10T11:06:33Z</time></trkpt><trkpt lat="50.980120744122885" lon="5.700247348488743"><ele>41.0</ele><time>2026-04-10T11:06:35Z</time></trkpt><trkpt lat="50.98009923657637" lon="5.700369067054308"><ele>41.0</ele><time>2026-04-10T11:06:37Z</time></trkpt><trkpt lat="50.98007395329636" lon="5.700491925582736"><ele>41.0</ele><time>2026-04-10T11:06:39Z</time></trkpt><trkpt lat="50.98004343099817" lon="5.700615220025769"><ele>41.0</ele><time>2026-04-10T11:06:41Z</time></trkpt><trkpt lat="50.98001770682743" lon="5.700737856481429"><ele>41.0</ele><time>2026-04-10T11:06:43Z</time></trkpt><trkpt lat="50.97999555960237" lon="5.700858519408875"><ele>41.0</ele><time>2026-04-10T11:06:45Z</time></trkpt><trkpt lat="50.97998266548423" lon="5.700977841376933"><ele>41.0</ele><time>2026-04-10T11:06:47Z</time></trkpt><trkpt lat="50.980002621920995" lon="5.701092865594411"><ele>41.166666666666664</ele><time>2026-04-10T11:06:49Z</time></trkpt><trkpt lat="50.98003521810629" lon="5.701219658170929"><ele>41.33333333333333</ele><time>2026-04-10T11:06:52Z</time></trkpt><trkpt lat="50.98008033562698" lon="5.7013040558106285"><ele>41.5</ele><time>2026-04-10T11:06:56Z</time></trkpt><trkpt lat="50.98011816860372" lon="5.7014051807846995"><ele>41.666666666666664</ele><time>2026-04-10T11:07:00Z</time></trkpt><trkpt lat="50.98016122406172" lon="5.701520264891103"><ele>41.833333333333336</ele><time>2026-04-10T11:07:03Z</time></trkpt><trkpt lat="50.98026190234952" lon="5.70147502340041"><ele>42.0</ele><time>2026-04-10T11:07:06Z</time></trkpt><trkpt lat="50.980318272266175" lon="5.7015257892972135"><ele>42.0</ele><time>2026-04-10T11:07:07Z</time></trkpt><trkpt lat="50.9803927934068" lon="5.701496469056091"><ele>42.0</ele><time>2026-04-10T11:07:09Z</time></trkpt><trkpt lat="50.980477000008946" lon="5.7014665188152565"><ele>42.0</ele><time>2026-04-10T11:07:11Z</time></trkpt><trkpt lat="50.98056937584588" lon="5.7014344813384215"><ele>42.0</ele><time>2026-04-10T11:07:13Z</time></trkpt><trkpt lat="50.98066471178832" lon="5.701401982453734"><ele>42.0</ele><time>2026-04-10T11:07:15Z</time></trkpt><trkpt lat="50.98077009836327" lon="5.701366712355112"><ele>41.8</ele><time>2026-04-10T11:07:17Z</time></trkpt><trkpt lat="50.98087753090815" lon="5.701331856758324"><ele>41.6</ele><time>2026-04-10T11:07:19Z</time></trkpt><trkpt lat="50.980977856010824" lon="5.701301545072586"><ele>41.4</ele><time>2026-04-10T11:07:21Z</time></trkpt><trkpt lat="50.98108330912001" lon="5.701270065599941"><ele>41.199999999999996</ele><time>2026-04-10T11:07:23Z</time></trkpt><trkpt lat="50.981196435217775" lon="5.701236295612247"><ele>41.0</ele><time>2026-04-10T11:07:25Z</time></trkpt><trkpt lat="50.98130821039227" lon="5.701204305636003"><ele>41.0</ele><time>2026-04-10T11:07:27Z</time></trkpt><trkpt lat="50.98140548293712" lon="5.7011769502426715"><ele>41.0</ele><time>2026-04-10T11:07:29Z</time></trkpt><trkpt lat="50.981482656766225" lon="5.70115681405155"><ele>41.0</ele><time>2026-04-10T11:07:31Z</time></trkpt><trkpt lat="50.981563342383254" lon="5.701158021286567"><ele>41.0</ele><time>2026-04-10T11:07:33Z</time></trkpt><trkpt lat="50.98165707841988" lon="5.701090481317558"><ele>41.0</ele><time>2026-04-10T11:07:35Z</time></trkpt><trkpt lat="50.98175812946884" lon="5.701055146087857"><ele>40.8</ele><time>2026-04-10T11:07:37Z</time></trkpt><trkpt lat="50.98186527231148" lon="5.701011153682997"><ele>40.599999999999994</ele><time>2026-04-10T11:07:39Z</time></trkpt><trkpt lat="50.981968767614234" lon="5.700971842506443"><ele>40.4</ele><time>2026-04-10T11:07:41Z</time></trkpt><trkpt lat="50.98206283527347" lon="5.700938004253387"><ele>40.2</ele><time>2026-04-10T11:07:43Z</time></trkpt><trkpt lat="50.98215297687464" lon="5.700908609834145"><ele>40.0</ele><time>2026-04-10T11:07:45Z</time></trkpt><trkpt lat="50.98223753124957" lon="5.700872111291362"><ele>40.0</ele><time>2026-04-10T11:07:47Z</time></trkpt><trkpt lat="50.98233117003995" lon="5.700850999597634"><ele>40.0</ele><time>2026-04-10T11:07:49Z</time></trkpt><trkpt lat="50.98242494644462" lon="5.700815699756939"><ele>40.0</ele><time>2026-04-10T11:07:51Z</time></trkpt><trkpt lat="50.98251964408824" lon="5.700767672137944"><ele>40.0</ele><time>2026-04-10T11:07:53Z</time></trkpt><trkpt lat="50.982623583394655" lon="5.700723360820776"><ele>40.0</ele><time>2026-04-10T11:07:55Z</time></trkpt><trkpt lat="50.98273040004379" lon="5.7006848597820055"><ele>40.25</ele><time>2026-04-10T11:07:57Z</time></trkpt><trkpt lat="50.98284322984172" lon="5.700644997434059"><ele>40.5</ele><time>2026-04-10T11:07:59Z</time></trkpt><trkpt lat="50.98295372431425" lon="5.700607870440884"><ele>40.75</ele><time>2026-04-10T11:08:01Z</time></trkpt><trkpt lat="50.98306782152373" lon="5.700569532899482"><ele>41.0</ele><time>2026-04-10T11:08:03Z</time></trkpt><trkpt lat="50.98317630039641" lon="5.700533083185222"><ele>41.0</ele><time>2026-04-10T11:08:05Z</time></trkpt><trkpt lat="50.98327772676347" lon="5.700499672140336"><ele>41.0</ele><time>2026-04-10T11:08:07Z</time></trkpt><trkpt lat="50.983376673834044" lon="5.7004668920944"><ele>41.0</ele><time>2026-04-10T11:08:09Z</time></trkpt><trkpt lat="50.98347286699899" lon="5.700435024419846"><ele>41.0</ele><time>2026-04-10T11:08:11Z</time></trkpt><trkpt lat="50.98356247418247" lon="5.700405338604634"><ele>41.0</ele><time>2026-04-10T11:08:13Z</time></trkpt><trkpt lat="50.98365083266977" lon="5.700377609852501"><ele>41.166666666666664</ele><time>2026-04-10T11:08:15Z</time></trkpt><trkpt lat="50.98373448149844" lon="5.700348354594418"><ele>41.33333333333333</ele><time>2026-04-10T11:08:17Z</time></trkpt><trkpt lat="50.98381656411997" lon="5.700320192270554"><ele>41.5</ele><time>2026-04-10T11:08:19Z</time></trkpt><trkpt lat="50.98389717335685" lon="5.700292579384552"><ele>41.666666666666664</ele><time>2026-04-10T11:08:21Z</time></trkpt><trkpt lat="50.98397985861418" lon="5.700263212994336"><ele>41.833333333333336</ele><time>2026-04-10T11:08:23Z</time></trkpt><trkpt lat="50.98407031150661" lon="5.700230648244987"><ele>42.0</ele><time>2026-04-10T11:08:25Z</time></trkpt><trkpt lat="50.98415827385417" lon="5.700198002048832"><ele>42.0</ele><time>2026-04-10T11:08:27Z</time></trkpt><trkpt lat="50.98425703559542" lon="5.700161348503634"><ele>42.0</ele><time>2026-04-10T11:08:29Z</time></trkpt><trkpt lat="50.984346183723055" lon="5.700129940512629"><ele>42.0</ele><time>2026-04-10T11:08:31Z</time></trkpt><trkpt lat="50.98443349456969" lon="5.700100294988362"><ele>42.0</ele><time>2026-04-10T11:08:33Z</time></trkpt><trkpt lat="50.98451333931224" lon="5.700071953177116"><ele>42.0</ele><time>2026-04-10T11:08:35Z</time></trkpt><trkpt lat="50.98461116223707" lon="5.700099480674298"><ele>42.0</ele><time>2026-04-10T11:08:37Z</time></trkpt><trkpt lat="50.984653848112046" lon="5.70020303390707"><ele>42.0</ele><time>2026-04-10T11:08:40Z</time></trkpt><trkpt lat="50.98473223001158" lon="5.700197628298211"><ele>42.0</ele><time>2026-04-10T11:08:43Z</time></trkpt><trkpt lat="50.98479818578198" lon="5.700164952616698"><ele>42.0</ele><time>2026-04-10T11:08:46Z</time></trkpt><trkpt lat="50.984866083869655" lon="5.70004832811588"><ele>42.0</ele><time>2026-04-10T11:08:49Z</time></trkpt><trkpt lat="50.98495453917764" lon="5.6998772951462735"><ele>41.8</ele><time>2026-04-10T11:08:52Z</time></trkpt><trkpt lat="50.98504471047337" lon="5.699815443629649"><ele>41.6</ele><time>2026-04-10T11:08:54Z</time></trkpt><trkpt lat="50.985153165685766" lon="5.699773447419436"><ele>41.4</ele><time>2026-04-10T11:08:56Z</time></trkpt><trkpt lat="50.985264447646856" lon="5.69973608848011"><ele>41.199999999999996</ele><time>2026-04-10T11:08:58Z</time></trkpt><trkpt lat="50.98537344250645" lon="5.699697875237802"><ele>41.0</ele><time>2026-04-10T11:09:00Z</time></trkpt><trkpt lat="50.985485788857055" lon="5.699659087560761"><ele>41.0</ele><time>2026-04-10T11:09:02Z</time></trkpt><trkpt lat="50.98559145126607" lon="5.699622339346369"><ele>41.0</ele><time>2026-04-10T11:09:04Z</time></trkpt><trkpt lat="50.98568935729601" lon="5.6995879229012765"><ele>41.0</ele><time>2026-04-10T11:09:06Z</time></trkpt><trkpt lat="50.98579792146086" lon="5.69954975985145"><ele>41.0</ele><time>2026-04-10T11:09:08Z</time></trkpt><trkpt lat="50.98590796079714" lon="5.69951107824684"><ele>41.0</ele><time>2026-04-10T11:09:10Z</time></trkpt><trkpt lat="50.986020347680245" lon="5.699474562274154"><ele>40.8</ele><time>2026-04-10T11:09:12Z</time></trkpt><trkpt lat="50.986122216495154" lon="5.699443223015536"><ele>40.599999999999994</ele><time>2026-04-10T11:09:14Z</time></trkpt><trkpt lat="50.98623175410377" lon="5.69940386377694"><ele>40.4</ele><time>2026-04-10T11:09:16Z</time></trkpt><trkpt lat="50.98634134525669" lon="5.69936547953684"><ele>40.2</ele><time>2026-04-10T11:09:18Z</time></trkpt><trkpt lat="50.98645207812683" lon="5.699326606680036"><ele>40.0</ele><time>2026-04-10T11:09:20Z</time></trkpt><trkpt lat="50.98656854005044" lon="5.699285724238378"><ele>40.6</ele><time>2026-04-10T11:09:22Z</time></trkpt><trkpt lat="50.986681312458245" lon="5.699246136956012"><ele>41.2</ele><time>2026-04-10T11:09:24Z</time></trkpt><trkpt lat="50.986806776781194" lon="5.699202094343732"><ele>41.8</ele><time>2026-04-10T11:09:26Z</time></trkpt><trkpt lat="50.986877034269284" lon="5.699177431360527"><ele>42.4</ele><time>2026-04-10T11:09:27Z</time></trkpt><trkpt lat="50.98698157165584" lon="5.699142623889512"><ele>43.0</ele><time>2026-04-10T11:09:29Z</time></trkpt><trkpt lat="50.98704397175207" lon="5.69912161632801"><ele>43.0</ele><time>2026-04-10T11:09:30Z</time></trkpt><trkpt lat="50.987109138727156" lon="5.699099677268968"><ele>43.0</ele><time>2026-04-10T11:09:31Z</time></trkpt><trkpt lat="50.98723075860613" lon="5.699058152923691"><ele>43.0</ele><time>2026-04-10T11:09:33Z</time></trkpt><trkpt lat="50.987295286525566" lon="5.699037543884623"><ele>43.0</ele><time>2026-04-10T11:09:34Z</time></trkpt><trkpt lat="50.987412207945894" lon="5.699000367868672"><ele>43.0</ele><time>2026-04-10T11:09:36Z</time></trkpt><trkpt lat="50.98752522803994" lon="5.698965292667742"><ele>42.599999999999994</ele><time>2026-04-10T11:09:38Z</time></trkpt><trkpt lat="50.9876388690473" lon="5.698929802524802"><ele>42.199999999999996</ele><time>2026-04-10T11:09:40Z</time></trkpt><trkpt lat="50.98774188853109" lon="5.698896903740784"><ele>41.8</ele><time>2026-04-10T11:09:42Z</time></trkpt><trkpt lat="50.987860510131036" lon="5.6988590225124405"><ele>41.4</ele><time>2026-04-10T11:09:44Z</time></trkpt><trkpt lat="50.98792249069831" lon="5.698839229305952"><ele>41.0</ele><time>2026-04-10T11:09:45Z</time></trkpt><trkpt lat="50.98803476045012" lon="5.698800555183477"><ele>41.0</ele><time>2026-04-10T11:09:47Z</time></trkpt><trkpt lat="50.98813914908296" lon="5.698763706368364"><ele>41.0</ele><time>2026-04-10T11:09:49Z</time></trkpt><trkpt lat="50.98824134025474" lon="5.698727633244496"><ele>41.0</ele><time>2026-04-10T11:09:51Z</time></trkpt><trkpt lat="50.988338024448275" lon="5.69869350406959"><ele>41.0</ele><time>2026-04-10T11:09:53Z</time></trkpt><trkpt lat="50.98842229103807" lon="5.698663016707741"><ele>41.0</ele><time>2026-04-10T11:09:55Z</time></trkpt><trkpt lat="50.98851057161483" lon="5.698630399280858"><ele>41.0</ele><time>2026-04-10T11:09:57Z</time></trkpt><trkpt lat="50.98861332562095" lon="5.698592434351857"><ele>41.0</ele><time>2026-04-10T11:09:59Z</time></trkpt><trkpt lat="50.98870791724708" lon="5.698553324386923"><ele>41.0</ele><time>2026-04-10T11:10:01Z</time></trkpt><trkpt lat="50.98880973086466" lon="5.698515111978628"><ele>41.0</ele><time>2026-04-10T11:10:03Z</time></trkpt><trkpt lat="50.98890667986173" lon="5.698478481832039"><ele>41.0</ele><time>2026-04-10T11:10:05Z</time></trkpt><trkpt lat="50.989014408414874" lon="5.698438610070531"><ele>41.0</ele><time>2026-04-10T11:10:07Z</time></trkpt><trkpt lat="50.989121786381396" lon="5.698398628211325"><ele>41.0</ele><time>2026-04-10T11:10:09Z</time></trkpt><trkpt lat="50.98922669731699" lon="5.69835781546025"><ele>41.0</ele><time>2026-04-10T11:10:11Z</time></trkpt><trkpt lat="50.98932241947516" lon="5.698320516916831"><ele>41.0</ele><time>2026-04-10T11:10:13Z</time></trkpt><trkpt lat="50.98937945804303" lon="5.6983859524426554"><ele>41.0</ele><time>2026-04-10T11:10:14Z</time></trkpt><trkpt lat="50.98945799483387" lon="5.698422901192197"><ele>40.666666666666664</ele><time>2026-04-10T11:10:16Z</time></trkpt><trkpt lat="50.989528092351065" lon="5.698407773271961"><ele>40.33333333333333</ele><time>2026-04-10T11:10:18Z</time></trkpt><trkpt lat="50.9895811610154" lon="5.698352458777219"><ele>40.0</ele><time>2026-04-10T11:10:19.999Z</time></trkpt><trkpt lat="50.98961878312332" lon="5.69825662794457"><ele>39.666666666666664</ele><time>2026-04-10T11:10:21.999Z</time></trkpt><trkpt lat="50.98973226457698" lon="5.69818333253277"><ele>39.333333333333336</ele><time>2026-04-10T11:10:23.999Z</time></trkpt><trkpt lat="50.98982810963936" lon="5.698147712067987"><ele>39.0</ele><time>2026-04-10T11:10:25.999Z</time></trkpt><trkpt lat="50.989932680483555" lon="5.6981115356244025"><ele>39.5</ele><time>2026-04-10T11:10:27.999Z</time></trkpt><trkpt lat="50.990042602489154" lon="5.698073461424498"><ele>40.0</ele><time>2026-04-10T11:10:29.999Z</time></trkpt><trkpt lat="50.99015120329313" lon="5.6980358448552835"><ele>40.5</ele><time>2026-04-10T11:10:31.999Z</time></trkpt><trkpt lat="50.990264980504364" lon="5.69799461990152"><ele>41.0</ele><time>2026-04-10T11:10:33.999Z</time></trkpt><trkpt lat="50.99037780174382" lon="5.69795357765518"><ele>41.0</ele><time>2026-04-10T11:10:35.999Z</time></trkpt><trkpt lat="50.99049724059519" lon="5.697910020358544"><ele>41.0</ele><time>2026-04-10T11:10:37.999Z</time></trkpt><trkpt lat="50.990606952458336" lon="5.6978699933499"><ele>41.0</ele><time>2026-04-10T11:10:39.999Z</time></trkpt><trkpt lat="50.99071060542866" lon="5.697832176852575"><ele>41.0</ele><time>2026-04-10T11:10:41.999Z</time></trkpt><trkpt lat="50.99081674496035" lon="5.697793453163851"><ele>41.0</ele><time>2026-04-10T11:10:43.999Z</time></trkpt><trkpt lat="50.99092317111787" lon="5.697754624906934"><ele>41.0</ele><time>2026-04-10T11:10:45.999Z</time></trkpt><trkpt lat="50.991032311046084" lon="5.69771480656552"><ele>41.0</ele><time>2026-04-10T11:10:47.999Z</time></trkpt><trkpt lat="50.99114458620538" lon="5.697674217793635"><ele>41.0</ele><time>2026-04-10T11:10:49.999Z</time></trkpt><trkpt lat="50.99124883556672" lon="5.69763776341044"><ele>41.0</ele><time>2026-04-10T11:10:51.999Z</time></trkpt><trkpt lat="50.991352383874606" lon="5.697601744278238"><ele>41.0</ele><time>2026-04-10T11:10:53.999Z</time></trkpt><trkpt lat="50.99147442667082" lon="5.697559291862653"><ele>41.0</ele><time>2026-04-10T11:10:55.999Z</time></trkpt><trkpt lat="50.99159524576657" lon="5.697514582735087"><ele>41.0</ele><time>2026-04-10T11:10:57.999Z</time></trkpt><trkpt lat="50.991714090494106" lon="5.697470409999571"><ele>41.0</ele><time>2026-04-10T11:10:59.999Z</time></trkpt><trkpt lat="50.99183355591704" lon="5.69742832728798"><ele>40.599999999999994</ele><time>2026-04-10T11:11:01.999Z</time></trkpt><trkpt lat="50.99189828170545" lon="5.697404723043448"><ele>40.199999999999996</ele><time>2026-04-10T11:11:02.999Z</time></trkpt><trkpt lat="50.99202333449153" lon="5.697360998990353"><ele>39.8</ele><time>2026-04-10T11:11:04.999Z</time></trkpt><trkpt lat="50.99214515506552" lon="5.697318435078643"><ele>39.4</ele><time>2026-04-10T11:11:06.999Z</time></trkpt><trkpt lat="50.992213608342944" lon="5.697294517501044"><ele>39.0</ele><time>2026-04-10T11:11:07.999Z</time></trkpt><trkpt lat="50.99228112551557" lon="5.6972709269986765"><ele>39.0</ele><time>2026-04-10T11:11:08.999Z</time></trkpt><trkpt lat="50.9923471539022" lon="5.697247856677947"><ele>39.0</ele><time>2026-04-10T11:11:09.999Z</time></trkpt><trkpt lat="50.99241527902375" lon="5.69722405375915"><ele>39.0</ele><time>2026-04-10T11:11:10.999Z</time></trkpt><trkpt lat="50.99248049053865" lon="5.697201268850226"><ele>39.0</ele><time>2026-04-10T11:11:11.999Z</time></trkpt><trkpt lat="50.992545231053434" lon="5.6971786485086255"><ele>39.0</ele><time>2026-04-10T11:11:12.999Z</time></trkpt><trkpt lat="50.99266216226362" lon="5.697137792741386"><ele>39.0</ele><time>2026-04-10T11:11:14.999Z</time></trkpt><trkpt lat="50.99277986874108" lon="5.697096666091461"><ele>39.25</ele><time>2026-04-10T11:11:16.999Z</time></trkpt><trkpt lat="50.99289092790496" lon="5.6970578620080605"><ele>39.5</ele><time>2026-04-10T11:11:18.999Z</time></trkpt><trkpt lat="50.99300571558911" lon="5.697017755192102"><ele>39.75</ele><time>2026-04-10T11:11:20.999Z</time></trkpt><trkpt lat="50.993122438880924" lon="5.696976814182304"><ele>40.0</ele><time>2026-04-10T11:11:22.999Z</time></trkpt><trkpt lat="50.993236156115856" lon="5.69693598925734"><ele>39.8</ele><time>2026-04-10T11:11:24.999Z</time></trkpt><trkpt lat="50.993346642007936" lon="5.69689690082261"><ele>39.6</ele><time>2026-04-10T11:11:26.999Z</time></trkpt><trkpt lat="50.99345045648573" lon="5.696860439797792"><ele>39.4</ele><time>2026-04-10T11:11:28.999Z</time></trkpt><trkpt lat="50.99355515159811" lon="5.696823669482734"><ele>39.2</ele><time>2026-04-10T11:11:30.999Z</time></trkpt><trkpt lat="50.99365435982746" lon="5.696789662613371"><ele>39.0</ele><time>2026-04-10T11:11:32.999Z</time></trkpt><trkpt lat="50.99376102171564" lon="5.696753772872029"><ele>39.0</ele><time>2026-04-10T11:11:34.999Z</time></trkpt><trkpt lat="50.99385724338048" lon="5.696721396103253"><ele>39.0</ele><time>2026-04-10T11:11:36.999Z</time></trkpt><trkpt lat="50.99394914207037" lon="5.6966904738265"><ele>39.0</ele><time>2026-04-10T11:11:38.999Z</time></trkpt><trkpt lat="50.99403915050135" lon="5.696660113409148"><ele>39.0</ele><time>2026-04-10T11:11:40.999Z</time></trkpt><trkpt lat="50.9941170122741" lon="5.696633833203183"><ele>39.0</ele><time>2026-04-10T11:11:42.999Z</time></trkpt><trkpt lat="50.99418557274616" lon="5.696610692829487"><ele>39.0</ele><time>2026-04-10T11:11:45Z</time></trkpt><trkpt lat="50.994263765100094" lon="5.696572171812281"><ele>38.666666666666664</ele><time>2026-04-10T11:11:48Z</time></trkpt><trkpt lat="50.99432381581989" lon="5.696640543369276"><ele>38.333333333333336</ele><time>2026-04-10T11:11:50Z</time></trkpt><trkpt lat="50.99438628250657" lon="5.6967308488967525"><ele>38.0</ele><time>2026-04-10T11:11:52Z</time></trkpt><trkpt lat="50.99444200716926" lon="5.696832344651692"><ele>37.66666666666667</ele><time>2026-04-10T11:11:54Z</time></trkpt><trkpt lat="50.99449638154119" lon="5.696952383542507"><ele>37.333333333333336</ele><time>2026-04-10T11:11:56Z</time></trkpt><trkpt lat="50.994556721901624" lon="5.697083148517935"><ele>37.0</ele><time>2026-04-10T11:11:58Z</time></trkpt><trkpt lat="50.994616180698415" lon="5.697219651341637"><ele>37.0</ele><time>2026-04-10T11:12:00Z</time></trkpt><trkpt lat="50.99468212256358" lon="5.697354031208518"><ele>37.0</ele><time>2026-04-10T11:12:02Z</time></trkpt><trkpt lat="50.99472914462601" lon="5.697428089567859"><ele>37.0</ele><time>2026-04-10T11:12:03Z</time></trkpt><trkpt lat="50.99479304316849" lon="5.697576782322069"><ele>37.0</ele><time>2026-04-10T11:12:05Z</time></trkpt><trkpt lat="50.99487017237937" lon="5.697730839370805"><ele>37.0</ele><time>2026-04-10T11:12:07Z</time></trkpt><trkpt lat="50.99493569772445" lon="5.697883715678383"><ele>36.800000000000004</ele><time>2026-04-10T11:12:09Z</time></trkpt><trkpt lat="50.99500712559453" lon="5.698025904036168"><ele>36.6</ele><time>2026-04-10T11:12:11Z</time></trkpt><trkpt lat="50.995066840776296" lon="5.6981650034291365"><ele>36.400000000000006</ele><time>2026-04-10T11:12:13Z</time></trkpt><trkpt lat="50.995135716460005" lon="5.698301086515135"><ele>36.2</ele><time>2026-04-10T11:12:15Z</time></trkpt><trkpt lat="50.995193844950585" lon="5.698425474379533"><ele>36.0</ele><time>2026-04-10T11:12:17Z</time></trkpt><trkpt lat="50.9952551626939" lon="5.698554594238194"><ele>35.8</ele><time>2026-04-10T11:12:19Z</time></trkpt><trkpt lat="50.99531452293905" lon="5.698681515350571"><ele>35.6</ele><time>2026-04-10T11:12:21Z</time></trkpt><trkpt lat="50.99538059161955" lon="5.698830914686304"><ele>35.4</ele><time>2026-04-10T11:12:23Z</time></trkpt><trkpt lat="50.99545148196297" lon="5.698974839652143"><ele>35.2</ele><time>2026-04-10T11:12:25Z</time></trkpt><trkpt lat="50.995509824584246" lon="5.699107512611305"><ele>35.0</ele><time>2026-04-10T11:12:27Z</time></trkpt><trkpt lat="50.99557015887394" lon="5.699239236514221"><ele>35.0</ele><time>2026-04-10T11:12:29Z</time></trkpt><trkpt lat="50.99563351231074" lon="5.699371877982544"><ele>35.0</ele><time>2026-04-10T11:12:31Z</time></trkpt><trkpt lat="50.99569707883218" lon="5.699512278798364"><ele>35.0</ele><time>2026-04-10T11:12:32.999Z</time></trkpt><trkpt lat="50.995763887032695" lon="5.699656299912295"><ele>35.0</ele><time>2026-04-10T11:12:34.999Z</time></trkpt><trkpt lat="50.995835176979234" lon="5.699802176308361"><ele>35.0</ele><time>2026-04-10T11:12:36.999Z</time></trkpt><trkpt lat="50.995895449990854" lon="5.699929451354472"><ele>35.0</ele><time>2026-04-10T11:12:38.999Z</time></trkpt><trkpt lat="50.99594732461275" lon="5.700058210597317"><ele>35.0</ele><time>2026-04-10T11:12:40.999Z</time></trkpt><trkpt lat="50.99599828653949" lon="5.700163176186377"><ele>35.0</ele><time>2026-04-10T11:12:42.999Z</time></trkpt><trkpt lat="50.99604338067214" lon="5.700270009538607"><ele>35.0</ele><time>2026-04-10T11:12:44.999Z</time></trkpt><trkpt lat="50.99610969005494" lon="5.700395714727367"><ele>35.0</ele><time>2026-04-10T11:12:46.999Z</time></trkpt><trkpt lat="50.9961698292276" lon="5.700530711122074"><ele>35.0</ele><time>2026-04-10T11:12:48.999Z</time></trkpt><trkpt lat="50.996231049843985" lon="5.700660550908295"><ele>35.0</ele><time>2026-04-10T11:12:50.999Z</time></trkpt><trkpt lat="50.99629138474807" lon="5.700792647656557"><ele>35.0</ele><time>2026-04-10T11:12:52.999Z</time></trkpt><trkpt lat="50.99635077904395" lon="5.700923959997903"><ele>35.0</ele><time>2026-04-10T11:12:54.999Z</time></trkpt><trkpt lat="50.996418239262766" lon="5.701055841135792"><ele>35.0</ele><time>2026-04-10T11:12:56.999Z</time></trkpt><trkpt lat="50.99648149454951" lon="5.70119292042199"><ele>35.2</ele><time>2026-04-10T11:12:58.999Z</time></trkpt><trkpt lat="50.996545538203996" lon="5.701324233243796"><ele>35.4</ele><time>2026-04-10T11:13:00.999Z</time></trkpt><trkpt lat="50.99659976511471" lon="5.701445456510629"><ele>35.6</ele><time>2026-04-10T11:13:02.999Z</time></trkpt><trkpt lat="50.99665565512453" lon="5.701566136705675"><ele>35.8</ele><time>2026-04-10T11:13:04.999Z</time></trkpt><trkpt lat="50.99671583869642" lon="5.70169236359987"><ele>36.0</ele><time>2026-04-10T11:13:06.999Z</time></trkpt><trkpt lat="50.99677566519093" lon="5.701822994058164"><ele>35.8</ele><time>2026-04-10T11:13:08.999Z</time></trkpt><trkpt lat="50.996840375864736" lon="5.701949203535767"><ele>35.6</ele><time>2026-04-10T11:13:10.999Z</time></trkpt><trkpt lat="50.996904522255925" lon="5.702084420932793"><ele>35.4</ele><time>2026-04-10T11:13:12.999Z</time></trkpt><trkpt lat="50.996968548513614" lon="5.702224160223327"><ele>35.2</ele><time>2026-04-10T11:13:14.999Z</time></trkpt><trkpt lat="50.9970259431397" lon="5.702361703309908"><ele>35.0</ele><time>2026-04-10T11:13:16.999Z</time></trkpt><trkpt lat="50.99710009662002" lon="5.702506941740272"><ele>35.0</ele><time>2026-04-10T11:13:18.999Z</time></trkpt><trkpt lat="50.99716719278855" lon="5.7026613548155805"><ele>35.0</ele><time>2026-04-10T11:13:20.999Z</time></trkpt><trkpt lat="50.99723444592049" lon="5.70280192152824"><ele>35.0</ele><time>2026-04-10T11:13:22.999Z</time></trkpt><trkpt lat="50.99729453820329" lon="5.70292778147512"><ele>35.0</ele><time>2026-04-10T11:13:24.999Z</time></trkpt><trkpt lat="50.99735024683188" lon="5.703051512381923"><ele>35.0</ele><time>2026-04-10T11:13:26.999Z</time></trkpt><trkpt lat="50.99740617236111" lon="5.703175725381237"><ele>35.2</ele><time>2026-04-10T11:13:28.999Z</time></trkpt><trkpt lat="50.99745890731767" lon="5.703294132399528"><ele>35.4</ele><time>2026-04-10T11:13:30.999Z</time></trkpt><trkpt lat="50.997521789651444" lon="5.703415041275125"><ele>35.6</ele><time>2026-04-10T11:13:32.999Z</time></trkpt><trkpt lat="50.9975769834584" lon="5.703547461844035"><ele>35.8</ele><time>2026-04-10T11:13:34.999Z</time></trkpt><trkpt lat="50.99762554180218" lon="5.703661038572056"><ele>36.0</ele><time>2026-04-10T11:13:36.999Z</time></trkpt><trkpt lat="50.99769169046588" lon="5.703777037360385"><ele>36.333333333333336</ele><time>2026-04-10T11:13:39Z</time></trkpt><trkpt lat="50.99773968594397" lon="5.703890879881796"><ele>36.666666666666664</ele><time>2026-04-10T11:13:41Z</time></trkpt><trkpt lat="50.997795849423355" lon="5.7040017265819625"><ele>37.0</ele><time>2026-04-10T11:13:43Z</time></trkpt><trkpt lat="50.99784267669767" lon="5.704110644676311"><ele>37.33333333333333</ele><time>2026-04-10T11:13:45Z</time></trkpt><trkpt lat="50.997889523167395" lon="5.704219584738948"><ele>37.666666666666664</ele><time>2026-04-10T11:13:47Z</time></trkpt><trkpt lat="50.99793190883978" lon="5.7043405146843"><ele>38.0</ele><time>2026-04-10T11:13:49Z</time></trkpt><trkpt lat="50.99794888562952" lon="5.704475778966863"><ele>38.0</ele><time>2026-04-10T11:13:51Z</time></trkpt><trkpt lat="50.99795831940042" lon="5.7046104866982805"><ele>38.0</ele><time>2026-04-10T11:13:53Z</time></trkpt><trkpt lat="50.99795414512124" lon="5.704737640194761"><ele>38.0</ele><time>2026-04-10T11:13:55Z</time></trkpt><trkpt lat="50.99796233525204" lon="5.704862897558241"><ele>38.0</ele><time>2026-04-10T11:13:57Z</time></trkpt><trkpt lat="50.99797351145974" lon="5.704983041846088"><ele>38.0</ele><time>2026-04-10T11:13:59Z</time></trkpt><trkpt lat="50.997984195379985" lon="5.70508494376072"><ele>38.0</ele><time>2026-04-10T11:14:01Z</time></trkpt><trkpt lat="50.998035336976855" lon="5.705177968595738"><ele>38.0</ele><time>2026-04-10T11:14:03Z</time></trkpt><trkpt lat="50.99811370871062" lon="5.705213292983358"><ele>38.0</ele><time>2026-04-10T11:14:05Z</time></trkpt><trkpt lat="50.9981921767915" lon="5.705226108223762"><ele>38.0</ele><time>2026-04-10T11:14:07Z</time></trkpt><trkpt lat="50.99826475730265" lon="5.705236668674015"><ele>38.0</ele><time>2026-04-10T11:14:09Z</time></trkpt><trkpt lat="50.998330360737775" lon="5.70522275555095"><ele>38.0</ele><time>2026-04-10T11:14:11Z</time></trkpt><trkpt lat="50.99842786783738" lon="5.705217879068253"><ele>38.0</ele><time>2026-04-10T11:14:14Z</time></trkpt><trkpt lat="50.99849186928321" lon="5.7052172793741756"><ele>38.0</ele><time>2026-04-10T11:14:16Z</time></trkpt><trkpt lat="50.99857390393012" lon="5.705224926249233"><ele>38.0</ele><time>2026-04-10T11:14:18Z</time></trkpt><trkpt lat="50.99865207617848" lon="5.705222630447909"><ele>38.0</ele><time>2026-04-10T11:14:20Z</time></trkpt><trkpt lat="50.998725221676814" lon="5.705213002177151"><ele>38.0</ele><time>2026-04-10T11:14:22Z</time></trkpt><trkpt lat="50.998786724915924" lon="5.7052356501650925"><ele>38.0</ele><time>2026-04-10T11:14:24Z</time></trkpt><trkpt lat="50.998873334285015" lon="5.705243007067449"><ele>38.0</ele><time>2026-04-10T11:14:27Z</time></trkpt><trkpt lat="50.998912376029516" lon="5.705342184183971"><ele>38.0</ele><time>2026-04-10T11:14:30Z</time></trkpt><trkpt lat="50.99891536343998" lon="5.705470848611285"><ele>38.0</ele><time>2026-04-10T11:14:33Z</time></trkpt><trkpt lat="50.99882774369101" lon="5.705441528990477"><ele>38.0</ele><time>2026-04-10T11:14:36Z</time></trkpt><trkpt lat="50.99875777686231" lon="5.705457961052001"><ele>38.0</ele><time>2026-04-10T11:14:38Z</time></trkpt><trkpt lat="50.99868313915181" lon="5.705482280440034"><ele>38.0</ele><time>2026-04-10T11:14:40Z</time></trkpt><trkpt lat="50.99860665695186" lon="5.705502344603696"><ele>38.0</ele><time>2026-04-10T11:14:42Z</time></trkpt><trkpt lat="50.9985284327408" lon="5.70551462147075"><ele>38.0</ele><time>2026-04-10T11:14:44Z</time></trkpt><trkpt lat="50.99844578172687" lon="5.705526075478377"><ele>38.0</ele><time>2026-04-10T11:14:46Z</time></trkpt><trkpt lat="50.99836028715705" lon="5.70552217007896"><ele>38.0</ele><time>2026-04-10T11:14:48Z</time></trkpt><trkpt lat="50.99827643014484" lon="5.705515529274415"><ele>38.0</ele><time>2026-04-10T11:14:50Z</time></trkpt><trkpt lat="50.99818318179188" lon="5.705508144719224"><ele>38.0</ele><time>2026-04-10T11:14:52Z</time></trkpt><trkpt lat="50.99807922409473" lon="5.705499912095397"><ele>38.0</ele><time>2026-04-10T11:14:54Z</time></trkpt><trkpt lat="50.99796969331798" lon="5.705491215796803"><ele>38.0</ele><time>2026-04-10T11:14:56Z</time></trkpt><trkpt lat="50.99785266747099" lon="5.705481571836019"><ele>38.0</ele><time>2026-04-10T11:14:58Z</time></trkpt><trkpt lat="50.99772789604373" lon="5.705471289588147"><ele>38.0</ele><time>2026-04-10T11:15:00Z</time></trkpt><trkpt lat="50.99761335974606" lon="5.705461850779028"><ele>38.0</ele><time>2026-04-10T11:15:02Z</time></trkpt><trkpt lat="50.997529633051535" lon="5.7054549509386145"><ele>38.0</ele><time>2026-04-10T11:15:04Z</time></trkpt><trkpt lat="50.99747145701599" lon="5.705547670596217"><ele>38.0</ele><time>2026-04-10T11:15:07Z</time></trkpt><trkpt lat="50.997471824402" lon="5.705670091997984"><ele>38.0</ele><time>2026-04-10T11:15:09Z</time></trkpt><trkpt lat="50.99747059420313" lon="5.705808886762853"><ele>38.0</ele><time>2026-04-10T11:15:11Z</time></trkpt><trkpt lat="50.99746942732068" lon="5.705940538972369"><ele>38.0</ele><time>2026-04-10T11:15:13Z</time></trkpt><trkpt lat="50.997468264033884" lon="5.706071788759559"><ele>38.5</ele><time>2026-04-10T11:15:15Z</time></trkpt><trkpt lat="50.997467161690885" lon="5.706196156585777"><ele>39.0</ele><time>2026-04-10T11:15:17Z</time></trkpt><trkpt lat="50.9974660933996" lon="5.706311072437453"><ele>39.5</ele><time>2026-04-10T11:15:19Z</time></trkpt><trkpt lat="50.99746546274232" lon="5.706417888242347"><ele>40.0</ele><time>2026-04-10T11:15:21Z</time></trkpt><trkpt lat="50.99739458975177" lon="5.706511810188255"><ele>40.5</ele><time>2026-04-10T11:15:23Z</time></trkpt><trkpt lat="50.99739162647786" lon="5.706639308078214"><ele>41.0</ele><time>2026-04-10T11:15:26Z</time></trkpt><trkpt lat="50.99747710384032" lon="5.706776369888782"><ele>40.83333333333333</ele><time>2026-04-10T11:15:29Z</time></trkpt><trkpt lat="50.99750837275484" lon="5.706863250450282"><ele>40.666666666666664</ele><time>2026-04-10T11:15:31Z</time></trkpt><trkpt lat="50.99756245493574" lon="5.706932579108675"><ele>40.5</ele><time>2026-04-10T11:15:34Z</time></trkpt><trkpt lat="50.99763641244246" lon="5.706934232484449"><ele>40.333333333333336</ele><time>2026-04-10T11:16:24Z</time></trkpt><trkpt lat="50.99771957817013" lon="5.70694643803749"><ele>40.16666666666667</ele><time>2026-04-10T11:16:33Z</time></trkpt><trkpt lat="50.997859635348895" lon="5.70691131029964"><ele>40.0</ele><time>2026-04-10T11:16:52Z</time></trkpt><trkpt lat="50.997982127679165" lon="5.706790681421479"><ele>39.8</ele><time>2026-04-10T11:16:53Z</time></trkpt><trkpt lat="50.99784175369011" lon="5.706664627937766"><ele>39.6</ele><time>2026-04-10T11:17:01Z</time></trkpt><trkpt lat="50.997923966070104" lon="5.706662171351532"><ele>39.4</ele><time>2026-04-10T11:17:23Z</time></trkpt><trkpt lat="50.99786155781085" lon="5.706676274749765"><ele>39.2</ele><time>2026-04-10T11:18:34.999Z</time></trkpt><trkpt lat="50.99778671257445" lon="5.706672230866973"><ele>39.0</ele><time>2026-04-10T11:25:55Z</time></trkpt><trkpt lat="50.99770888621356" lon="5.706672274788355"><ele>39.0</ele><time>2026-04-10T11:26:02Z</time></trkpt><trkpt lat="50.99760905202166" lon="5.706678320028586"><ele>39.0</ele><time>2026-04-10T11:26:16Z</time></trkpt><trkpt lat="50.99769850518597" lon="5.706701578107445"><ele>39.0</ele><time>2026-04-10T11:26:22Z</time></trkpt><trkpt lat="50.99762867965618" lon="5.706693341364587"><ele>39.0</ele><time>2026-04-10T11:26:49Z</time></trkpt><trkpt lat="50.99774352518733" lon="5.706694806154436"><ele>39.0</ele><time>2026-04-10T11:27:28Z</time></trkpt><trkpt lat="50.99780956292805" lon="5.706663925578483"><ele>39.0</ele><time>2026-04-10T11:27:43Z</time></trkpt><trkpt lat="50.99774429478648" lon="5.706679495573125"><ele>39.0</ele><time>2026-04-10T11:28:38Z</time></trkpt><trkpt lat="50.997887901116" lon="5.706682907056546"><ele>39.0</ele><time>2026-04-10T11:29:36.028Z</time></trkpt><trkpt lat="50.997985625103816" lon="5.706620177738308"><ele>39.0</ele><time>2026-04-10T11:29:53.028Z</time></trkpt><trkpt lat="50.99804811811852" lon="5.706639740595017"><ele>39.0</ele><time>2026-04-10T11:30:07.017Z</time></trkpt><trkpt lat="50.99791305933508" lon="5.706699764690151"><ele>39.0</ele><time>2026-04-10T11:30:29.01Z</time></trkpt><trkpt lat="50.99783289063482" lon="5.706703907473336"><ele>39.0</ele><time>2026-04-10T11:30:57.322Z</time></trkpt><trkpt lat="50.99794148364707" lon="5.7064913101178085"><ele>39.0</ele><time>2026-04-10T11:35:41.462Z</time></trkpt><trkpt lat="50.99781060094247" lon="5.706691787759818"><ele>39.0</ele><time>2026-04-10T11:35:44.538Z</time></trkpt><trkpt lat="50.997805094956526" lon="5.706795210712725"><ele>39.0</ele><time>2026-04-10T12:19:44.006Z</time></trkpt><trkpt lat="50.99783331574551" lon="5.706693264899873"><ele>39.0</ele><time>2026-04-10T12:19:53.035Z</time></trkpt><trkpt lat="50.99788627559663" lon="5.706758570321979"><ele>39.0</ele><time>2026-04-10T12:20:06.024Z</time></trkpt><trkpt lat="50.997919206829685" lon="5.70690980924353"><ele>39.0</ele><time>2026-04-10T12:20:32.018Z</time></trkpt><trkpt lat="50.997859133526156" lon="5.706751305212512"><ele>39.0</ele><time>2026-04-10T12:21:42.014Z</time></trkpt><trkpt lat="50.997762792437854" lon="5.7067746209098935"><ele>39.0</ele><time>2026-04-10T12:28:58.012Z</time></trkpt><trkpt lat="50.99759289340008" lon="5.706974764757953"><ele>39.0</ele><time>2026-04-10T12:34:27.995Z</time></trkpt><trkpt lat="50.997531117290954" lon="5.706946197523772"><ele>39.0</ele><time>2026-04-10T12:36:35Z</time></trkpt><trkpt lat="50.99751636167977" lon="5.706834983896002"><ele>39.0</ele><time>2026-04-10T12:36:43Z</time></trkpt><trkpt lat="50.9974935814182" lon="5.706736392931648"><ele>39.0</ele><time>2026-04-10T12:38:16.999Z</time></trkpt><trkpt lat="50.99746355540966" lon="5.706643515963541"><ele>38.85714285714286</ele><time>2026-04-10T12:38:57.999Z</time></trkpt><trkpt lat="50.997455809620995" lon="5.706527388716685"><ele>38.71428571428571</ele><time>2026-04-10T12:39:01.999Z</time></trkpt><trkpt lat="50.99746472495522" lon="5.706418883202887"><ele>38.57142857142857</ele><time>2026-04-10T12:39:05Z</time></trkpt><trkpt lat="50.997481228271724" lon="5.706289828614835"><ele>38.42857142857143</ele><time>2026-04-10T12:39:09Z</time></trkpt><trkpt lat="50.99747757865299" lon="5.706180246925804"><ele>38.28571428571429</ele><time>2026-04-10T12:39:13Z</time></trkpt><trkpt lat="50.997463988401925" lon="5.706067239981665"><ele>38.14285714285714</ele><time>2026-04-10T12:43:09Z</time></trkpt><trkpt lat="50.99747197754298" lon="5.70596663036531"><ele>38.0</ele><time>2026-04-10T12:43:12Z</time></trkpt><trkpt lat="50.99747374714096" lon="5.705850125744683"><ele>38.0</ele><time>2026-04-10T12:43:15Z</time></trkpt><trkpt lat="50.99747204554588" lon="5.705717931586248"><ele>38.0</ele><time>2026-04-10T12:43:18Z</time></trkpt><trkpt lat="50.99747759218045" lon="5.7055985017155395"><ele>38.0</ele><time>2026-04-10T12:43:21Z</time></trkpt><trkpt lat="50.9974794586246" lon="5.705481557056325"><ele>38.0</ele><time>2026-04-10T12:43:25Z</time></trkpt><trkpt lat="50.997536937103156" lon="5.705436989700272"><ele>38.0</ele><time>2026-04-10T12:43:28Z</time></trkpt><trkpt lat="50.99762427841267" lon="5.7054593278395975"><ele>38.0</ele><time>2026-04-10T12:43:31Z</time></trkpt><trkpt lat="50.99769420586482" lon="5.7054661202798735"><ele>38.0</ele><time>2026-04-10T12:43:33Z</time></trkpt><trkpt lat="50.99776877084451" lon="5.705483916590133"><ele>38.0</ele><time>2026-04-10T12:43:35Z</time></trkpt><trkpt lat="50.997853932675795" lon="5.705487674652028"><ele>38.0</ele><time>2026-04-10T12:43:37Z</time></trkpt><trkpt lat="50.997941887765734" lon="5.705495818439263"><ele>38.0</ele><time>2026-04-10T12:43:39Z</time></trkpt><trkpt lat="50.99803275610078" lon="5.7055056205048"><ele>38.0</ele><time>2026-04-10T12:43:41Z</time></trkpt><trkpt lat="50.99813103317188" lon="5.70551138722338"><ele>38.0</ele><time>2026-04-10T12:43:43Z</time></trkpt><trkpt lat="50.99822207770157" lon="5.705519692774065"><ele>38.0</ele><time>2026-04-10T12:43:45Z</time></trkpt><trkpt lat="50.99831333619584" lon="5.705526176109528"><ele>38.0</ele><time>2026-04-10T12:43:47Z</time></trkpt><trkpt lat="50.9984128209618" lon="5.705542467575831"><ele>38.0</ele><time>2026-04-10T12:43:49Z</time></trkpt><trkpt lat="50.998504235427646" lon="5.705540052706835"><ele>38.0</ele><time>2026-04-10T12:43:51Z</time></trkpt><trkpt lat="50.99857730115189" lon="5.705534514499197"><ele>38.0</ele><time>2026-04-10T12:43:53Z</time></trkpt><trkpt lat="50.99864114182148" lon="5.7055245273043935"><ele>38.0</ele><time>2026-04-10T12:43:55Z</time></trkpt><trkpt lat="50.99872926558224" lon="5.705517065119318"><ele>38.0</ele><time>2026-04-10T12:43:58Z</time></trkpt><trkpt lat="50.99879370716378" lon="5.70550565511395"><ele>38.0</ele><time>2026-04-10T12:44:00Z</time></trkpt><trkpt lat="50.99886050355408" lon="5.705506754608257"><ele>38.0</ele><time>2026-04-10T12:44:02Z</time></trkpt><trkpt lat="50.99893410482131" lon="5.705480328246845"><ele>38.0</ele><time>2026-04-10T12:44:06Z</time></trkpt><trkpt lat="50.998953611599354" lon="5.70536359199851"><ele>38.0</ele><time>2026-04-10T12:44:11Z</time></trkpt><trkpt lat="50.99892855235887" lon="5.705268613277841"><ele>38.0</ele><time>2026-04-10T12:44:14Z</time></trkpt><trkpt lat="50.99884585071429" lon="5.705236449224187"><ele>38.0</ele><time>2026-04-10T12:44:19Z</time></trkpt><trkpt lat="50.99874489979428" lon="5.705233487819759"><ele>38.0</ele><time>2026-04-10T12:44:22Z</time></trkpt><trkpt lat="50.998633320831075" lon="5.70523172444515"><ele>38.0</ele><time>2026-04-10T12:44:24Z</time></trkpt><trkpt lat="50.99853079848435" lon="5.70524235661848"><ele>38.0</ele><time>2026-04-10T12:44:26Z</time></trkpt><trkpt lat="50.99843003332775" lon="5.7052371633800325"><ele>38.0</ele><time>2026-04-10T12:44:28Z</time></trkpt><trkpt lat="50.99833225656849" lon="5.70523615486853"><ele>38.0</ele><time>2026-04-10T12:44:30Z</time></trkpt><trkpt lat="50.99823238454567" lon="5.705241182551099"><ele>38.0</ele><time>2026-04-10T12:44:32Z</time></trkpt><trkpt lat="50.99813503177293" lon="5.705234141780372"><ele>38.0</ele><time>2026-04-10T12:44:34Z</time></trkpt><trkpt lat="50.99805335940148" lon="5.705199538788865"><ele>38.0</ele><time>2026-04-10T12:44:36Z</time></trkpt><trkpt lat="50.99799954555926" lon="5.705104374749387"><ele>38.0</ele><time>2026-04-10T12:44:38Z</time></trkpt><trkpt lat="50.9979834776478" lon="5.704955267040957"><ele>38.0</ele><time>2026-04-10T12:44:40Z</time></trkpt><trkpt lat="50.997968568242385" lon="5.7048233238623025"><ele>38.0</ele><time>2026-04-10T12:44:42Z</time></trkpt><trkpt lat="50.997956763874086" lon="5.7046928727537844"><ele>38.0</ele><time>2026-04-10T12:44:44Z</time></trkpt><trkpt lat="50.99796000852461" lon="5.704567002101786"><ele>38.0</ele><time>2026-04-10T12:44:46Z</time></trkpt><trkpt lat="50.99796278224408" lon="5.7044383137380885"><ele>38.0</ele><time>2026-04-10T12:44:49Z</time></trkpt><trkpt lat="50.99802095656572" lon="5.704338205614423"><ele>38.0</ele><time>2026-04-10T12:44:52Z</time></trkpt><trkpt lat="50.99797873896274" lon="5.704220882890473"><ele>38.0</ele><time>2026-04-10T12:44:56Z</time></trkpt><trkpt lat="50.99792978872686" lon="5.7041429892423166"><ele>38.0</ele><time>2026-04-10T12:44:58Z</time></trkpt><trkpt lat="50.99788509435318" lon="5.704052362331577"><ele>38.0</ele><time>2026-04-10T12:45:00Z</time></trkpt><trkpt lat="50.99784306852708" lon="5.703956567174817"><ele>38.0</ele><time>2026-04-10T12:45:02Z</time></trkpt><trkpt lat="50.99779489197424" lon="5.7038507634128415"><ele>38.0</ele><time>2026-04-10T12:45:04Z</time></trkpt><trkpt lat="50.99773547313835" lon="5.70374047673035"><ele>38.0</ele><time>2026-04-10T12:45:06Z</time></trkpt><trkpt lat="50.99768247389704" lon="5.703612446085149"><ele>38.0</ele><time>2026-04-10T12:45:08Z</time></trkpt><trkpt lat="50.9976157222847" lon="5.703486007674755"><ele>38.0</ele><time>2026-04-10T12:45:10Z</time></trkpt><trkpt lat="50.997552950628965" lon="5.703344447521338"><ele>37.6</ele><time>2026-04-10T12:45:12Z</time></trkpt><trkpt lat="50.99749158030353" lon="5.703204182459351"><ele>37.199999999999996</ele><time>2026-04-10T12:45:14Z</time></trkpt><trkpt lat="50.99743280783618" lon="5.703073953552085"><ele>36.8</ele><time>2026-04-10T12:45:16Z</time></trkpt><trkpt lat="50.997381861694315" lon="5.70297479972282"><ele>36.4</ele><time>2026-04-10T12:45:18Z</time></trkpt><trkpt lat="50.99732920581716" lon="5.702861180324235"><ele>36.0</ele><time>2026-04-10T12:45:20.999Z</time></trkpt><trkpt lat="50.99728343043199" lon="5.702760279154053"><ele>35.8</ele><time>2026-04-10T12:45:22.999Z</time></trkpt><trkpt lat="50.99723248494754" lon="5.70264409233052"><ele>35.6</ele><time>2026-04-10T12:45:24.999Z</time></trkpt><trkpt lat="50.99718033491084" lon="5.702528717142021"><ele>35.4</ele><time>2026-04-10T12:45:26.999Z</time></trkpt><trkpt lat="50.9971211245948" lon="5.702406887159195"><ele>35.2</ele><time>2026-04-10T12:45:28.999Z</time></trkpt><trkpt lat="50.99705671348761" lon="5.702273475336806"><ele>35.0</ele><time>2026-04-10T12:45:30.999Z</time></trkpt><trkpt lat="50.99700089389399" lon="5.702142464115139"><ele>35.0</ele><time>2026-04-10T12:45:32.999Z</time></trkpt><trkpt lat="50.99693980725406" lon="5.702012870587383"><ele>35.0</ele><time>2026-04-10T12:45:34.999Z</time></trkpt><trkpt lat="50.996888491878074" lon="5.701908917033157"><ele>35.0</ele><time>2026-04-10T12:45:36.999Z</time></trkpt><trkpt lat="50.99683336195215" lon="5.701793668969696"><ele>35.0</ele><time>2026-04-10T12:45:38.999Z</time></trkpt><trkpt lat="50.99678733164815" lon="5.701691058420436"><ele>35.0</ele><time>2026-04-10T12:45:40.999Z</time></trkpt><trkpt lat="50.99674308175857" lon="5.701600657743293"><ele>35.0</ele><time>2026-04-10T12:45:42.999Z</time></trkpt><trkpt lat="50.99670354060065" lon="5.701516735820562"><ele>35.0</ele><time>2026-04-10T12:45:45.999Z</time></trkpt><trkpt lat="50.99665823175554" lon="5.7014194908188705"><ele>35.0</ele><time>2026-04-10T12:45:49.999Z</time></trkpt><trkpt lat="50.996616677119185" lon="5.7013016524458635"><ele>35.0</ele><time>2026-04-10T12:45:52.999Z</time></trkpt><trkpt lat="50.996555527996634" lon="5.701218426108148"><ele>35.0</ele><time>2026-04-10T12:45:54.999Z</time></trkpt><trkpt lat="50.99650674891974" lon="5.70108953241484"><ele>35.0</ele><time>2026-04-10T12:45:56.999Z</time></trkpt><trkpt lat="50.99644569747565" lon="5.700972382074233"><ele>35.0</ele><time>2026-04-10T12:45:58.999Z</time></trkpt><trkpt lat="50.99638568105766" lon="5.7008487336314015"><ele>35.0</ele><time>2026-04-10T12:46:00.999Z</time></trkpt><trkpt lat="50.99632415517645" lon="5.700713794347944"><ele>35.0</ele><time>2026-04-10T12:46:02.999Z</time></trkpt><trkpt lat="50.996257410579986" lon="5.700570425827329"><ele>35.0</ele><time>2026-04-10T12:46:04.999Z</time></trkpt><trkpt lat="50.996193532333926" lon="5.700436241499907"><ele>35.0</ele><time>2026-04-10T12:46:06.999Z</time></trkpt><trkpt lat="50.9961386763825" lon="5.700306836421827"><ele>35.0</ele><time>2026-04-10T12:46:08.999Z</time></trkpt><trkpt lat="50.99608659975793" lon="5.700215351673515"><ele>35.0</ele><time>2026-04-10T12:46:10.999Z</time></trkpt><trkpt lat="50.99603367028405" lon="5.7001281408633755"><ele>35.0</ele><time>2026-04-10T12:46:12.999Z</time></trkpt><trkpt lat="50.99598349559487" lon="5.700005163539332"><ele>35.0</ele><time>2026-04-10T12:46:14.999Z</time></trkpt><trkpt lat="50.9959208871674" lon="5.699876009816984"><ele>35.0</ele><time>2026-04-10T12:46:16.999Z</time></trkpt><trkpt lat="50.995866063304376" lon="5.699733189481153"><ele>35.0</ele><time>2026-04-10T12:46:18.999Z</time></trkpt><trkpt lat="50.99579829604455" lon="5.699598959676157"><ele>35.0</ele><time>2026-04-10T12:46:20.999Z</time></trkpt><trkpt lat="50.99573265079458" lon="5.6994536993486555"><ele>35.0</ele><time>2026-04-10T12:46:22.999Z</time></trkpt><trkpt lat="50.995670234075256" lon="5.699312252586627"><ele>35.0</ele><time>2026-04-10T12:46:24.999Z</time></trkpt><trkpt lat="50.99560835700679" lon="5.699190276612159"><ele>35.0</ele><time>2026-04-10T12:46:26.999Z</time></trkpt><trkpt lat="50.995551267796415" lon="5.6990673484554035"><ele>35.0</ele><time>2026-04-10T12:46:28.999Z</time></trkpt><trkpt lat="50.995492882939686" lon="5.698944799058387"><ele>35.0</ele><time>2026-04-10T12:46:30.999Z</time></trkpt><trkpt lat="50.99543879171072" lon="5.698837996041486"><ele>35.0</ele><time>2026-04-10T12:46:32.999Z</time></trkpt><trkpt lat="50.99539693762746" lon="5.698743749319159"><ele>35.0</ele><time>2026-04-10T12:46:34.999Z</time></trkpt><trkpt lat="50.9953632622329" lon="5.698652742524629"><ele>35.0</ele><time>2026-04-10T12:46:36.999Z</time></trkpt><trkpt lat="50.99531705909125" lon="5.6985539860188075"><ele>35.0</ele><time>2026-04-10T12:46:39.999Z</time></trkpt><trkpt lat="50.995276627058644" lon="5.698467648924921"><ele>35.0</ele><time>2026-04-10T12:46:42.999Z</time></trkpt><trkpt lat="50.995222413592344" lon="5.698362855013835"><ele>35.2</ele><time>2026-04-10T12:46:45.999Z</time></trkpt><trkpt lat="50.99516944175351" lon="5.698257193228628"><ele>35.4</ele><time>2026-04-10T12:46:47.999Z</time></trkpt><trkpt lat="50.99511078206578" lon="5.698124938728953"><ele>35.6</ele><time>2026-04-10T12:46:49.999Z</time></trkpt><trkpt lat="50.99504894674685" lon="5.697994027499558"><ele>35.8</ele><time>2026-04-10T12:46:51.999Z</time></trkpt><trkpt lat="50.99499440820803" lon="5.69786474385325"><ele>36.0</ele><time>2026-04-10T12:46:53.999Z</time></trkpt><trkpt lat="50.99492891320407" lon="5.697736112126202"><ele>36.2</ele><time>2026-04-10T12:46:55.999Z</time></trkpt><trkpt lat="50.994858979554465" lon="5.697581405169408"><ele>36.400000000000006</ele><time>2026-04-10T12:46:57.999Z</time></trkpt><trkpt lat="50.994781197701755" lon="5.697413190753141"><ele>36.6</ele><time>2026-04-10T12:46:59.999Z</time></trkpt><trkpt lat="50.99474181170213" lon="5.697327277315267"><ele>36.800000000000004</ele><time>2026-04-10T12:47:00.999Z</time></trkpt><trkpt lat="50.99470147416225" lon="5.697246476244483"><ele>37.0</ele><time>2026-04-10T12:47:01.999Z</time></trkpt><trkpt lat="50.99463210397705" lon="5.697095877623271"><ele>37.0</ele><time>2026-04-10T12:47:03.999Z</time></trkpt><trkpt lat="50.99456555755918" lon="5.696956218884655"><ele>37.0</ele><time>2026-04-10T12:47:06Z</time></trkpt><trkpt lat="50.99451563335262" lon="5.696846048388031"><ele>37.0</ele><time>2026-04-10T12:47:08Z</time></trkpt><trkpt lat="50.994475428023385" lon="5.696758628055403"><ele>37.0</ele><time>2026-04-10T12:47:10Z</time></trkpt><trkpt lat="50.994446776153524" lon="5.696665709138175"><ele>37.0</ele><time>2026-04-10T12:47:13Z</time></trkpt><trkpt lat="50.9943843936257" lon="5.696583448529472"><ele>37.0</ele><time>2026-04-10T12:47:19Z</time></trkpt><trkpt lat="50.99433977330928" lon="5.696490193557039"><ele>37.0</ele><time>2026-04-10T12:47:21Z</time></trkpt><trkpt lat="50.994185369189466" lon="5.696493774078058"><ele>37.0</ele><time>2026-04-10T12:47:22Z</time></trkpt><trkpt lat="50.99409034269997" lon="5.696520513122025"><ele>37.0</ele><time>2026-04-10T12:47:24Z</time></trkpt><trkpt lat="50.99397213621281" lon="5.69656041066914"><ele>37.0</ele><time>2026-04-10T12:47:26Z</time></trkpt><trkpt lat="50.993904582689716" lon="5.696583161919178"><ele>37.0</ele><time>2026-04-10T12:47:27Z</time></trkpt><trkpt lat="50.99383816624607" lon="5.696605509820647"><ele>37.285714285714285</ele><time>2026-04-10T12:47:28Z</time></trkpt><trkpt lat="50.99377018141215" lon="5.69662838544677"><ele>37.57142857142857</ele><time>2026-04-10T12:47:29Z</time></trkpt><trkpt lat="50.99370151790628" lon="5.696651489436761"><ele>37.85714285714286</ele><time>2026-04-10T12:47:30Z</time></trkpt><trkpt lat="50.99362822274729" lon="5.696676151894255"><ele>38.14285714285714</ele><time>2026-04-10T12:47:31Z</time></trkpt><trkpt lat="50.993555638072" lon="5.696700957364578"><ele>38.42857142857142</ele><time>2026-04-10T12:47:32Z</time></trkpt><trkpt lat="50.99348142333908" lon="5.696727022564293"><ele>38.714285714285715</ele><time>2026-04-10T12:47:33Z</time></trkpt><trkpt lat="50.99340554560442" lon="5.696753671832807"><ele>39.0</ele><time>2026-04-10T12:47:34Z</time></trkpt><trkpt lat="50.993328930883905" lon="5.696780579940437"><ele>39.142857142857146</ele><time>2026-04-10T12:47:35Z</time></trkpt><trkpt lat="50.99324969782012" lon="5.696808516346872"><ele>39.285714285714285</ele><time>2026-04-10T12:47:36Z</time></trkpt><trkpt lat="50.99317751948224" lon="5.696834288720547"><ele>39.42857142857143</ele><time>2026-04-10T12:47:37Z</time></trkpt><trkpt lat="50.993106169667676" lon="5.696859765256756"><ele>39.57142857142857</ele><time>2026-04-10T12:47:38Z</time></trkpt><trkpt lat="50.99304004887662" lon="5.696882926652275"><ele>39.714285714285715</ele><time>2026-04-10T12:47:39Z</time></trkpt><trkpt lat="50.992973699509214" lon="5.696906429907471"><ele>39.857142857142854</ele><time>2026-04-10T12:47:40Z</time></trkpt><trkpt lat="50.99291137860699" lon="5.6969282047987875"><ele>40.0</ele><time>2026-04-10T12:47:41Z</time></trkpt><trkpt lat="50.99284724696867" lon="5.696950612433333"><ele>40.0</ele><time>2026-04-10T12:47:42Z</time></trkpt><trkpt lat="50.99278149167222" lon="5.696973587337652"><ele>40.0</ele><time>2026-04-10T12:47:43Z</time></trkpt><trkpt lat="50.992715644621384" lon="5.696996594301387"><ele>40.0</ele><time>2026-04-10T12:47:44Z</time></trkpt><trkpt lat="50.99265134367888" lon="5.697019061054902"><ele>40.0</ele><time>2026-04-10T12:47:45Z</time></trkpt><trkpt lat="50.99258463807575" lon="5.697042367997251"><ele>40.0</ele><time>2026-04-10T12:47:46Z</time></trkpt><trkpt lat="50.99251468567974" lon="5.697066809373932"><ele>40.0</ele><time>2026-04-10T12:47:47Z</time></trkpt><trkpt lat="50.99244198412562" lon="5.697092211304616"><ele>40.0</ele><time>2026-04-10T12:47:48Z</time></trkpt><trkpt lat="50.99237064804898" lon="5.697117136127007"><ele>39.857142857142854</ele><time>2026-04-10T12:47:49Z</time></trkpt><trkpt lat="50.99229702133765" lon="5.697142861303959"><ele>39.714285714285715</ele><time>2026-04-10T12:47:50Z</time></trkpt><trkpt lat="50.99222216538807" lon="5.697169015977934"><ele>39.57142857142857</ele><time>2026-04-10T12:47:51Z</time></trkpt><trkpt lat="50.99214596385357" lon="5.6971956407995"><ele>39.42857142857143</ele><time>2026-04-10T12:47:52Z</time></trkpt><trkpt lat="50.99207231621892" lon="5.697221373287954"><ele>39.285714285714285</ele><time>2026-04-10T12:47:53Z</time></trkpt><trkpt lat="50.99200001731505" lon="5.697246636046804"><ele>39.142857142857146</ele><time>2026-04-10T12:47:54Z</time></trkpt><trkpt lat="50.991931730430785" lon="5.697270512204099"><ele>39.0</ele><time>2026-04-10T12:47:55Z</time></trkpt><trkpt lat="50.99186946396946" lon="5.697292396797186"><ele>39.0</ele><time>2026-04-10T12:47:56Z</time></trkpt><trkpt lat="50.99180373667572" lon="5.697316123774115"><ele>39.0</ele><time>2026-04-10T12:47:57Z</time></trkpt><trkpt lat="50.99168022393531" lon="5.697359781450353"><ele>39.0</ele><time>2026-04-10T12:47:59Z</time></trkpt><trkpt lat="50.99161371292044" lon="5.6973832106429105"><ele>39.0</ele><time>2026-04-10T12:48:00Z</time></trkpt><trkpt lat="50.991541835737976" lon="5.697412683449559"><ele>39.0</ele><time>2026-04-10T12:48:01Z</time></trkpt><trkpt lat="50.99147283819733" lon="5.697437357912129"><ele>39.0</ele><time>2026-04-10T12:48:02Z</time></trkpt><trkpt lat="50.991399459047415" lon="5.697462882749093"><ele>39.333333333333336</ele><time>2026-04-10T12:48:03Z</time></trkpt><trkpt lat="50.99132494544014" lon="5.697488802205908"><ele>39.666666666666664</ele><time>2026-04-10T12:48:04Z</time></trkpt><trkpt lat="50.991255282824916" lon="5.697513034251298"><ele>40.0</ele><time>2026-04-10T12:48:05Z</time></trkpt><trkpt lat="50.99118823999118" lon="5.697536355008901"><ele>40.33333333333333</ele><time>2026-04-10T12:48:06Z</time></trkpt><trkpt lat="50.99112444249487" lon="5.697558782261825"><ele>40.666666666666664</ele><time>2026-04-10T12:48:07Z</time></trkpt><trkpt lat="50.99106222426542" lon="5.6975811669199805"><ele>41.0</ele><time>2026-04-10T12:48:08Z</time></trkpt><trkpt lat="50.99094448023457" lon="5.697624082588634"><ele>41.0</ele><time>2026-04-10T12:48:10Z</time></trkpt><trkpt lat="50.990836372582756" lon="5.6976635243227784"><ele>41.0</ele><time>2026-04-10T12:48:12Z</time></trkpt><trkpt lat="50.990729603753245" lon="5.697702477600886"><ele>41.0</ele><time>2026-04-10T12:48:14Z</time></trkpt><trkpt lat="50.99061774715314" lon="5.697743287091061"><ele>41.0</ele><time>2026-04-10T12:48:16Z</time></trkpt><trkpt lat="50.99051378456229" lon="5.697781216548055"><ele>41.0</ele><time>2026-04-10T12:48:18Z</time></trkpt><trkpt lat="50.990401101145224" lon="5.697822327690489"><ele>41.0</ele><time>2026-04-10T12:48:20Z</time></trkpt><trkpt lat="50.990292854896104" lon="5.6978617296493805"><ele>41.0</ele><time>2026-04-10T12:48:22Z</time></trkpt><trkpt lat="50.99019021345627" lon="5.697899069602523"><ele>41.0</ele><time>2026-04-10T12:48:24Z</time></trkpt><trkpt lat="50.990087599247296" lon="5.697935419657555"><ele>41.0</ele><time>2026-04-10T12:48:26Z</time></trkpt><trkpt lat="50.98998942664675" lon="5.697969417523979"><ele>41.0</ele><time>2026-04-10T12:48:28Z</time></trkpt><trkpt lat="50.98989731512593" lon="5.698001322621767"><ele>40.666666666666664</ele><time>2026-04-10T12:48:30Z</time></trkpt><trkpt lat="50.98980794669044" lon="5.698032306007429"><ele>40.33333333333333</ele><time>2026-04-10T12:48:32Z</time></trkpt><trkpt lat="50.98973306144263" lon="5.6980597608346075"><ele>40.0</ele><time>2026-04-10T12:48:34Z</time></trkpt><trkpt lat="50.98966986558925" lon="5.698082930034301"><ele>39.666666666666664</ele><time>2026-04-10T12:48:36Z</time></trkpt><trkpt lat="50.989604291116706" lon="5.6981065789417205"><ele>39.333333333333336</ele><time>2026-04-10T12:48:38Z</time></trkpt><trkpt lat="50.989513024105605" lon="5.698144801485431"><ele>39.0</ele><time>2026-04-10T12:48:42Z</time></trkpt><trkpt lat="50.98942548274859" lon="5.698156847670812"><ele>39.0</ele><time>2026-04-10T12:48:44Z</time></trkpt><trkpt lat="50.98934950570325" lon="5.698186655011646"><ele>39.0</ele><time>2026-04-10T12:48:46Z</time></trkpt><trkpt lat="50.98925950186493" lon="5.698221878336487"><ele>39.0</ele><time>2026-04-10T12:48:49Z</time></trkpt><trkpt lat="50.989190146731" lon="5.698248858843196"><ele>39.0</ele><time>2026-04-10T12:48:51Z</time></trkpt><trkpt lat="50.98911239826631" lon="5.698278636027071"><ele>39.0</ele><time>2026-04-10T12:48:53Z</time></trkpt><trkpt lat="50.98902286219289" lon="5.698312551264424"><ele>39.0</ele><time>2026-04-10T12:48:55Z</time></trkpt><trkpt lat="50.98892773675176" lon="5.6983478439898745"><ele>39.4</ele><time>2026-04-10T12:48:57Z</time></trkpt><trkpt lat="50.98883544878167" lon="5.698382301713624"><ele>39.8</ele><time>2026-04-10T12:48:59Z</time></trkpt><trkpt lat="50.98874412625607" lon="5.698417046207469"><ele>40.199999999999996</ele><time>2026-04-10T12:49:01Z</time></trkpt><trkpt lat="50.98865432840988" lon="5.698451210635421"><ele>40.599999999999994</ele><time>2026-04-10T12:49:03Z</time></trkpt><trkpt lat="50.988568935901654" lon="5.698484502469662"><ele>41.0</ele><time>2026-04-10T12:49:05Z</time></trkpt><trkpt lat="50.98848813853582" lon="5.698516128354021"><ele>41.0</ele><time>2026-04-10T12:49:07Z</time></trkpt><trkpt lat="50.98840656229636" lon="5.69854599344119"><ele>41.0</ele><time>2026-04-10T12:49:09Z</time></trkpt><trkpt lat="50.988319900848985" lon="5.698577343586592"><ele>41.0</ele><time>2026-04-10T12:49:11Z</time></trkpt><trkpt lat="50.98823118493032" lon="5.698608659993828"><ele>41.0</ele><time>2026-04-10T12:49:13Z</time></trkpt><trkpt lat="50.988139896124785" lon="5.698640884620402"><ele>41.0</ele><time>2026-04-10T12:49:15Z</time></trkpt><trkpt lat="50.98804656692334" lon="5.698673829499501"><ele>41.0</ele><time>2026-04-10T12:49:17Z</time></trkpt><trkpt lat="50.987950139956126" lon="5.698707867879613"><ele>41.0</ele><time>2026-04-10T12:49:19Z</time></trkpt><trkpt lat="50.98785293277658" lon="5.698739411639181"><ele>41.0</ele><time>2026-04-10T12:49:21Z</time></trkpt><trkpt lat="50.98775558921656" lon="5.698770497842638"><ele>41.0</ele><time>2026-04-10T12:49:23Z</time></trkpt><trkpt lat="50.987650573685784" lon="5.698804034053606"><ele>41.0</ele><time>2026-04-10T12:49:25Z</time></trkpt><trkpt lat="50.98754496668641" lon="5.698837268693713"><ele>41.4</ele><time>2026-04-10T12:49:27Z</time></trkpt><trkpt lat="50.98743606879748" lon="5.698871064592006"><ele>41.8</ele><time>2026-04-10T12:49:29Z</time></trkpt><trkpt lat="50.98732613611798" lon="5.698905659891389"><ele>42.199999999999996</ele><time>2026-04-10T12:49:31Z</time></trkpt><trkpt lat="50.98721448426688" lon="5.698941527856906"><ele>42.599999999999994</ele><time>2026-04-10T12:49:33Z</time></trkpt><trkpt lat="50.98710962714717" lon="5.698977217158124"><ele>43.0</ele><time>2026-04-10T12:49:35Z</time></trkpt><trkpt lat="50.98700523247359" lon="5.6990123625806355"><ele>43.0</ele><time>2026-04-10T12:49:37Z</time></trkpt><trkpt lat="50.986900077077564" lon="5.699047764108381"><ele>43.0</ele><time>2026-04-10T12:49:39Z</time></trkpt><trkpt lat="50.986797508502654" lon="5.699082295165242"><ele>43.0</ele><time>2026-04-10T12:49:41Z</time></trkpt><trkpt lat="50.98670341766163" lon="5.699115851288938"><ele>43.0</ele><time>2026-04-10T12:49:43Z</time></trkpt><trkpt lat="50.986617806296806" lon="5.699145904047971"><ele>43.0</ele><time>2026-04-10T12:49:45Z</time></trkpt><trkpt lat="50.98653237461521" lon="5.699175893729125"><ele>42.8</ele><time>2026-04-10T12:49:47Z</time></trkpt><trkpt lat="50.98644081571387" lon="5.699208034294901"><ele>42.599999999999994</ele><time>2026-04-10T12:49:49Z</time></trkpt><trkpt lat="50.986350107839655" lon="5.699239876116371"><ele>42.400000000000006</ele><time>2026-04-10T12:49:51Z</time></trkpt><trkpt lat="50.98625596076125" lon="5.699272911329217"><ele>42.2</ele><time>2026-04-10T12:49:53Z</time></trkpt><trkpt lat="50.98616221476043" lon="5.699306163627039"><ele>42.0</ele><time>2026-04-10T12:49:55Z</time></trkpt><trkpt lat="50.98606794259979" lon="5.699338060905241"><ele>42.0</ele><time>2026-04-10T12:49:57Z</time></trkpt><trkpt lat="50.985968318232906" lon="5.699368709675658"><ele>42.0</ele><time>2026-04-10T12:49:59Z</time></trkpt><trkpt lat="50.98586980736135" lon="5.699401956252044"><ele>42.0</ele><time>2026-04-10T12:50:01Z</time></trkpt><trkpt lat="50.985779155120376" lon="5.699433822805648"><ele>42.0</ele><time>2026-04-10T12:50:03Z</time></trkpt><trkpt lat="50.98568070905937" lon="5.699468429083804"><ele>42.0</ele><time>2026-04-10T12:50:05Z</time></trkpt><trkpt lat="50.98557018885443" lon="5.6995072797273165"><ele>41.75</ele><time>2026-04-10T12:50:07Z</time></trkpt><trkpt lat="50.98545446146688" lon="5.6995474398640935"><ele>41.5</ele><time>2026-04-10T12:50:09Z</time></trkpt><trkpt lat="50.98533512874978" lon="5.699588772371751"><ele>41.25</ele><time>2026-04-10T12:50:11Z</time></trkpt><trkpt lat="50.98522047557014" lon="5.6996285724109"><ele>41.0</ele><time>2026-04-10T12:50:13Z</time></trkpt><trkpt lat="50.98511095602771" lon="5.699665339686819"><ele>41.25</ele><time>2026-04-10T12:50:15Z</time></trkpt><trkpt lat="50.98499641125431" lon="5.699714605814778"><ele>41.5</ele><time>2026-04-10T12:50:17Z</time></trkpt><trkpt lat="50.98489925918301" lon="5.69978689730836"><ele>41.75</ele><time>2026-04-10T12:50:19Z</time></trkpt><trkpt lat="50.9848227832255" lon="5.699859494406683"><ele>42.0</ele><time>2026-04-10T12:50:21Z</time></trkpt><trkpt lat="50.98462575493213" lon="5.699985324090828"><ele>42.0</ele><time>2026-04-10T12:50:23Z</time></trkpt><trkpt lat="50.984811400136316" lon="5.700283711362191"><ele>42.0</ele><time>2026-04-10T12:50:26Z</time></trkpt><trkpt lat="50.984747805830295" lon="5.700297007427692"><ele>42.0</ele><time>2026-04-10T12:50:28Z</time></trkpt><trkpt lat="50.98469698883876" lon="5.700446929298895"><ele>42.0</ele><time>2026-04-10T12:50:30Z</time></trkpt><trkpt lat="50.98460900756284" lon="5.700345179793294"><ele>42.0</ele><time>2026-04-10T12:50:32Z</time></trkpt><trkpt lat="50.98454316937495" lon="5.700250322217471"><ele>42.0</ele><time>2026-04-10T12:50:36Z</time></trkpt><trkpt lat="50.98447302023358" lon="5.700149255796013"><ele>42.0</ele><time>2026-04-10T12:50:39Z</time></trkpt><trkpt lat="50.98438086663444" lon="5.700103649111111"><ele>42.0</ele><time>2026-04-10T12:50:42Z</time></trkpt><trkpt lat="50.984288914986166" lon="5.7001392808032225"><ele>42.0</ele><time>2026-04-10T12:50:44Z</time></trkpt><trkpt lat="50.984222972877404" lon="5.699980930768911"><ele>42.2</ele><time>2026-04-10T12:50:45Z</time></trkpt><trkpt lat="50.9841310003531" lon="5.700009672462905"><ele>42.400000000000006</ele><time>2026-04-10T12:50:47Z</time></trkpt><trkpt lat="50.984042469237984" lon="5.700040161009742"><ele>42.599999999999994</ele><time>2026-04-10T12:50:49Z</time></trkpt><trkpt lat="50.9839559481113" lon="5.700069960467695"><ele>42.8</ele><time>2026-04-10T12:50:51Z</time></trkpt><trkpt lat="50.98386618016215" lon="5.700101095315163"><ele>43.0</ele><time>2026-04-10T12:50:53Z</time></trkpt><trkpt lat="50.98377570003156" lon="5.700132477175137"><ele>43.0</ele><time>2026-04-10T12:50:55Z</time></trkpt><trkpt lat="50.983679672428664" lon="5.7001657833496076"><ele>43.0</ele><time>2026-04-10T12:50:57Z</time></trkpt><trkpt lat="50.983580706096475" lon="5.700200145799428"><ele>43.0</ele><time>2026-04-10T12:50:59Z</time></trkpt><trkpt lat="50.983473338398866" lon="5.700237251072882"><ele>43.0</ele><time>2026-04-10T12:51:01Z</time></trkpt><trkpt lat="50.983366380937085" lon="5.700274336591965"><ele>43.0</ele><time>2026-04-10T12:51:03Z</time></trkpt><trkpt lat="50.9832661360369" lon="5.700309076418066"><ele>42.599999999999994</ele><time>2026-04-10T12:51:05Z</time></trkpt><trkpt lat="50.983172636969186" lon="5.700341478478574"><ele>42.199999999999996</ele><time>2026-04-10T12:51:07Z</time></trkpt><trkpt lat="50.983084275500715" lon="5.700372100243419"><ele>41.8</ele><time>2026-04-10T12:51:09Z</time></trkpt><trkpt lat="50.982985316298866" lon="5.700407434547463"><ele>41.4</ele><time>2026-04-10T12:51:11Z</time></trkpt><trkpt lat="50.982876761610484" lon="5.70044853184815"><ele>41.0</ele><time>2026-04-10T12:51:13Z</time></trkpt><trkpt lat="50.98276706729909" lon="5.700490788578723"><ele>41.0</ele><time>2026-04-10T12:51:15Z</time></trkpt><trkpt lat="50.982656115292215" lon="5.700533529789592"><ele>41.0</ele><time>2026-04-10T12:51:17Z</time></trkpt><trkpt lat="50.982586258320964" lon="5.7005604402849075"><ele>41.0</ele><time>2026-04-10T12:51:19Z</time></trkpt><trkpt lat="50.98248797865487" lon="5.700594158250724"><ele>41.0</ele><time>2026-04-10T12:51:23Z</time></trkpt><trkpt lat="50.98240672647464" lon="5.700622720248111"><ele>41.0</ele><time>2026-04-10T12:51:25Z</time></trkpt><trkpt lat="50.98231856020516" lon="5.7006537127118655"><ele>40.83333333333333</ele><time>2026-04-10T12:51:27Z</time></trkpt><trkpt lat="50.982229000820894" lon="5.7006859542077555"><ele>40.666666666666664</ele><time>2026-04-10T12:51:29Z</time></trkpt><trkpt lat="50.98214523645947" lon="5.700716881559864"><ele>40.5</ele><time>2026-04-10T12:51:31Z</time></trkpt><trkpt lat="50.98206715150765" lon="5.700745711968307"><ele>40.333333333333336</ele><time>2026-04-10T12:51:33Z</time></trkpt><trkpt lat="50.9819893647828" lon="5.700775705237035"><ele>40.16666666666667</ele><time>2026-04-10T12:51:35Z</time></trkpt><trkpt lat="50.98190265665113" lon="5.700812484442827"><ele>40.0</ele><time>2026-04-10T12:51:37Z</time></trkpt><trkpt lat="50.98181462780437" lon="5.700855480440515"><ele>40.0</ele><time>2026-04-10T12:51:39Z</time></trkpt><trkpt lat="50.98173190131748" lon="5.700894391363766"><ele>40.0</ele><time>2026-04-10T12:51:41Z</time></trkpt><trkpt lat="50.981643775641174" lon="5.700925668848578"><ele>40.0</ele><time>2026-04-10T12:51:43Z</time></trkpt><trkpt lat="50.98156704859886" lon="5.700952679293045"><ele>40.0</ele><time>2026-04-10T12:51:45Z</time></trkpt><trkpt lat="50.981504165450005" lon="5.700974816385809"><ele>40.0</ele><time>2026-04-10T12:51:47Z</time></trkpt><trkpt lat="50.98143294401089" lon="5.700999646909668"><ele>40.0</ele><time>2026-04-10T12:51:49Z</time></trkpt><trkpt lat="50.98135305884957" lon="5.701023641753"><ele>40.2</ele><time>2026-04-10T12:51:51Z</time></trkpt><trkpt lat="50.98126602231687" lon="5.701044848872418"><ele>40.4</ele><time>2026-04-10T12:51:53Z</time></trkpt><trkpt lat="50.98117370624136" lon="5.70106733273369"><ele>40.599999999999994</ele><time>2026-04-10T12:51:55Z</time></trkpt><trkpt lat="50.98106918365956" lon="5.7010975936195205"><ele>40.8</ele><time>2026-04-10T12:51:57Z</time></trkpt><trkpt lat="50.98096570749468" lon="5.701131610202513"><ele>41.0</ele><time>2026-04-10T12:51:59Z</time></trkpt><trkpt lat="50.980860596615635" lon="5.701167487301336"><ele>41.199999999999996</ele><time>2026-04-10T12:52:01Z</time></trkpt><trkpt lat="50.980756385223124" lon="5.701203057383492"><ele>41.4</ele><time>2026-04-10T12:52:03Z</time></trkpt><trkpt lat="50.98065766388302" lon="5.701236753566428"><ele>41.6</ele><time>2026-04-10T12:52:05Z</time></trkpt><trkpt lat="50.98056029687769" lon="5.701270251930285"><ele>41.8</ele><time>2026-04-10T12:52:07Z</time></trkpt><trkpt lat="50.98046584873377" lon="5.701302837953571"><ele>42.0</ele><time>2026-04-10T12:52:09Z</time></trkpt><trkpt lat="50.980381778063645" lon="5.70132750615887"><ele>42.0</ele><time>2026-04-10T12:52:11Z</time></trkpt><trkpt lat="50.98030637410075" lon="5.701351390014224"><ele>42.0</ele><time>2026-04-10T12:52:13Z</time></trkpt><trkpt lat="50.98022007520154" lon="5.701382644420056"><ele>42.0</ele><time>2026-04-10T12:52:16Z</time></trkpt><trkpt lat="50.98015452366357" lon="5.701413536767677"><ele>42.0</ele><time>2026-04-10T12:52:21Z</time></trkpt><trkpt lat="50.98007418556785" lon="5.70136721252288"><ele>42.0</ele><time>2026-04-10T12:52:26Z</time></trkpt><trkpt lat="50.9800242209702" lon="5.70124730178107"><ele>42.0</ele><time>2026-04-10T12:52:28Z</time></trkpt><trkpt lat="50.979995333103965" lon="5.70109988121333"><ele>41.8</ele><time>2026-04-10T12:52:30Z</time></trkpt><trkpt lat="50.97998891592302" lon="5.7009224197039226"><ele>41.6</ele><time>2026-04-10T12:52:32Z</time></trkpt><trkpt lat="50.980027668899865" lon="5.700743221040109"><ele>41.4</ele><time>2026-04-10T12:52:34Z</time></trkpt><trkpt lat="50.98004632965591" lon="5.700647126708812"><ele>41.199999999999996</ele><time>2026-04-10T12:52:35Z</time></trkpt><trkpt lat="50.98010064417338" lon="5.700471569236096"><ele>41.0</ele><time>2026-04-10T12:52:37Z</time></trkpt><trkpt lat="50.980139228371264" lon="5.700301013962773"><ele>41.0</ele><time>2026-04-10T12:52:39Z</time></trkpt><trkpt lat="50.980173094695935" lon="5.7001421259922935"><ele>41.0</ele><time>2026-04-10T12:52:41Z</time></trkpt><trkpt lat="50.9802017272392" lon="5.700003641268048"><ele>41.0</ele><time>2026-04-10T12:52:43Z</time></trkpt><trkpt lat="50.98022242496974" lon="5.699903534212871"><ele>41.0</ele><time>2026-04-10T12:52:45Z</time></trkpt><trkpt lat="50.98010983815933" lon="5.699781000448784"><ele>41.0</ele><time>2026-04-10T12:52:46Z</time></trkpt><trkpt lat="50.97999775571521" lon="5.699746103239296"><ele>41.199999999999996</ele><time>2026-04-10T12:52:48Z</time></trkpt><trkpt lat="50.979890523410965" lon="5.69971048560569"><ele>41.4</ele><time>2026-04-10T12:52:50Z</time></trkpt><trkpt lat="50.97979256094864" lon="5.699677947068979"><ele>41.6</ele><time>2026-04-10T12:52:52Z</time></trkpt><trkpt lat="50.97970932895485" lon="5.699653188769174"><ele>41.8</ele><time>2026-04-10T12:52:54Z</time></trkpt><trkpt lat="50.97970977987519" lon="5.699506841721777"><ele>42.0</ele><time>2026-04-10T12:52:56Z</time></trkpt><trkpt lat="50.97973024831153" lon="5.699344559251546"><ele>42.166666666666664</ele><time>2026-04-10T12:52:58Z</time></trkpt><trkpt lat="50.97976694735534" lon="5.699244688052291"><ele>42.333333333333336</ele><time>2026-04-10T12:53:00Z</time></trkpt><trkpt lat="50.97971828207825" lon="5.699127106386941"><ele>42.5</ele><time>2026-04-10T12:53:06Z</time></trkpt><trkpt lat="50.97967915519231" lon="5.699043109769082"><ele>42.66666666666667</ele><time>2026-04-10T13:15:34Z</time></trkpt><trkpt lat="50.97968862681252" lon="5.699151239806641"><ele>42.833333333333336</ele><time>2026-04-10T13:16:15Z</time></trkpt><trkpt lat="50.97973192542237" lon="5.699229946972675"><ele>43.0</ele><time>2026-04-10T13:30:45Z</time></trkpt><trkpt lat="50.979630534449036" lon="5.699253546294143"><ele>43.0</ele><time>2026-04-10T14:04:59.999Z</time></trkpt><trkpt lat="50.97973530423045" lon="5.6992104709753075"><ele>43.0</ele><time>2026-04-10T14:06:45.999Z</time></trkpt><trkpt lat="50.97984639086317" lon="5.6991870233135815"><ele>43.0</ele><time>2026-04-10T14:08:23.999Z</time></trkpt><trkpt lat="50.97978962575231" lon="5.699231458796275"><ele>43.0</ele><time>2026-04-10T14:15:08Z</time></trkpt><trkpt lat="50.979710250162064" lon="5.699268414600196"><ele>43.0</ele><time>2026-04-10T14:16:04Z</time></trkpt><trkpt lat="50.97967732630086" lon="5.699180860025399"><ele>43.0</ele><time>2026-04-10T14:17:05Z</time></trkpt><trkpt lat="50.92874270959729" lon="5.688021742531903"><ele>42.5</ele><time>2026-04-10T16:08:57Z</time></trkpt><trkpt lat="50.92885808358416" lon="5.688055209984348"><ele>42.0</ele><time>2026-04-10T16:08:59Z</time></trkpt><trkpt lat="50.92897813751945" lon="5.6880506411047"><ele>41.5</ele><time>2026-04-10T16:09:01Z</time></trkpt><trkpt lat="50.92909861556028" lon="5.6881121727493"><ele>41.0</ele><time>2026-04-10T16:09:03Z</time></trkpt><trkpt lat="50.92934954599726" lon="5.688253786128215"><ele>41.0</ele><time>2026-04-10T16:09:07Z</time></trkpt><trkpt lat="50.929483382378436" lon="5.688308911859445"><ele>41.0</ele><time>2026-04-10T16:09:09Z</time></trkpt><trkpt lat="50.929615880184954" lon="5.6883579415236145"><ele>41.0</ele><time>2026-04-10T16:09:11Z</time></trkpt><trkpt lat="50.929747570583615" lon="5.688413522825356"><ele>41.0</ele><time>2026-04-10T16:09:13Z</time></trkpt><trkpt lat="50.929879021374404" lon="5.688462455046139"><ele>41.0</ele><time>2026-04-10T16:09:15Z</time></trkpt><trkpt lat="50.93001111094358" lon="5.688510242161445"><ele>41.0</ele><time>2026-04-10T16:09:17Z</time></trkpt><trkpt lat="50.930140695239324" lon="5.688557757565458"><ele>41.0</ele><time>2026-04-10T16:09:19Z</time></trkpt><trkpt lat="50.93027214996988" lon="5.688594689110482"><ele>41.0</ele><time>2026-04-10T16:09:21Z</time></trkpt><trkpt lat="50.93039378477196" lon="5.68863556602988"><ele>41.25</ele><time>2026-04-10T16:09:23Z</time></trkpt><trkpt lat="50.93051194494391" lon="5.688675804926214"><ele>41.5</ele><time>2026-04-10T16:09:25Z</time></trkpt><trkpt lat="50.93071851628043" lon="5.688759565878846"><ele>41.75</ele><time>2026-04-10T16:09:29Z</time></trkpt><trkpt lat="50.930827624425476" lon="5.688787838928396"><ele>42.0</ele><time>2026-04-10T16:09:31Z</time></trkpt><trkpt lat="50.93093351566254" lon="5.688813976777615"><ele>41.5</ele><time>2026-04-10T16:09:33Z</time></trkpt><trkpt lat="50.931045801603055" lon="5.688861103700508"><ele>41.0</ele><time>2026-04-10T16:09:35Z</time></trkpt><trkpt lat="50.93115714477179" lon="5.68890583774004"><ele>40.5</ele><time>2026-04-10T16:09:37Z</time></trkpt><trkpt lat="50.931270618734516" lon="5.688950635602926"><ele>40.0</ele><time>2026-04-10T16:09:39Z</time></trkpt><trkpt lat="50.931382485353126" lon="5.68898540278256"><ele>40.0</ele><time>2026-04-10T16:09:41Z</time></trkpt><trkpt lat="50.931487462855785" lon="5.689033736472337"><ele>40.0</ele><time>2026-04-10T16:09:43Z</time></trkpt><trkpt lat="50.93159437724973" lon="5.689080466867306"><ele>40.0</ele><time>2026-04-10T16:09:45Z</time></trkpt><trkpt lat="50.9317047929888" lon="5.6891171798135565"><ele>40.0</ele><time>2026-04-10T16:09:47Z</time></trkpt><trkpt lat="50.93193126234307" lon="5.689196556954468"><ele>40.0</ele><time>2026-04-10T16:09:51Z</time></trkpt><trkpt lat="50.9320412497831" lon="5.689241840906557"><ele>40.0</ele><time>2026-04-10T16:09:53Z</time></trkpt><trkpt lat="50.93215228159492" lon="5.68928400112591"><ele>40.0</ele><time>2026-04-10T16:09:55Z</time></trkpt><trkpt lat="50.932262904512" lon="5.689325597539857"><ele>40.0</ele><time>2026-04-10T16:09:57Z</time></trkpt><trkpt lat="50.9323735349591" lon="5.689367557205326"><ele>40.0</ele><time>2026-04-10T16:09:59Z</time></trkpt><trkpt lat="50.93248495339205" lon="5.689413421147392"><ele>40.0</ele><time>2026-04-10T16:10:01Z</time></trkpt><trkpt lat="50.932599879378245" lon="5.689457301389177"><ele>40.0</ele><time>2026-04-10T16:10:03Z</time></trkpt><trkpt lat="50.93271714054666" lon="5.689499298097949"><ele>40.0</ele><time>2026-04-10T16:10:05Z</time></trkpt><trkpt lat="50.932833815830925" lon="5.689547129302199"><ele>40.0</ele><time>2026-04-10T16:10:07Z</time></trkpt><trkpt lat="50.932950368837055" lon="5.689587159381292"><ele>40.0</ele><time>2026-04-10T16:10:09Z</time></trkpt><trkpt lat="50.93318145363683" lon="5.6896753235736535"><ele>40.0</ele><time>2026-04-10T16:10:13Z</time></trkpt><trkpt lat="50.93329804940725" lon="5.689717248805225"><ele>39.75</ele><time>2026-04-10T16:10:15Z</time></trkpt><trkpt lat="50.93341255021823" lon="5.689761867911194"><ele>39.5</ele><time>2026-04-10T16:10:17Z</time></trkpt><trkpt lat="50.93352566046728" lon="5.689804914975045"><ele>39.25</ele><time>2026-04-10T16:10:19Z</time></trkpt><trkpt lat="50.93364005299215" lon="5.689845916855437"><ele>39.0</ele><time>2026-04-10T16:10:21Z</time></trkpt><trkpt lat="50.93375260630542" lon="5.6898915324189"><ele>39.0</ele><time>2026-04-10T16:10:23Z</time></trkpt><trkpt lat="50.933862669854356" lon="5.689936533865714"><ele>39.0</ele><time>2026-04-10T16:10:25Z</time></trkpt><trkpt lat="50.933972230509404" lon="5.689973756223678"><ele>39.0</ele><time>2026-04-10T16:10:27Z</time></trkpt><trkpt lat="50.934080539143075" lon="5.690015202613634"><ele>39.0</ele><time>2026-04-10T16:10:29Z</time></trkpt><trkpt lat="50.93418818956196" lon="5.690053853010946"><ele>39.0</ele><time>2026-04-10T16:10:31Z</time></trkpt><trkpt lat="50.934406868517236" lon="5.6901409019907545"><ele>38.8</ele><time>2026-04-10T16:10:35Z</time></trkpt><trkpt lat="50.93450817358972" lon="5.690183759273734"><ele>38.599999999999994</ele><time>2026-04-10T16:10:37Z</time></trkpt><trkpt lat="50.934608188018466" lon="5.690221151863654"><ele>38.4</ele><time>2026-04-10T16:10:39Z</time></trkpt><trkpt lat="50.934713832179305" lon="5.690256522536838"><ele>38.199999999999996</ele><time>2026-04-10T16:10:41Z</time></trkpt><trkpt lat="50.934820701605275" lon="5.6902998858488"><ele>38.0</ele><time>2026-04-10T16:10:43.001Z</time></trkpt><trkpt lat="50.93493086556743" lon="5.690340153841586"><ele>37.8</ele><time>2026-04-10T16:10:45Z</time></trkpt><trkpt lat="50.93504128354386" lon="5.6903707475051"><ele>37.599999999999994</ele><time>2026-04-10T16:10:47Z</time></trkpt><trkpt lat="50.93514474184962" lon="5.690403091204357"><ele>37.400000000000006</ele><time>2026-04-10T16:10:49Z</time></trkpt><trkpt lat="50.93524259329657" lon="5.690440584623579"><ele>37.2</ele><time>2026-04-10T16:10:51Z</time></trkpt><trkpt lat="50.935332795605305" lon="5.690488010434352"><ele>37.0</ele><time>2026-04-10T16:10:53Z</time></trkpt><trkpt lat="50.93553812359888" lon="5.690567749891966"><ele>37.4</ele><time>2026-04-10T16:10:57Z</time></trkpt><trkpt lat="50.93564373038073" lon="5.69060614175355"><ele>37.800000000000004</ele><time>2026-04-10T16:10:59Z</time></trkpt><trkpt lat="50.935750281170435" lon="5.69064660109807"><ele>38.2</ele><time>2026-04-10T16:11:01Z</time></trkpt><trkpt lat="50.93585071322066" lon="5.690688050499392"><ele>38.6</ele><time>2026-04-10T16:11:03Z</time></trkpt><trkpt lat="50.93594987443742" lon="5.690729618367238"><ele>39.0</ele><time>2026-04-10T16:11:05Z</time></trkpt><trkpt lat="50.9360565459845" lon="5.690759832770141"><ele>39.2</ele><time>2026-04-10T16:11:07Z</time></trkpt><trkpt lat="50.93616414592513" lon="5.690804675545717"><ele>39.4</ele><time>2026-04-10T16:11:09Z</time></trkpt><trkpt lat="50.93625785452872" lon="5.690940649278637"><ele>39.6</ele><time>2026-04-10T16:11:11Z</time></trkpt><trkpt lat="50.936359657254094" lon="5.690977059186121"><ele>39.8</ele><time>2026-04-10T16:11:13Z</time></trkpt><trkpt lat="50.936459008426944" lon="5.691014718902311"><ele>40.0</ele><time>2026-04-10T16:11:15Z</time></trkpt><trkpt lat="50.93666473078109" lon="5.691094444567524"><ele>40.2</ele><time>2026-04-10T16:11:19Z</time></trkpt><trkpt lat="50.93677267275052" lon="5.691137883656489"><ele>40.4</ele><time>2026-04-10T16:11:21Z</time></trkpt><trkpt lat="50.936881294537464" lon="5.691181331022652"><ele>40.599999999999994</ele><time>2026-04-10T16:11:23Z</time></trkpt><trkpt lat="50.93698891370895" lon="5.691221820856472"><ele>40.8</ele><time>2026-04-10T16:11:25Z</time></trkpt><trkpt lat="50.93709508616024" lon="5.69126208514599"><ele>41.0</ele><time>2026-04-10T16:11:27Z</time></trkpt><trkpt lat="50.93719693620387" lon="5.691301435272825"><ele>41.0</ele><time>2026-04-10T16:11:29Z</time></trkpt><trkpt lat="50.937297748075245" lon="5.691340384311937"><ele>41.0</ele><time>2026-04-10T16:11:31Z</time></trkpt><trkpt lat="50.93740913308986" lon="5.6913788643886685"><ele>41.0</ele><time>2026-04-10T16:11:33Z</time></trkpt><trkpt lat="50.93751811543917" lon="5.69141565567905"><ele>41.0</ele><time>2026-04-10T16:11:35Z</time></trkpt><trkpt lat="50.93762063046073" lon="5.6914496438621285"><ele>41.0</ele><time>2026-04-10T16:11:37Z</time></trkpt><trkpt lat="50.93780470043031" lon="5.691507215465335"><ele>41.0</ele><time>2026-04-10T16:11:41Z</time></trkpt><trkpt lat="50.937907592281476" lon="5.691537106572456"><ele>41.0</ele><time>2026-04-10T16:11:43Z</time></trkpt><trkpt lat="50.93803084647614" lon="5.691571690463923"><ele>41.0</ele><time>2026-04-10T16:11:45Z</time></trkpt><trkpt lat="50.93816054781081" lon="5.691607027921622"><ele>41.0</ele><time>2026-04-10T16:11:47Z</time></trkpt><trkpt lat="50.938280382150765" lon="5.691640645343829"><ele>41.0</ele><time>2026-04-10T16:11:49Z</time></trkpt><trkpt lat="50.93839513713702" lon="5.691673218472082"><ele>41.0</ele><time>2026-04-10T16:11:51Z</time></trkpt><trkpt lat="50.93850945447852" lon="5.691702239146785"><ele>41.0</ele><time>2026-04-10T16:11:53Z</time></trkpt><trkpt lat="50.93857802444904" lon="5.691548458621928"><ele>41.0</ele><time>2026-04-10T16:11:54Z</time></trkpt><trkpt lat="50.938664200166514" lon="5.691591336540458"><ele>41.0</ele><time>2026-04-10T16:11:56Z</time></trkpt><trkpt lat="50.93878321351741" lon="5.691624971520067"><ele>41.0</ele><time>2026-04-10T16:11:58Z</time></trkpt><trkpt lat="50.93902339117734" lon="5.691674616990114"><ele>41.0</ele><time>2026-04-10T16:12:02Z</time></trkpt><trkpt lat="50.93913612108192" lon="5.691708262155061"><ele>41.0</ele><time>2026-04-10T16:12:04Z</time></trkpt><trkpt lat="50.93925528317555" lon="5.691733475668911"><ele>41.0</ele><time>2026-04-10T16:12:06Z</time></trkpt><trkpt lat="50.939383270744585" lon="5.691754552926936"><ele>41.0</ele><time>2026-04-10T16:12:08Z</time></trkpt><trkpt lat="50.939506296716196" lon="5.691784121304503"><ele>41.0</ele><time>2026-04-10T16:12:10Z</time></trkpt><trkpt lat="50.93962025774511" lon="5.691818800422058"><ele>41.0</ele><time>2026-04-10T16:12:12Z</time></trkpt><trkpt lat="50.93973108141599" lon="5.691840442715098"><ele>41.0</ele><time>2026-04-10T16:12:14Z</time></trkpt><trkpt lat="50.93984626475088" lon="5.691858495762789"><ele>41.0</ele><time>2026-04-10T16:12:16Z</time></trkpt><trkpt lat="50.939958110061774" lon="5.691877995075259"><ele>41.0</ele><time>2026-04-10T16:12:18Z</time></trkpt><trkpt lat="50.94007158856824" lon="5.691905246153777"><ele>41.0</ele><time>2026-04-10T16:12:20Z</time></trkpt><trkpt lat="50.940295813789774" lon="5.691930537145483"><ele>40.75</ele><time>2026-04-10T16:12:24Z</time></trkpt><trkpt lat="50.940411076809674" lon="5.691947430629855"><ele>40.5</ele><time>2026-04-10T16:12:26Z</time></trkpt><trkpt lat="50.94052417851474" lon="5.691961553381225"><ele>40.25</ele><time>2026-04-10T16:12:28Z</time></trkpt><trkpt lat="50.94063484676803" lon="5.691986512436204"><ele>40.0</ele><time>2026-04-10T16:12:30Z</time></trkpt><trkpt lat="50.940746834538224" lon="5.691999004830217"><ele>40.5</ele><time>2026-04-10T16:12:32Z</time></trkpt><trkpt lat="50.94088492443343" lon="5.692009185340979"><ele>41.0</ele><time>2026-04-10T16:12:34Z</time></trkpt><trkpt lat="50.94101900224512" lon="5.692027408284252"><ele>41.5</ele><time>2026-04-10T16:12:36Z</time></trkpt><trkpt lat="50.94114678142057" lon="5.692051112836164"><ele>42.0</ele><time>2026-04-10T16:12:38Z</time></trkpt><trkpt lat="50.94127566071848" lon="5.6920683893319355"><ele>42.0</ele><time>2026-04-10T16:12:40Z</time></trkpt><trkpt lat="50.9413914955654" lon="5.692084618119848"><ele>42.0</ele><time>2026-04-10T16:12:42Z</time></trkpt><trkpt lat="50.94162989765058" lon="5.69211831034431"><ele>42.0</ele><time>2026-04-10T16:12:46Z</time></trkpt><trkpt lat="50.9417499207508" lon="5.692130849669605"><ele>41.75</ele><time>2026-04-10T16:12:48Z</time></trkpt><trkpt lat="50.94187316671087" lon="5.692155492505793"><ele>41.5</ele><time>2026-04-10T16:12:50Z</time></trkpt><trkpt lat="50.94198782976486" lon="5.692162976875315"><ele>41.25</ele><time>2026-04-10T16:12:52Z</time></trkpt><trkpt lat="50.94209798096767" lon="5.692174643617008"><ele>41.0</ele><time>2026-04-10T16:12:54Z</time></trkpt><trkpt lat="50.942201847110304" lon="5.69218540228141"><ele>41.0</ele><time>2026-04-10T16:12:56Z</time></trkpt><trkpt lat="50.942299823676976" lon="5.692200406567993"><ele>41.0</ele><time>2026-04-10T16:12:58Z</time></trkpt><trkpt lat="50.942393049732004" lon="5.692211951348386"><ele>41.0</ele><time>2026-04-10T16:13:00Z</time></trkpt><trkpt lat="50.94252444242381" lon="5.692230576882303"><ele>41.0</ele><time>2026-04-10T16:13:03Z</time></trkpt><trkpt lat="50.94271575296145" lon="5.692018733128887"><ele>40.5</ele><time>2026-04-10T16:13:10Z</time></trkpt><trkpt lat="50.94277707820331" lon="5.691869086203602"><ele>40.0</ele><time>2026-04-10T16:13:14Z</time></trkpt><trkpt lat="50.942958383007586" lon="5.691994020990516"><ele>39.5</ele><time>2026-04-10T16:13:17Z</time></trkpt><trkpt lat="50.943029563259046" lon="5.692133208707816"><ele>39.0</ele><time>2026-04-10T16:13:20Z</time></trkpt><trkpt lat="50.943085889967186" lon="5.692254585493846"><ele>39.0</ele><time>2026-04-10T16:13:22Z</time></trkpt><trkpt lat="50.94318577959608" lon="5.692332411459513"><ele>39.0</ele><time>2026-04-10T16:13:24Z</time></trkpt><trkpt lat="50.94343836879334" lon="5.692356786465483"><ele>39.0</ele><time>2026-04-10T16:13:28Z</time></trkpt><trkpt lat="50.94355699279776" lon="5.692382268524016"><ele>39.25</ele><time>2026-04-10T16:13:30Z</time></trkpt><trkpt lat="50.943675751532865" lon="5.692403530212768"><ele>39.5</ele><time>2026-04-10T16:13:32Z</time></trkpt><trkpt lat="50.943801183183425" lon="5.692417242422768"><ele>39.75</ele><time>2026-04-10T16:13:34Z</time></trkpt><trkpt lat="50.94393070811308" lon="5.692426518431321"><ele>40.0</ele><time>2026-04-10T16:13:36Z</time></trkpt><trkpt lat="50.944061370576385" lon="5.692457501317918"><ele>40.0</ele><time>2026-04-10T16:13:38Z</time></trkpt><trkpt lat="50.944193189567585" lon="5.692484670086343"><ele>40.0</ele><time>2026-04-10T16:13:40Z</time></trkpt><trkpt lat="50.9443218440609" lon="5.692504022895656"><ele>40.0</ele><time>2026-04-10T16:13:42Z</time></trkpt><trkpt lat="50.944439066357155" lon="5.692523957583238"><ele>40.0</ele><time>2026-04-10T16:13:44Z</time></trkpt><trkpt lat="50.944551933725506" lon="5.6925457801962684"><ele>40.333333333333336</ele><time>2026-04-10T16:13:46Z</time></trkpt><trkpt lat="50.944788076276694" lon="5.692569193682516"><ele>40.666666666666664</ele><time>2026-04-10T16:13:50Z</time></trkpt><trkpt lat="50.944908346702256" lon="5.692587465450533"><ele>41.0</ele><time>2026-04-10T16:13:52Z</time></trkpt><trkpt lat="50.9450233672413" lon="5.692605202074701"><ele>40.5</ele><time>2026-04-10T16:13:54Z</time></trkpt><trkpt lat="50.9451423927507" lon="5.692621338331036"><ele>40.0</ele><time>2026-04-10T16:13:56Z</time></trkpt><trkpt lat="50.94525852648522" lon="5.692639375149225"><ele>39.5</ele><time>2026-04-10T16:13:58Z</time></trkpt><trkpt lat="50.945363564236125" lon="5.692648851297582"><ele>39.0</ele><time>2026-04-10T16:14:00Z</time></trkpt><trkpt lat="50.94547121044532" lon="5.692668993240143"><ele>39.0</ele><time>2026-04-10T16:14:02Z</time></trkpt><trkpt lat="50.945587751576475" lon="5.692678553377653"><ele>39.0</ele><time>2026-04-10T16:14:04Z</time></trkpt><trkpt lat="50.94569405695959" lon="5.692700201218285"><ele>39.0</ele><time>2026-04-10T16:14:06Z</time></trkpt><trkpt lat="50.9458092841314" lon="5.692714141073215"><ele>39.0</ele><time>2026-04-10T16:14:08Z</time></trkpt><trkpt lat="50.94604314215099" lon="5.692742587540577"><ele>39.0</ele><time>2026-04-10T16:14:12Z</time></trkpt><trkpt lat="50.946149076857715" lon="5.692767316890542"><ele>39.0</ele><time>2026-04-10T16:14:16Z</time></trkpt><trkpt lat="50.94624820264931" lon="5.692778980310529"><ele>39.0</ele><time>2026-04-10T16:14:19Z</time></trkpt><trkpt lat="50.946351791889356" lon="5.69278254422154"><ele>39.0</ele><time>2026-04-10T16:14:21Z</time></trkpt><trkpt lat="50.946459205558234" lon="5.692798183796965"><ele>39.0</ele><time>2026-04-10T16:14:23Z</time></trkpt><trkpt lat="50.946562336684565" lon="5.692813221036546"><ele>39.0</ele><time>2026-04-10T16:14:25Z</time></trkpt><trkpt lat="50.94665557905604" lon="5.692826847035482"><ele>39.0</ele><time>2026-04-10T16:14:27Z</time></trkpt><trkpt lat="50.94675662002351" lon="5.6928561696261974"><ele>39.0</ele><time>2026-04-10T16:14:29Z</time></trkpt><trkpt lat="50.946943046436644" lon="5.692880333300719"><ele>39.0</ele><time>2026-04-10T16:14:33Z</time></trkpt><trkpt lat="50.94704199321027" lon="5.692894598494372"><ele>39.0</ele><time>2026-04-10T16:14:35Z</time></trkpt><trkpt lat="50.94713954113635" lon="5.692905508221699"><ele>39.0</ele><time>2026-04-10T16:14:37Z</time></trkpt><trkpt lat="50.94723253522168" lon="5.6929217455182375"><ele>39.0</ele><time>2026-04-10T16:14:39Z</time></trkpt><trkpt lat="50.94732551762582" lon="5.692932650497765"><ele>39.0</ele><time>2026-04-10T16:14:41Z</time></trkpt><trkpt lat="50.94742813606576" lon="5.692943313989022"><ele>39.0</ele><time>2026-04-10T16:14:43Z</time></trkpt><trkpt lat="50.9475331123624" lon="5.692947200860348"><ele>39.0</ele><time>2026-04-10T16:14:45Z</time></trkpt><trkpt lat="50.9476362582598" lon="5.692952896136712"><ele>39.0</ele><time>2026-04-10T16:14:47Z</time></trkpt><trkpt lat="50.947741450770145" lon="5.6929751923752665"><ele>39.0</ele><time>2026-04-10T16:14:49Z</time></trkpt><trkpt lat="50.94784389749843" lon="5.692993946742771"><ele>39.0</ele><time>2026-04-10T16:14:51Z</time></trkpt><trkpt lat="50.94802903529109" lon="5.693010321957283"><ele>39.0</ele><time>2026-04-10T16:14:55Z</time></trkpt><trkpt lat="50.948124617301445" lon="5.693027167091519"><ele>39.0</ele><time>2026-04-10T16:14:57Z</time></trkpt><trkpt lat="50.948221068731705" lon="5.693034429168679"><ele>39.0</ele><time>2026-04-10T16:14:59Z</time></trkpt><trkpt lat="50.948318464289684" lon="5.693046252956999"><ele>39.0</ele><time>2026-04-10T16:15:01Z</time></trkpt><trkpt lat="50.948416621682846" lon="5.693061965796548"><ele>39.0</ele><time>2026-04-10T16:15:03Z</time></trkpt><trkpt lat="50.94851250279653" lon="5.693078454947145"><ele>39.0</ele><time>2026-04-10T16:15:05Z</time></trkpt><trkpt lat="50.94860896514258" lon="5.693085372006425"><ele>39.0</ele><time>2026-04-10T16:15:07Z</time></trkpt><trkpt lat="50.94870713771705" lon="5.693103298782638"><ele>39.0</ele><time>2026-04-10T16:15:09Z</time></trkpt><trkpt lat="50.948811930216536" lon="5.6931219065187895"><ele>39.0</ele><time>2026-04-10T16:15:11Z</time></trkpt><trkpt lat="50.948913565576554" lon="5.693123324107463"><ele>39.0</ele><time>2026-04-10T16:15:13Z</time></trkpt><trkpt lat="50.94912039630584" lon="5.693174405318595"><ele>39.0</ele><time>2026-04-10T16:15:17Z</time></trkpt><trkpt lat="50.94921355490645" lon="5.69318927811781"><ele>39.0</ele><time>2026-04-10T16:15:19Z</time></trkpt><trkpt lat="50.94931149544984" lon="5.693204582553257"><ele>39.0</ele><time>2026-04-10T16:15:21Z</time></trkpt><trkpt lat="50.94941379384979" lon="5.693219709207031"><ele>39.0</ele><time>2026-04-10T16:15:23Z</time></trkpt><trkpt lat="50.949517860123734" lon="5.69323499255118"><ele>39.0</ele><time>2026-04-10T16:15:25Z</time></trkpt><trkpt lat="50.94962169969359" lon="5.693254069665609"><ele>39.0</ele><time>2026-04-10T16:15:27Z</time></trkpt><trkpt lat="50.94972388737508" lon="5.693264834534003"><ele>39.0</ele><time>2026-04-10T16:15:29Z</time></trkpt><trkpt lat="50.94986746135052" lon="5.6932207688200815"><ele>39.0</ele><time>2026-04-10T16:15:32Z</time></trkpt><trkpt lat="50.94997337942811" lon="5.693242481500853"><ele>39.0</ele><time>2026-04-10T16:15:34Z</time></trkpt><trkpt lat="50.950199353440915" lon="5.693269458848391"><ele>39.2</ele><time>2026-04-10T16:15:38Z</time></trkpt><trkpt lat="50.950297412584824" lon="5.693315462596265"><ele>39.4</ele><time>2026-04-10T16:15:40Z</time></trkpt><trkpt lat="50.9504017316113" lon="5.693364818774892"><ele>39.6</ele><time>2026-04-10T16:15:42Z</time></trkpt><trkpt lat="50.95050705489054" lon="5.693382122856718"><ele>39.8</ele><time>2026-04-10T16:15:44Z</time></trkpt><trkpt lat="50.95061700594874" lon="5.693397735297334"><ele>40.0</ele><time>2026-04-10T16:15:46Z</time></trkpt><trkpt lat="50.95072054630756" lon="5.693410476055301"><ele>40.0</ele><time>2026-04-10T16:15:48Z</time></trkpt><trkpt lat="50.950813788680925" lon="5.6934184596107835"><ele>40.0</ele><time>2026-04-10T16:15:50Z</time></trkpt><trkpt lat="50.95090950886569" lon="5.693433595479024"><ele>40.0</ele><time>2026-04-10T16:15:52Z</time></trkpt><trkpt lat="50.95104069849461" lon="5.693438328276708"><ele>40.0</ele><time>2026-04-10T16:15:55Z</time></trkpt><trkpt lat="50.9512739195318" lon="5.693315713370715"><ele>40.0</ele><time>2026-04-10T16:16:01Z</time></trkpt><trkpt lat="50.951342934080884" lon="5.693168975401568"><ele>40.0</ele><time>2026-04-10T16:16:04Z</time></trkpt><trkpt lat="50.95136269446176" lon="5.6929702701505684"><ele>40.0</ele><time>2026-04-10T16:16:07Z</time></trkpt><trkpt lat="50.9513642877819" lon="5.69282144826715"><ele>40.0</ele><time>2026-04-10T16:16:09Z</time></trkpt><trkpt lat="50.95141029245768" lon="5.692685534866264"><ele>40.0</ele><time>2026-04-10T16:16:11Z</time></trkpt><trkpt lat="50.9514982391542" lon="5.69263418305579"><ele>40.0</ele><time>2026-04-10T16:16:13Z</time></trkpt><trkpt lat="50.95159943390454" lon="5.6926406148287745"><ele>40.0</ele><time>2026-04-10T16:16:17Z</time></trkpt><trkpt lat="50.95189778855946" lon="5.692686651258483"><ele>40.0</ele><time>2026-04-10T16:16:22Z</time></trkpt><trkpt lat="50.95194228244681" lon="5.692859726058205"><ele>40.25</ele><time>2026-04-10T16:16:24Z</time></trkpt><trkpt lat="50.951967249231416" lon="5.693041147215087"><ele>40.5</ele><time>2026-04-10T16:16:26Z</time></trkpt><trkpt lat="50.95204964846387" lon="5.69317191221729"><ele>40.75</ele><time>2026-04-10T16:16:28Z</time></trkpt><trkpt lat="50.95213652193068" lon="5.693297011300222"><ele>41.0</ele><time>2026-04-10T16:16:30Z</time></trkpt><trkpt lat="50.95222663270155" lon="5.693390544428426"><ele>41.0</ele><time>2026-04-10T16:16:32Z</time></trkpt><trkpt lat="50.952310259664856" lon="5.693476006176988"><ele>41.0</ele><time>2026-04-10T16:16:34Z</time></trkpt><trkpt lat="50.95240363894623" lon="5.69353815451862"><ele>41.0</ele><time>2026-04-10T16:16:36Z</time></trkpt><trkpt lat="50.952502632626675" lon="5.69359465188203"><ele>41.0</ele><time>2026-04-10T16:16:38Z</time></trkpt><trkpt lat="50.95271235180589" lon="5.693669858206732"><ele>41.199999999999996</ele><time>2026-04-10T16:16:42Z</time></trkpt><trkpt lat="50.95281540170727" lon="5.693684263072716"><ele>41.4</ele><time>2026-04-10T16:16:44Z</time></trkpt><trkpt lat="50.952917186013366" lon="5.6936910495018695"><ele>41.6</ele><time>2026-04-10T16:16:46Z</time></trkpt><trkpt lat="50.95302423364797" lon="5.693710301234246"><ele>41.8</ele><time>2026-04-10T16:16:48Z</time></trkpt><trkpt lat="50.95312858618231" lon="5.693721229966953"><ele>42.0</ele><time>2026-04-10T16:16:50Z</time></trkpt><trkpt lat="50.95323147042246" lon="5.693712231170661"><ele>42.0</ele><time>2026-04-10T16:16:52Z</time></trkpt><trkpt lat="50.953333591083144" lon="5.693738038841851"><ele>42.0</ele><time>2026-04-10T16:16:54Z</time></trkpt><trkpt lat="50.95344063762508" lon="5.693760342606177"><ele>42.0</ele><time>2026-04-10T16:16:56Z</time></trkpt><trkpt lat="50.95355331716195" lon="5.693766160324026"><ele>42.0</ele><time>2026-04-10T16:16:58Z</time></trkpt><trkpt lat="50.95368985292981" lon="5.693790011311921"><ele>42.0</ele><time>2026-04-10T16:17:01.001Z</time></trkpt><trkpt lat="50.9539041485253" lon="5.693828358226314"><ele>42.0</ele><time>2026-04-10T16:17:05.001Z</time></trkpt><trkpt lat="50.95400584861745" lon="5.693839556491851"><ele>42.0</ele><time>2026-04-10T16:17:07.001Z</time></trkpt><trkpt lat="50.954099452640925" lon="5.69385170613904"><ele>42.0</ele><time>2026-04-10T16:17:09.001Z</time></trkpt><trkpt lat="50.95418965814959" lon="5.693862558085191"><ele>41.2</ele><time>2026-04-10T16:17:11.001Z</time></trkpt><trkpt lat="50.9543225540209" lon="5.6938865263266205"><ele>40.400000000000006</ele><time>2026-04-10T16:17:14.001Z</time></trkpt><trkpt lat="50.95441467258189" lon="5.6938950728955655"><ele>39.599999999999994</ele><time>2026-04-10T16:17:16.001Z</time></trkpt><trkpt lat="50.95454054642941" lon="5.693874290549423"><ele>38.8</ele><time>2026-04-10T16:17:19Z</time></trkpt><trkpt lat="50.95463229184762" lon="5.693835345089619"><ele>38.0</ele><time>2026-04-10T16:17:21Z</time></trkpt><trkpt lat="50.95471257005057" lon="5.693761003031371"><ele>39.0</ele><time>2026-04-10T16:17:23Z</time></trkpt><trkpt lat="50.954845794029495" lon="5.693546163682582"><ele>40.0</ele><time>2026-04-10T16:17:27Z</time></trkpt><trkpt lat="50.95487323646958" lon="5.693404903103123"><ele>41.0</ele><time>2026-04-10T16:17:29Z</time></trkpt><trkpt lat="50.95491461619655" lon="5.693252879271615"><ele>42.0</ele><time>2026-04-10T16:17:31Z</time></trkpt><trkpt lat="50.95500216087341" lon="5.693191815591381"><ele>41.25</ele><time>2026-04-10T16:17:33Z</time></trkpt><trkpt lat="50.95511456205582" lon="5.693229052440139"><ele>40.5</ele><time>2026-04-10T16:17:36Z</time></trkpt><trkpt lat="50.95521404706677" lon="5.693295560860048"><ele>39.75</ele><time>2026-04-10T16:17:39Z</time></trkpt><trkpt lat="50.95533769733079" lon="5.693367497175326"><ele>39.0</ele><time>2026-04-10T16:17:42Z</time></trkpt><trkpt lat="50.95547680062637" lon="5.693440863133647"><ele>38.333333333333336</ele><time>2026-04-10T16:17:44Z</time></trkpt><trkpt lat="50.95568507290726" lon="5.693699902314409"><ele>37.66666666666667</ele><time>2026-04-10T16:17:49Z</time></trkpt><trkpt lat="50.9557373064347" lon="5.69383320104013"><ele>37.0</ele><time>2026-04-10T16:17:51Z</time></trkpt><trkpt lat="50.955841272324754" lon="5.693983360499128"><ele>37.4</ele><time>2026-04-10T16:17:54Z</time></trkpt><trkpt lat="50.95593845325084" lon="5.694043911607842"><ele>37.800000000000004</ele><time>2026-04-10T16:17:56Z</time></trkpt><trkpt lat="50.95603116681852" lon="5.694090715500385"><ele>38.2</ele><time>2026-04-10T16:17:58Z</time></trkpt><trkpt lat="50.956119240152326" lon="5.694125043197277"><ele>38.6</ele><time>2026-04-10T16:18:00Z</time></trkpt><trkpt lat="50.95623796395883" lon="5.694174850607928"><ele>39.0</ele><time>2026-04-10T16:18:03Z</time></trkpt><trkpt lat="50.95635046095378" lon="5.694182104454203"><ele>39.0</ele><time>2026-04-10T16:18:06Z</time></trkpt><trkpt lat="50.95658875620492" lon="5.694231287351508"><ele>39.0</ele><time>2026-04-10T16:18:11Z</time></trkpt><trkpt lat="50.95668979498785" lon="5.694241799656184"><ele>39.0</ele><time>2026-04-10T16:18:13Z</time></trkpt><trkpt lat="50.95679008759018" lon="5.694256694963549"><ele>39.0</ele><time>2026-04-10T16:18:15Z</time></trkpt><trkpt lat="50.95688377385856" lon="5.6942643187022295"><ele>38.8</ele><time>2026-04-10T16:18:17Z</time></trkpt><trkpt lat="50.95701469443411" lon="5.694283050077782"><ele>38.599999999999994</ele><time>2026-04-10T16:18:20Z</time></trkpt><trkpt lat="50.95710585022909" lon="5.694295361907779"><ele>38.4</ele><time>2026-04-10T16:18:22Z</time></trkpt><trkpt lat="50.9571956788383" lon="5.694265670608362"><ele>38.199999999999996</ele><time>2026-04-10T16:18:24Z</time></trkpt><trkpt lat="50.957287840250046" lon="5.694272490150583"><ele>38.0</ele><time>2026-04-10T16:18:26Z</time></trkpt><trkpt lat="50.95740760552187" lon="5.694320898113172"><ele>38.666666666666664</ele><time>2026-04-10T16:18:29Z</time></trkpt><trkpt lat="50.95760301587021" lon="5.694407495583564"><ele>39.333333333333336</ele><time>2026-04-10T16:18:35Z</time></trkpt><trkpt lat="50.95769314232409" lon="5.69437969019673"><ele>40.0</ele><time>2026-04-10T16:19:15Z</time></trkpt><trkpt lat="50.957947604089256" lon="5.6942369586102535"><ele>40.0</ele><time>2026-04-10T16:19:48Z</time></trkpt><trkpt lat="50.95804631650056" lon="5.6944835132768645"><ele>40.0</ele><time>2026-04-10T16:19:53Z</time></trkpt><trkpt lat="50.958135734603765" lon="5.694534860742655"><ele>40.0</ele><time>2026-04-10T16:19:55Z</time></trkpt><trkpt lat="50.958229001311246" lon="5.694491177456641"><ele>40.0</ele><time>2026-04-10T16:19:57Z</time></trkpt><trkpt lat="50.95832297455946" lon="5.694509231951051"><ele>39.75</ele><time>2026-04-10T16:20:00Z</time></trkpt><trkpt lat="50.958540103175494" lon="5.694545638295252"><ele>39.5</ele><time>2026-04-10T16:20:07Z</time></trkpt><trkpt lat="50.958635379365326" lon="5.694557860928283"><ele>39.25</ele><time>2026-04-10T16:20:10Z</time></trkpt><trkpt lat="50.958753713374946" lon="5.6945753150548875"><ele>39.0</ele><time>2026-04-10T16:20:14Z</time></trkpt><trkpt lat="50.9588513887939" lon="5.694598666565458"><ele>39.0</ele><time>2026-04-10T16:20:17Z</time></trkpt><trkpt lat="50.95895607252921" lon="5.694611284096614"><ele>39.0</ele><time>2026-04-10T16:20:20Z</time></trkpt><trkpt lat="50.95906263370972" lon="5.694633202646122"><ele>39.0</ele><time>2026-04-10T16:20:23Z</time></trkpt><trkpt lat="50.95930363064874" lon="5.694670012807461"><ele>39.25</ele><time>2026-04-10T16:20:29Z</time></trkpt><trkpt lat="50.9594300516764" lon="5.694684696961404"><ele>39.5</ele><time>2026-04-10T16:20:32Z</time></trkpt><trkpt lat="50.959560094810236" lon="5.694712581296305"><ele>39.75</ele><time>2026-04-10T16:20:35Z</time></trkpt><trkpt lat="50.95968240589251" lon="5.694733361833948"><ele>40.0</ele><time>2026-04-10T16:20:38Z</time></trkpt><trkpt lat="50.95979018064905" lon="5.694745331270719"><ele>40.0</ele><time>2026-04-10T16:20:41Z</time></trkpt><trkpt lat="50.959906905648744" lon="5.694758908199841"><ele>40.0</ele><time>2026-04-10T16:20:43.999Z</time></trkpt><trkpt lat="50.96008554966484" lon="5.694794081633454"><ele>40.0</ele><time>2026-04-10T16:20:48.999Z</time></trkpt><trkpt lat="50.96019416527951" lon="5.694789076679693"><ele>40.0</ele><time>2026-04-10T16:20:51.999Z</time></trkpt><trkpt lat="50.960308393168006" lon="5.6948135999011695"><ele>40.2</ele><time>2026-04-10T16:20:54.999Z</time></trkpt><trkpt lat="50.960397059131786" lon="5.694840418667819"><ele>40.4</ele><time>2026-04-10T16:20:56.999Z</time></trkpt><trkpt lat="50.9604969660067" lon="5.6948564685764556"><ele>40.599999999999994</ele><time>2026-04-10T16:20:58.999Z</time></trkpt><trkpt lat="50.96059889895142" lon="5.694871204327024"><ele>40.8</ele><time>2026-04-10T16:21:00.999Z</time></trkpt><trkpt lat="50.960694060715305" lon="5.694879831097486"><ele>41.0</ele><time>2026-04-10T16:21:02.999Z</time></trkpt><trkpt lat="50.96082353882588" lon="5.694894487328679"><ele>40.5</ele><time>2026-04-10T16:21:05.999Z</time></trkpt><trkpt lat="50.96105505015957" lon="5.694928133305226"><ele>40.0</ele><time>2026-04-10T16:21:12Z</time></trkpt><trkpt lat="50.96114663107756" lon="5.694937423929927"><ele>39.5</ele><time>2026-04-10T16:21:14Z</time></trkpt><trkpt lat="50.96124398618516" lon="5.694947024362053"><ele>39.0</ele><time>2026-04-10T16:21:16Z</time></trkpt><trkpt lat="50.96134077638013" lon="5.694960638286856"><ele>39.0</ele><time>2026-04-10T16:21:18Z</time></trkpt><trkpt lat="50.961434050743705" lon="5.694969888954938"><ele>39.0</ele><time>2026-04-10T16:21:20Z</time></trkpt><trkpt lat="50.96154570127204" lon="5.694965485238081"><ele>39.0</ele><time>2026-04-10T16:21:23Z</time></trkpt><trkpt lat="50.96166382828068" lon="5.69496608306054"><ele>39.0</ele><time>2026-04-10T16:21:26Z</time></trkpt><trkpt lat="50.96177668158303" lon="5.695029119145533"><ele>39.0</ele><time>2026-04-10T16:21:29Z</time></trkpt><trkpt lat="50.96197765666681" lon="5.695050781061956"><ele>39.2</ele><time>2026-04-10T16:21:33Z</time></trkpt><trkpt lat="50.9620779464911" lon="5.6950801819912895"><ele>39.4</ele><time>2026-04-10T16:21:35Z</time></trkpt><trkpt lat="50.96216934709528" lon="5.695079666153952"><ele>39.6</ele><time>2026-04-10T16:21:37Z</time></trkpt><trkpt lat="50.962262140536616" lon="5.695095274319529"><ele>39.8</ele><time>2026-04-10T16:21:39Z</time></trkpt><trkpt lat="50.962398658194665" lon="5.6951221631201046"><ele>40.0</ele><time>2026-04-10T16:21:42Z</time></trkpt><trkpt lat="50.96249528700744" lon="5.6951385953856075"><ele>40.5</ele><time>2026-04-10T16:21:44Z</time></trkpt><trkpt lat="50.96259519698777" lon="5.6951544957925835"><ele>41.0</ele><time>2026-04-10T16:21:46Z</time></trkpt><trkpt lat="50.962689652646155" lon="5.695162551774781"><ele>41.5</ele><time>2026-04-10T16:21:48Z</time></trkpt><trkpt lat="50.962784809497215" lon="5.69517004164724"><ele>42.0</ele><time>2026-04-10T16:21:50Z</time></trkpt><trkpt lat="50.96299563167047" lon="5.695195594021668"><ele>42.0</ele><time>2026-04-10T16:21:54Z</time></trkpt><trkpt lat="50.9630994250541" lon="5.695221640348599"><ele>42.0</ele><time>2026-04-10T16:21:56Z</time></trkpt><trkpt lat="50.96320616730631" lon="5.6952247706761625"><ele>42.0</ele><time>2026-04-10T16:21:58Z</time></trkpt><trkpt lat="50.963305991405285" lon="5.6952429468888095"><ele>42.0</ele><time>2026-04-10T16:22:00Z</time></trkpt><trkpt lat="50.96340197692928" lon="5.695261791526722"><ele>42.0</ele><time>2026-04-10T16:22:02Z</time></trkpt><trkpt lat="50.963495307584594" lon="5.695277867351799"><ele>42.2</ele><time>2026-04-10T16:22:04Z</time></trkpt><trkpt lat="50.963592611032084" lon="5.695300534936392"><ele>42.400000000000006</ele><time>2026-04-10T16:22:06Z</time></trkpt><trkpt lat="50.963682634337076" lon="5.6953216748001925"><ele>42.599999999999994</ele><time>2026-04-10T16:22:08Z</time></trkpt><trkpt lat="50.9637716917327" lon="5.6953434372406795"><ele>42.8</ele><time>2026-04-10T16:22:10Z</time></trkpt><trkpt lat="50.963884438035485" lon="5.695370452787646"><ele>43.0</ele><time>2026-04-10T16:22:13Z</time></trkpt><trkpt lat="50.964097535580464" lon="5.695410040331307"><ele>42.5</ele><time>2026-04-10T16:22:19Z</time></trkpt><trkpt lat="50.96422407866118" lon="5.6954541240121594"><ele>42.0</ele><time>2026-04-10T16:22:22Z</time></trkpt><trkpt lat="50.964312866251696" lon="5.695486193766593"><ele>41.5</ele><time>2026-04-10T16:22:24Z</time></trkpt><trkpt lat="50.9644397122503" lon="5.69553832509329"><ele>41.0</ele><time>2026-04-10T16:22:27Z</time></trkpt><trkpt lat="50.96453054030385" lon="5.695597782605665"><ele>41.0</ele><time>2026-04-10T16:22:29Z</time></trkpt><trkpt lat="50.96463626837362" lon="5.695618831203611"><ele>41.0</ele><time>2026-04-10T16:22:31Z</time></trkpt><trkpt lat="50.96474789129501" lon="5.6956552963095035"><ele>41.0</ele><time>2026-04-10T16:22:33Z</time></trkpt><trkpt lat="50.964859462629505" lon="5.695700051530137"><ele>41.0</ele><time>2026-04-10T16:22:35Z</time></trkpt><trkpt lat="50.96508401192635" lon="5.69579324071899"><ele>40.8</ele><time>2026-04-10T16:22:39Z</time></trkpt><trkpt lat="50.96518272168074" lon="5.695841822625291"><ele>40.599999999999994</ele><time>2026-04-10T16:22:41Z</time></trkpt><trkpt lat="50.96528962062485" lon="5.695887516640813"><ele>40.4</ele><time>2026-04-10T16:22:43Z</time></trkpt><trkpt lat="50.965395424551055" lon="5.695928488188366"><ele>40.2</ele><time>2026-04-10T16:22:45Z</time></trkpt><trkpt lat="50.965500343422484" lon="5.695974125824054"><ele>40.0</ele><time>2026-04-10T16:22:47Z</time></trkpt><trkpt lat="50.96560679574164" lon="5.696021322481565"><ele>40.0</ele><time>2026-04-10T16:22:49Z</time></trkpt><trkpt lat="50.96571083630025" lon="5.696076197937676"><ele>40.0</ele><time>2026-04-10T16:22:51Z</time></trkpt><trkpt lat="50.96581957824747" lon="5.696103983419504"><ele>40.0</ele><time>2026-04-10T16:22:53Z</time></trkpt><trkpt lat="50.96591521148386" lon="5.696146130528761"><ele>40.0</ele><time>2026-04-10T16:22:55Z</time></trkpt><trkpt lat="50.96604785098341" lon="5.696180223852"><ele>40.0</ele><time>2026-04-10T16:22:58Z</time></trkpt><trkpt lat="50.96625263621706" lon="5.696266693979409"><ele>40.0</ele><time>2026-04-10T16:23:02Z</time></trkpt><trkpt lat="50.96634563186705" lon="5.696302282493583"><ele>40.0</ele><time>2026-04-10T16:23:04Z</time></trkpt><trkpt lat="50.96647305107548" lon="5.696349771985587"><ele>40.0</ele><time>2026-04-10T16:23:07Z</time></trkpt><trkpt lat="50.966578753060276" lon="5.696388405309013"><ele>40.0</ele><time>2026-04-10T16:23:10Z</time></trkpt><trkpt lat="50.966684116099266" lon="5.696395079096371"><ele>40.0</ele><time>2026-04-10T16:23:16Z</time></trkpt><trkpt lat="50.96677528200803" lon="5.696432119686545"><ele>40.0</ele><time>2026-04-10T16:23:21Z</time></trkpt><trkpt lat="50.9675143778237" lon="5.696726490055292"><ele>40.0</ele><time>2026-04-10T16:27:54Z</time></trkpt><trkpt lat="50.967627033330295" lon="5.696797061959359"><ele>40.0</ele><time>2026-04-10T16:27:58Z</time></trkpt><trkpt lat="50.967733363492904" lon="5.6968420271216855"><ele>40.0</ele><time>2026-04-10T16:28:01Z</time></trkpt><trkpt lat="50.96785131714324" lon="5.6968896412410555"><ele>40.0</ele><time>2026-04-10T16:28:04Z</time></trkpt><trkpt lat="50.96793897878935" lon="5.696928834899562"><ele>40.0</ele><time>2026-04-10T16:28:06Z</time></trkpt><trkpt lat="50.96802657051022" lon="5.696965384334226"><ele>39.75</ele><time>2026-04-10T16:28:08Z</time></trkpt><trkpt lat="50.968227505437376" lon="5.697057371238936"><ele>39.5</ele><time>2026-04-10T16:28:12Z</time></trkpt><trkpt lat="50.968334056748084" lon="5.697104199525929"><ele>39.25</ele><time>2026-04-10T16:28:14Z</time></trkpt><trkpt lat="50.96844410772221" lon="5.697146897793688"><ele>39.0</ele><time>2026-04-10T16:28:16Z</time></trkpt><trkpt lat="50.968545141261494" lon="5.69719321370968"><ele>39.4</ele><time>2026-04-10T16:28:18Z</time></trkpt><trkpt lat="50.968636472387146" lon="5.697229708048051"><ele>39.8</ele><time>2026-04-10T16:28:20Z</time></trkpt><trkpt lat="50.96873400482699" lon="5.697269589115332"><ele>40.199999999999996</ele><time>2026-04-10T16:28:22Z</time></trkpt><trkpt lat="50.968829457045025" lon="5.697299455459432"><ele>40.599999999999994</ele><time>2026-04-10T16:28:24Z</time></trkpt><trkpt lat="50.96892950176662" lon="5.697341994953624"><ele>41.0</ele><time>2026-04-10T16:28:26Z</time></trkpt><trkpt lat="50.96904043463184" lon="5.69738724889595"><ele>41.0</ele><time>2026-04-10T16:28:28Z</time></trkpt><trkpt lat="50.96914935898416" lon="5.6974323485035665"><ele>41.0</ele><time>2026-04-10T16:28:30Z</time></trkpt><trkpt lat="50.96936935013634" lon="5.6975083448664545"><ele>41.0</ele><time>2026-04-10T16:28:35Z</time></trkpt><trkpt lat="50.9694825578717" lon="5.69756050526754"><ele>40.599999999999994</ele><time>2026-04-10T16:28:38Z</time></trkpt><trkpt lat="50.96958098168343" lon="5.697590314940627"><ele>40.199999999999996</ele><time>2026-04-10T16:28:40Z</time></trkpt><trkpt lat="50.96970512176978" lon="5.6976483213521"><ele>39.8</ele><time>2026-04-10T16:28:43Z</time></trkpt><trkpt lat="50.96979458609352" lon="5.6976783136142775"><ele>39.4</ele><time>2026-04-10T16:28:45Z</time></trkpt><trkpt lat="50.969882276258666" lon="5.697714767458785"><ele>39.0</ele><time>2026-04-10T16:28:47Z</time></trkpt><trkpt lat="50.97000767478116" lon="5.697764105122201"><ele>39.333333333333336</ele><time>2026-04-10T16:28:50Z</time></trkpt><trkpt lat="50.97013699184172" lon="5.697814863337602"><ele>39.66666666666667</ele><time>2026-04-10T16:28:52.999Z</time></trkpt><trkpt lat="50.9703769465443" lon="5.697907926640409"><ele>40.0</ele><time>2026-04-10T16:28:58.999Z</time></trkpt><trkpt lat="50.97048972502725" lon="5.697958552893237"><ele>40.0</ele><time>2026-04-10T16:29:01.999Z</time></trkpt><trkpt lat="50.97059495737826" lon="5.69800066080662"><ele>40.0</ele><time>2026-04-10T16:29:04.999Z</time></trkpt><trkpt lat="50.97070419905275" lon="5.698040652123292"><ele>40.0</ele><time>2026-04-10T16:29:07.999Z</time></trkpt><trkpt lat="50.970813262029466" lon="5.698089890751155"><ele>40.0</ele><time>2026-04-10T16:29:10.999Z</time></trkpt><trkpt lat="50.970919660817636" lon="5.698129587227766"><ele>40.0</ele><time>2026-04-10T16:29:13.999Z</time></trkpt><trkpt lat="50.97112266863838" lon="5.698194453213681"><ele>40.0</ele><time>2026-04-10T16:29:19.999Z</time></trkpt><trkpt lat="50.9712516585988" lon="5.6982565699419405"><ele>40.0</ele><time>2026-04-10T16:29:22.999Z</time></trkpt><trkpt lat="50.971352513931095" lon="5.698287710606339"><ele>40.0</ele><time>2026-04-10T16:29:24.999Z</time></trkpt><trkpt lat="50.97146509636399" lon="5.698335687146158"><ele>40.0</ele><time>2026-04-10T16:29:26.999Z</time></trkpt><trkpt lat="50.97160056229302" lon="5.698387414156648"><ele>40.0</ele><time>2026-04-10T16:29:28.999Z</time></trkpt><trkpt lat="50.97173602509075" lon="5.698437860899819"><ele>40.0</ele><time>2026-04-10T16:29:30.999Z</time></trkpt><trkpt lat="50.97186818752095" lon="5.698479376435854"><ele>40.0</ele><time>2026-04-10T16:29:32.999Z</time></trkpt><trkpt lat="50.97200478842417" lon="5.698537172237422"><ele>40.0</ele><time>2026-04-10T16:29:35Z</time></trkpt><trkpt lat="50.97225106399883" lon="5.698643867891294"><ele>40.25</ele><time>2026-04-10T16:29:39Z</time></trkpt><trkpt lat="50.972369644951215" lon="5.698681911896544"><ele>40.5</ele><time>2026-04-10T16:29:41Z</time></trkpt><trkpt lat="50.97252321282375" lon="5.698722357554134"><ele>40.75</ele><time>2026-04-10T16:29:43Z</time></trkpt><trkpt lat="50.97268317215907" lon="5.6987770125723305"><ele>41.0</ele><time>2026-04-10T16:29:45Z</time></trkpt><trkpt lat="50.97285175530758" lon="5.698846333344302"><ele>40.33333333333333</ele><time>2026-04-10T16:29:47Z</time></trkpt><trkpt lat="50.973007725148975" lon="5.69890371832258"><ele>39.666666666666664</ele><time>2026-04-10T16:29:49Z</time></trkpt><trkpt lat="50.97315442102797" lon="5.698962422565431"><ele>39.0</ele><time>2026-04-10T16:29:51Z</time></trkpt><trkpt lat="50.97329085522013" lon="5.699012552923384"><ele>39.0</ele><time>2026-04-10T16:29:53Z</time></trkpt><trkpt lat="50.97341929988843" lon="5.699065370793297"><ele>39.0</ele><time>2026-04-10T16:29:55Z</time></trkpt><trkpt lat="50.97353662031969" lon="5.699106492713245"><ele>39.0</ele><time>2026-04-10T16:29:57Z</time></trkpt><trkpt lat="50.97375643919617" lon="5.699197547114497"><ele>39.0</ele><time>2026-04-10T16:30:01Z</time></trkpt><trkpt lat="50.973874194518494" lon="5.69924286670496"><ele>39.0</ele><time>2026-04-10T16:30:03Z</time></trkpt><trkpt lat="50.974009674370755" lon="5.6993053259545094"><ele>39.0</ele><time>2026-04-10T16:30:05Z</time></trkpt><trkpt lat="50.974158611279016" lon="5.69935619203919"><ele>39.0</ele><time>2026-04-10T16:30:07Z</time></trkpt><trkpt lat="50.97429290387304" lon="5.699409306989398"><ele>39.0</ele><time>2026-04-10T16:30:09Z</time></trkpt><trkpt lat="50.974416477368194" lon="5.6994596102898045"><ele>39.0</ele><time>2026-04-10T16:30:11Z</time></trkpt><trkpt lat="50.97454563188271" lon="5.6995073828281555"><ele>39.0</ele><time>2026-04-10T16:30:13Z</time></trkpt><trkpt lat="50.97467054963593" lon="5.699559318263041"><ele>39.0</ele><time>2026-04-10T16:30:15Z</time></trkpt><trkpt lat="50.97479045408002" lon="5.699607610551234"><ele>39.0</ele><time>2026-04-10T16:30:17Z</time></trkpt><trkpt lat="50.97491124416459" lon="5.699652580070785"><ele>39.0</ele><time>2026-04-10T16:30:19Z</time></trkpt><trkpt lat="50.97516614422139" lon="5.699753975413014"><ele>39.0</ele><time>2026-04-10T16:30:23Z</time></trkpt><trkpt lat="50.975289525830256" lon="5.699806789530235"><ele>39.2</ele><time>2026-04-10T16:30:25Z</time></trkpt><trkpt lat="50.97540835172141" lon="5.699847221785673"><ele>39.4</ele><time>2026-04-10T16:30:27Z</time></trkpt><trkpt lat="50.97551985911063" lon="5.699891256132981"><ele>39.6</ele><time>2026-04-10T16:30:29Z</time></trkpt><trkpt lat="50.975620880295715" lon="5.6999297773237645"><ele>39.8</ele><time>2026-04-10T16:30:31Z</time></trkpt><trkpt lat="50.97572258677377" lon="5.699973578040854"><ele>40.0</ele><time>2026-04-10T16:30:33Z</time></trkpt><trkpt lat="50.97581609524751" lon="5.700019481483515"><ele>40.25</ele><time>2026-04-10T16:30:35Z</time></trkpt><trkpt lat="50.975919136596325" lon="5.700026549484628"><ele>40.5</ele><time>2026-04-10T16:30:37Z</time></trkpt><trkpt lat="50.9760194266187" lon="5.700032811484986"><ele>40.75</ele><time>2026-04-10T16:30:39Z</time></trkpt><trkpt lat="50.97611857615438" lon="5.700077223049211"><ele>41.0</ele><time>2026-04-10T16:30:41Z</time></trkpt><trkpt lat="50.97633763984935" lon="5.700175726828062"><ele>41.0</ele><time>2026-04-10T16:30:45Z</time></trkpt><trkpt lat="50.976443154964585" lon="5.700232724487081"><ele>41.0</ele><time>2026-04-10T16:30:47Z</time></trkpt><trkpt lat="50.97654755048945" lon="5.700273075054535"><ele>41.0</ele><time>2026-04-10T16:30:50Z</time></trkpt><trkpt lat="50.976634680295184" lon="5.700309484502589"><ele>41.0</ele><time>2026-04-10T16:30:55Z</time></trkpt><trkpt lat="50.97675557219632" lon="5.700358554991305"><ele>41.0</ele><time>2026-04-10T16:31:25Z</time></trkpt><trkpt lat="50.976977074589406" lon="5.700426960328776"><ele>40.8</ele><time>2026-04-10T16:31:30Z</time></trkpt><trkpt lat="50.97709583495185" lon="5.700502450099208"><ele>40.599999999999994</ele><time>2026-04-10T16:31:33Z</time></trkpt><trkpt lat="50.97718452936773" lon="5.700547631020816"><ele>40.4</ele><time>2026-04-10T16:31:35Z</time></trkpt><trkpt lat="50.97727798179487" lon="5.700576178967889"><ele>40.2</ele><time>2026-04-10T16:31:37Z</time></trkpt><trkpt lat="50.9773898554226" lon="5.700603205395592"><ele>40.0</ele><time>2026-04-10T16:31:39Z</time></trkpt><trkpt lat="50.977504338869856" lon="5.700644599265688"><ele>40.25</ele><time>2026-04-10T16:31:41Z</time></trkpt><trkpt lat="50.9776023753786" lon="5.700686741041435"><ele>40.5</ele><time>2026-04-10T16:31:43Z</time></trkpt><trkpt lat="50.97770835459792" lon="5.700732619098191"><ele>40.75</ele><time>2026-04-10T16:31:45Z</time></trkpt><trkpt lat="50.97783824305223" lon="5.700792929217904"><ele>41.0</ele><time>2026-04-10T16:31:47Z</time></trkpt><trkpt lat="50.97810484956044" lon="5.700904260714671"><ele>41.0</ele><time>2026-04-10T16:31:51Z</time></trkpt><trkpt lat="50.97824069768743" lon="5.700968667678229"><ele>41.0</ele><time>2026-04-10T16:31:53Z</time></trkpt><trkpt lat="50.978363143359566" lon="5.701018000526594"><ele>41.0</ele><time>2026-04-10T16:31:55Z</time></trkpt><trkpt lat="50.978479667456185" lon="5.701070060900068"><ele>41.0</ele><time>2026-04-10T16:31:57Z</time></trkpt><trkpt lat="50.9785908918407" lon="5.7011150375869395"><ele>41.0</ele><time>2026-04-10T16:31:59Z</time></trkpt><trkpt lat="50.978701748915086" lon="5.70116197712703"><ele>41.0</ele><time>2026-04-10T16:32:01Z</time></trkpt><trkpt lat="50.978798590511296" lon="5.701218055372597"><ele>41.0</ele><time>2026-04-10T16:32:03Z</time></trkpt><trkpt lat="50.9789219445727" lon="5.701248169406658"><ele>41.0</ele><time>2026-04-10T16:32:05Z</time></trkpt><trkpt lat="50.97905233959486" lon="5.701303387118809"><ele>41.0</ele><time>2026-04-10T16:32:07Z</time></trkpt><trkpt lat="50.979174228793674" lon="5.7013510041038975"><ele>41.0</ele><time>2026-04-10T16:32:09Z</time></trkpt><trkpt lat="50.97939415538911" lon="5.701456271392581"><ele>41.0</ele><time>2026-04-10T16:32:13Z</time></trkpt><trkpt lat="50.97949546236828" lon="5.70151137220479"><ele>41.0</ele><time>2026-04-10T16:32:15Z</time></trkpt><trkpt lat="50.97959734423714" lon="5.701592321256439"><ele>41.0</ele><time>2026-04-10T16:32:17Z</time></trkpt><trkpt lat="50.979702879193646" lon="5.701676173297796"><ele>41.0</ele><time>2026-04-10T16:32:19Z</time></trkpt><trkpt lat="50.979883781504405" lon="5.701471952266742"><ele>41.0</ele><time>2026-04-10T16:32:21Z</time></trkpt><trkpt lat="50.97998246355411" lon="5.7014528505135225"><ele>41.0</ele><time>2026-04-10T16:32:23Z</time></trkpt><trkpt lat="50.98008503287102" lon="5.701376495945849"><ele>41.0</ele><time>2026-04-10T16:32:26Z</time></trkpt><trkpt lat="50.980023211317395" lon="5.701114843884159"><ele>41.0</ele><time>2026-04-10T16:32:27Z</time></trkpt><trkpt lat="50.9799948636284" lon="5.700925914067507"><ele>41.0</ele><time>2026-04-10T16:32:29Z</time></trkpt><trkpt lat="50.980028083643916" lon="5.700749862195083"><ele>41.0</ele><time>2026-04-10T16:32:31Z</time></trkpt><trkpt lat="50.98008699695627" lon="5.700464388087263"><ele>41.0</ele><time>2026-04-10T16:32:35Z</time></trkpt><trkpt lat="50.980112695824324" lon="5.700327569086632"><ele>41.0</ele><time>2026-04-10T16:32:37Z</time></trkpt><trkpt lat="50.9801616715015" lon="5.700136787035486"><ele>41.0</ele><time>2026-04-10T16:32:40Z</time></trkpt><trkpt lat="50.98019169815203" lon="5.69992545119619"><ele>41.0</ele><time>2026-04-10T16:32:41Z</time></trkpt><trkpt lat="50.98011184003499" lon="5.699793190556828"><ele>41.0</ele><time>2026-04-10T16:32:46Z</time></trkpt><trkpt lat="50.980015183877484" lon="5.699757426991678"><ele>41.0</ele><time>2026-04-10T16:32:48Z</time></trkpt><trkpt lat="50.979922583352725" lon="5.699741803412019"><ele>41.0</ele><time>2026-04-10T16:32:50Z</time></trkpt><trkpt lat="50.97979741375949" lon="5.699708322720801"><ele>42.0</ele><time>2026-04-10T16:32:53Z</time></trkpt><trkpt lat="50.97972457237704" lon="5.699429232576373"><ele>42.0</ele><time>2026-04-10T16:32:59Z</time></trkpt><trkpt lat="50.979755336957254" lon="5.699295309468827"><ele>43.0</ele><time>2026-04-10T16:33:02Z</time></trkpt><trkpt lat="50.97976048480497" lon="5.699151001711569"><ele>43.0</ele><time>2026-04-10T16:33:17Z</time></trkpt></trkseg></trk></gpx>